Site Date RecNum LOGGERID PROGID Year_RTM Day_RTM Hour_Minute_RTM AIRTEMP_MEAN_150_0_02 AIRTEMP_MEAN_450_0_01 RELHUM_MEAN_150_0_02 RELHUM_MEAN_450_0_01 DEWPT_MEAN_150_0_02 DEWPT_MEAN_450_0_01 WSPD_PRO_MEAN_500_0_01 WMAG_PRO_MEAN_500_0_01 WDIR_PRO_MEAN_500_0_01 WDIR_PRO_STDDEV_500_0_01 SATVP_MEAN_150_0_02 VAP_MEAN_150_0_02 VPD_MEAN_150_0_02 SATVP_MEAN_450_0_01 VAP_MEAN_450_0_01 VPD_MEAN_450_0_01
H15MET 2016-10-01 00:00:00 11169 208 900.0 2016.0 274.00 2400.0 7.5400 7.4500 85.100 84.400 5.1990 4.9950 0.00000 0.00000 0.00 0.000 10.396 8.845 1.549 10.332 8.720 1.612
H15MET 2016-09-30 23:45:00 11168 208 900.0 2016.0 274.00 2345.0 7.4700 7.3900 85.700 84.700 5.2300 4.9810 0.02800 0.02300 158.30 0.046 10.346 8.864 1.479 10.289 8.711 1.574
H15MET 2016-09-30 23:30:00 11167 208 900.0 2016.0 274.00 2330.0 7.4000 7.3200 85.800 85.300 5.1810 5.0150 0.00800 0.00800 293.70 0.021 10.296 8.833 1.462 10.240 8.732 1.505
H15MET 2016-09-30 23:15:00 11166 208 900.0 2016.0 274.00 2315.0 7.4000 7.3200 85.600 84.500 5.1480 4.8810 0.02400 0.02400 286.00 0.031 10.296 8.813 1.483 10.240 8.650 1.587
H15MET 2016-09-30 23:00:00 11165 208 900.0 2016.0 274.00 2300.0 7.4000 7.3400 86.400 84.900 5.2830 4.9760 0.00000 0.00000 0.00 0.000 10.296 8.896 1.400 10.254 8.708 1.548
H15MET 2016-09-30 22:45:00 11164 208 900.0 2016.0 274.00 2245.0 7.2100 7.1900 87.700 85.500 5.3060 4.9210 0.08200 0.08100 282.80 3.290 10.163 8.911 1.250 10.149 8.675 1.472
H15MET 2016-09-30 22:30:00 11163 208 900.0 2016.0 274.00 2230.0 6.9740 6.9900 87.600 85.000 5.0580 4.6490 0.02900 0.01200 73.10 20.770 10.000 8.758 1.240 10.011 8.511 1.502
H15MET 2016-09-30 22:15:00 11162 208 900.0 2016.0 274.00 2215.0 6.7890 6.7850 87.900 85.600 4.9250 4.5430 0.12100 0.12000 273.10 3.092 9.874 8.677 1.195 9.871 8.448 1.421
H15MET 2016-09-30 22:00:00 11161 208 900.0 2016.0 274.00 2200.0 6.5930 6.6380 87.900 85.300 4.7350 4.3540 0.00000 0.00000 0.00 0.000 9.741 8.563 1.179 9.772 8.337 1.436
H15MET 2016-09-30 21:45:00 11160 208 900.0 2016.0 274.00 2145.0 6.4500 6.5380 86.900 84.700 4.4300 4.1490 0.00000 0.00000 0.00 0.000 9.646 8.382 1.264 9.705 8.218 1.485
H15MET 2016-09-30 21:30:00 11159 208 900.0 2016.0 274.00 2130.0 6.3430 6.4770 87.700 85.100 4.4630 4.1620 0.00000 0.00000 0.00 0.000 9.575 8.401 1.178 9.664 8.225 1.440
H15MET 2016-09-30 21:15:00 11158 208 900.0 2016.0 274.00 2115.0 6.0710 6.2910 87.400 84.500 4.1450 3.8760 0.10900 0.10900 300.90 0.062 9.397 8.216 1.184 9.541 8.062 1.479
H15MET 2016-09-30 21:00:00 11157 208 900.0 2016.0 274.00 2100.0 5.9710 6.2570 87.000 83.800 3.9790 3.7310 0.08000 0.08000 292.40 0.779 9.332 8.120 1.213 9.518 7.980 1.542
H15MET 2016-09-30 20:45:00 11156 208 900.0 2016.0 274.00 2045.0 6.0460 6.2770 87.400 84.900 4.1090 3.9240 0.00000 0.00000 0.00 0.000 9.380 8.195 1.182 9.531 8.089 1.439
H15MET 2016-09-30 20:30:00 11155 208 900.0 2016.0 274.00 2030.0 6.0540 6.1210 87.000 84.700 4.0520 3.7430 0.00000 0.00000 0.00 0.000 9.386 8.162 1.220 9.429 7.986 1.443
H15MET 2016-09-30 20:15:00 11154 208 900.0 2016.0 274.00 2015.0 6.0480 6.1230 87.000 85.000 4.0530 3.7950 0.01400 0.01400 278.30 0.027 9.382 8.163 1.220 9.430 8.016 1.415
H15MET 2016-09-30 20:00:00 11153 208 900.0 2016.0 274.00 2000.0 6.0670 6.1770 85.600 83.400 3.8420 3.5740 0.01600 0.01600 284.60 1.259 9.394 8.042 1.353 9.466 7.892 1.571
H15MET 2016-09-30 19:45:00 11152 208 900.0 2016.0 274.00 1945.0 6.1240 6.2860 85.700 83.100 3.9060 3.6350 0.06800 0.06400 289.50 0.872 9.431 8.079 1.349 9.537 7.926 1.612
H15MET 2016-09-30 19:30:00 11151 208 900.0 2016.0 274.00 1930.0 6.3330 6.4730 83.400 81.800 3.7290 3.5940 0.01000 0.01000 321.40 0.000 9.568 7.978 1.588 9.661 7.903 1.758
H15MET 2016-09-30 19:15:00 11150 208 900.0 2016.0 274.00 1915.0 6.4700 6.7470 82.300 79.200 3.6840 3.3980 0.18400 0.18400 318.70 1.002 9.659 7.953 1.710 9.845 7.794 2.048
H15MET 2016-09-30 19:00:00 11149 208 900.0 2016.0 274.00 1900.0 6.8710 7.3200 80.300 76.300 3.7120 3.4270 0.27500 0.27400 316.70 0.718 9.930 7.969 1.956 10.240 7.810 2.427
H15MET 2016-09-30 18:45:00 11148 208 900.0 2016.0 274.00 1845.0 7.4200 7.7100 78.900 75.800 4.0020 3.7110 0.04000 0.04000 314.90 0.773 10.311 8.133 2.176 10.517 7.968 2.545
H15MET 2016-09-30 18:30:00 11147 208 900.0 2016.0 274.00 1830.0 7.7600 8.0000 75.700 72.500 3.7420 3.3660 0.01600 0.01600 318.00 0.089 10.553 7.986 2.564 10.727 7.776 2.950
H15MET 2016-09-30 18:15:00 11146 208 900.0 2016.0 274.00 1815.0 8.2400 8.5400 70.800 66.830 3.2640 2.7280 0.03400 0.03400 318.10 0.015 10.904 7.720 3.184 11.128 7.432 3.691
H15MET 2016-09-30 18:00:00 11145 208 900.0 2016.0 274.00 1800.0 8.8700 9.2000 67.130 61.130 3.1060 2.1020 0.22900 0.22600 317.20 5.552 11.379 7.635 3.740 11.636 7.108 4.523
H15MET 2016-09-30 17:45:00 11144 208 900.0 2016.0 274.00 1745.0 9.6000 9.8400 60.470 56.120 2.3330 1.5090 0.23700 0.21200 332.60 22.290 11.953 7.226 4.725 12.148 6.812 5.330
H15MET 2016-09-30 17:30:00 11143 208 900.0 2016.0 274.00 1730.0 10.2600 10.4900 56.570 52.790 2.0160 1.2570 0.12100 0.11300 329.40 14.460 12.494 7.064 5.426 12.688 6.690 5.990
H15MET 2016-09-30 17:15:00 11142 208 900.0 2016.0 274.00 1715.0 11.0700 11.2000 51.740 47.710 1.4820 0.5000 0.07300 0.06900 324.30 14.400 13.187 6.799 6.364 13.302 6.334 6.955
H15MET 2016-09-30 17:00:00 11141 208 900.0 2016.0 274.00 1700.0 11.4900 11.6400 46.300 42.140 0.3630 -0.7870 0.23600 0.15800 331.40 32.880 13.560 6.271 7.282 13.695 5.767 7.924
H15MET 2016-09-30 16:45:00 11140 208 900.0 2016.0 274.00 1645.0 11.6500 11.8500 50.580 44.830 1.6820 0.2170 0.14800 0.07300 1.57 30.930 13.704 6.897 6.773 13.886 6.205 7.661
H15MET 2016-09-30 16:30:00 11139 208 900.0 2016.0 274.00 1630.0 11.8400 12.2000 53.880 46.640 2.7330 1.0140 0.24200 0.10100 322.50 37.800 13.877 7.435 6.400 14.211 6.573 7.583
H15MET 2016-09-30 16:15:00 11138 208 900.0 2016.0 274.00 1615.0 12.2000 12.5900 50.260 42.560 2.1380 0.1770 0.19100 0.17900 326.00 13.040 14.211 7.126 7.068 14.579 6.187 8.374
H15MET 2016-09-30 16:00:00 11137 208 900.0 2016.0 274.00 1600.0 12.8000 13.0700 46.380 39.370 1.3800 -0.6250 0.40500 0.31400 308.30 33.530 14.782 6.749 7.926 15.045 5.836 9.122
H15MET 2016-09-30 15:45:00 11136 208 900.0 2016.0 274.00 1545.0 13.3100 13.4900 51.900 47.380 3.6190 2.5040 0.20500 0.12700 304.10 22.960 15.283 7.917 7.351 15.463 7.315 8.137
H15MET 2016-09-30 15:30:00 11135 208 900.0 2016.0 274.00 1530.0 13.4600 13.7200 50.360 45.370 3.3170 2.1090 0.26100 0.12000 272.20 27.590 15.433 7.749 7.661 15.697 7.111 8.575
H15MET 2016-09-30 15:15:00 11134 208 900.0 2016.0 274.00 1515.0 13.9400 14.0700 50.130 45.440 3.6930 2.4460 0.37300 0.12900 312.40 53.440 15.923 7.958 7.941 16.057 7.285 8.761
H15MET 2016-09-30 15:00:00 11133 208 900.0 2016.0 274.00 1500.0 14.1000 14.3800 49.340 44.310 3.6180 2.3770 0.49200 0.41900 294.50 24.800 16.089 7.916 8.151 16.383 7.249 9.124
H15MET 2016-09-30 14:45:00 11132 208 900.0 2016.0 274.00 1445.0 14.0700 14.3800 55.790 48.110 5.3500 3.5350 0.15200 0.04300 115.00 33.100 16.057 8.938 7.099 16.383 7.870 8.501
H15MET 2016-09-30 14:30:00 11131 208 900.0 2016.0 274.00 1430.0 14.1900 14.3500 57.140 51.980 5.8230 4.6240 0.37200 0.15100 277.60 41.440 16.183 9.237 6.936 16.351 8.496 7.852
H15MET 2016-09-30 14:15:00 11130 208 900.0 2016.0 274.00 1415.0 14.0800 14.1900 58.200 55.350 5.9150 5.3260 0.35400 0.27800 341.30 23.200 16.068 9.296 6.716 16.183 8.923 7.226
H15MET 2016-09-30 14:00:00 11129 208 900.0 2016.0 274.00 1400.0 13.9100 14.0800 68.730 64.200 8.2300 7.4000 0.10400 0.05900 337.10 27.230 15.892 10.896 4.969 16.068 10.296 5.752
H15MET 2016-09-30 13:45:00 11128 208 900.0 2016.0 274.00 1345.0 14.2700 14.5100 65.620 60.940 7.9200 7.0700 0.13200 0.05600 141.60 13.350 16.267 10.669 5.593 16.521 10.066 6.453
H15MET 2016-09-30 13:30:00 11127 208 900.0 2016.0 274.00 1330.0 14.4200 14.7900 64.540 60.050 7.8200 7.1100 0.14900 0.13300 295.50 13.260 16.426 10.596 5.824 16.823 10.094 6.721
H15MET 2016-09-30 13:15:00 11126 208 900.0 2016.0 274.00 1315.0 14.3500 14.7400 62.290 56.920 7.2300 6.2940 0.32700 0.20300 117.60 37.250 16.351 10.177 6.166 16.769 9.543 7.224
H15MET 2016-09-30 13:00:00 11125 208 900.0 2016.0 274.00 1300.0 14.3200 14.4800 62.600 58.100 7.2700 6.3380 0.47100 0.14500 308.90 28.950 16.320 10.205 6.104 16.489 9.572 6.909
H15MET 2016-09-30 12:45:00 11124 208 900.0 2016.0 274.00 1245.0 13.9000 14.2000 64.320 60.630 7.2700 6.7000 0.26600 0.22200 307.20 23.090 15.881 10.205 5.666 16.193 9.813 6.375
H15MET 2016-09-30 12:30:00 11123 208 900.0 2016.0 274.00 1230.0 13.7400 14.1100 68.560 64.090 8.0600 7.4300 0.22300 0.03000 177.50 34.470 15.717 10.771 4.941 16.099 10.318 5.781
H15MET 2016-09-30 12:15:00 11122 208 900.0 2016.0 274.00 1215.0 13.5800 13.8700 67.440 63.480 7.6600 7.0600 0.37000 0.01900 347.50 37.020 15.554 10.481 5.064 15.850 10.059 5.789
H15MET 2016-09-30 12:00:00 11121 208 900.0 2016.0 274.00 1200.0 13.2900 13.4600 66.590 63.550 7.2000 6.6940 0.26800 0.21800 304.30 22.480 15.263 10.156 5.099 15.433 9.809 5.625
H15MET 2016-09-30 11:45:00 11120 208 900.0 2016.0 274.00 1145.0 12.9900 13.2300 71.000 66.060 7.8500 7.0300 0.28600 0.17600 112.40 38.210 14.967 10.618 4.340 15.203 10.039 5.160
H15MET 2016-09-30 11:30:00 11119 208 900.0 2016.0 274.00 1130.0 12.7700 12.9800 71.400 66.330 7.7300 6.8510 0.50300 0.11700 343.80 46.340 14.753 10.531 4.219 14.957 9.916 5.036
H15MET 2016-09-30 11:15:00 11118 208 900.0 2016.0 274.00 1115.0 12.6500 12.8600 76.000 71.100 8.5200 7.7300 0.06900 0.03500 68.05 15.050 14.637 11.113 3.513 14.840 10.531 4.289
H15MET 2016-09-30 11:00:00 11117 208 900.0 2016.0 274.00 1100.0 12.5300 12.7300 75.300 69.830 8.2600 7.3600 0.18600 0.08400 254.70 21.900 14.522 10.918 3.587 14.714 10.268 4.439
H15MET 2016-09-30 10:45:00 11116 208 900.0 2016.0 274.00 1045.0 12.1200 12.4900 78.500 74.100 8.4700 7.9900 0.04900 0.04300 121.50 6.378 14.136 11.075 3.039 14.484 10.720 3.751
H15MET 2016-09-30 10:30:00 11115 208 900.0 2016.0 274.00 1030.0 11.8000 12.4200 79.600 72.900 8.3800 7.6900 0.06400 0.05600 286.30 11.330 13.841 11.008 2.823 14.418 10.503 3.907
H15MET 2016-09-30 10:15:00 11114 208 900.0 2016.0 274.00 1015.0 11.2900 12.4400 85.000 76.500 8.8500 8.4300 0.10100 0.02900 256.00 7.060 13.381 11.364 2.007 14.437 11.045 3.393
H15MET 2016-09-30 10:00:00 11113 208 900.0 2016.0 274.00 1000.0 11.1100 12.4800 84.800 75.900 8.6400 8.3600 0.07100 0.06800 281.40 4.859 13.222 11.204 2.010 14.475 10.993 3.488
H15MET 2016-09-30 09:45:00 11112 208 900.0 2016.0 274.00 945.0 10.6500 11.9200 87.500 80.100 8.6600 8.5800 0.00000 0.00000 0.00 0.000 12.824 11.219 1.603 13.951 11.158 2.776
H15MET 2016-09-30 09:30:00 11111 208 900.0 2016.0 274.00 930.0 9.8900 10.4400 89.100 84.400 8.1700 7.9300 0.00000 0.00000 0.00 0.000 12.189 10.852 1.329 12.645 10.676 1.973
H15MET 2016-09-30 09:15:00 11110 208 900.0 2016.0 274.00 915.0 9.5400 10.3600 89.800 84.300 7.9600 7.8200 0.00000 0.00000 0.00 0.000 11.905 10.698 1.214 12.578 10.596 1.975
H15MET 2016-09-30 09:00:00 11109 208 900.0 2016.0 274.00 900.0 9.6200 11.2800 88.600 78.700 7.8300 7.7100 0.00000 0.00000 0.00 0.000 11.970 10.603 1.365 13.372 10.517 2.848
H15MET 2016-09-30 08:45:00 11108 208 900.0 2016.0 274.00 845.0 9.6100 11.7200 87.800 76.500 7.6800 7.7300 0.00500 0.00500 97.60 0.000 11.962 10.495 1.459 13.768 10.531 3.235
H15MET 2016-09-30 08:30:00 11107 208 900.0 2016.0 274.00 830.0 8.4400 10.2200 92.700 83.100 7.3300 7.4700 0.01300 0.01300 112.30 0.169 11.053 10.247 0.807 12.461 10.346 2.106
H15MET 2016-09-30 08:15:00 11106 208 900.0 2016.0 274.00 815.0 7.6100 7.7300 95.000 93.800 6.8570 6.7910 0.00000 0.00000 0.00 0.000 10.445 9.920 0.522 10.531 9.875 0.653
H15MET 2016-09-30 08:00:00 11105 208 900.0 2016.0 274.00 800.0 7.2000 7.2300 96.500 95.400 6.6780 6.5460 0.00000 0.00000 0.00 0.000 10.156 9.799 0.355 10.177 9.710 0.468
H15MET 2016-09-30 07:45:00 11104 208 900.0 2016.0 274.00 745.0 6.8690 6.8640 96.500 96.000 6.3470 6.2680 0.00000 0.00000 0.00 0.000 9.928 9.578 0.347 9.925 9.525 0.397
H15MET 2016-09-30 07:30:00 11103 208 900.0 2016.0 274.00 730.0 6.7200 6.7380 97.300 96.200 6.3220 6.1820 0.00000 0.00000 0.00 0.000 9.827 9.561 0.265 9.839 9.469 0.374
H15MET 2016-09-30 07:15:00 11102 208 900.0 2016.0 274.00 715.0 6.7470 6.7950 97.600 97.000 6.4000 6.3560 0.00000 0.00000 0.00 0.000 9.845 9.613 0.236 9.878 9.584 0.296
H15MET 2016-09-30 07:00:00 11101 208 900.0 2016.0 274.00 700.0 6.7610 6.7860 97.600 97.200 6.4020 6.3770 0.00000 0.00000 348.00 0.003 9.855 9.614 0.237 9.872 9.597 0.276
H15MET 2016-09-30 06:45:00 11100 208 900.0 2016.0 274.00 645.0 6.8060 6.7880 97.300 97.000 6.4100 6.3440 0.00000 0.00000 0.00 0.000 9.885 9.619 0.267 9.873 9.576 0.296
H15MET 2016-09-30 06:30:00 11099 208 900.0 2016.0 274.00 630.0 6.8910 6.8690 96.700 96.200 6.4010 6.3060 0.00000 0.00000 0.00 0.000 9.943 9.613 0.328 9.928 9.550 0.377
H15MET 2016-09-30 06:15:00 11098 208 900.0 2016.0 274.00 615.0 7.0000 6.9950 96.100 95.600 6.4320 6.3360 0.00000 0.00000 0.00 0.000 10.018 9.634 0.391 10.015 9.570 0.441
H15MET 2016-09-30 06:00:00 11097 208 900.0 2016.0 274.00 600.0 7.1900 7.2200 95.800 94.900 6.5610 6.4550 0.00000 0.00000 0.00 0.000 10.149 9.720 0.426 10.170 9.649 0.519
H15MET 2016-09-30 05:45:00 11096 208 900.0 2016.0 274.00 545.0 7.2900 7.3200 95.800 94.900 6.6570 6.5660 0.00000 0.00000 0.00 0.000 10.219 9.784 0.429 10.240 9.723 0.522
H15MET 2016-09-30 05:30:00 11095 208 900.0 2016.0 274.00 530.0 7.4300 7.4400 95.800 95.100 6.7980 6.7100 0.00000 0.00000 0.00 0.000 10.318 9.880 0.433 10.325 9.820 0.506
H15MET 2016-09-30 05:15:00 11094 208 900.0 2016.0 274.00 515.0 7.5600 7.5400 95.900 95.100 6.9490 6.8150 0.00000 0.00000 0.00 0.000 10.410 9.983 0.427 10.396 9.891 0.509
H15MET 2016-09-30 05:00:00 11093 208 900.0 2016.0 274.00 500.0 7.5800 7.5700 96.000 95.300 6.9860 6.8730 0.00000 0.00000 0.00 0.000 10.424 10.008 0.417 10.417 9.931 0.490
H15MET 2016-09-30 04:45:00 11092 208 900.0 2016.0 274.00 445.0 7.5400 7.5400 95.800 95.000 6.9190 6.7980 0.00000 0.00000 0.00 0.000 10.396 9.962 0.437 10.396 9.880 0.520
H15MET 2016-09-30 04:30:00 11091 208 900.0 2016.0 274.00 430.0 7.5500 7.5500 96.100 95.200 6.9730 6.8370 0.00000 0.00000 0.00 0.000 10.403 9.999 0.406 10.403 9.906 0.499
H15MET 2016-09-30 04:15:00 11090 208 900.0 2016.0 274.00 415.0 7.4700 7.5000 95.700 95.000 6.8220 6.7540 0.00000 0.00000 0.00 0.000 10.346 9.896 0.445 10.367 9.850 0.518
H15MET 2016-09-30 04:00:00 11089 208 900.0 2016.0 274.00 400.0 7.5000 7.5400 95.200 94.400 6.7880 6.6970 0.00000 0.00000 0.00 0.000 10.367 9.873 0.498 10.396 9.811 0.582
H15MET 2016-09-30 03:45:00 11088 208 900.0 2016.0 274.00 345.0 7.5900 7.6300 94.500 93.800 6.7630 6.6990 0.00000 0.00000 0.00 0.000 10.431 9.856 0.574 10.460 9.813 0.648
H15MET 2016-09-30 03:30:00 11087 208 900.0 2016.0 274.00 330.0 7.7800 7.8100 93.500 92.600 6.7990 6.6980 0.00000 0.00000 0.00 0.000 10.567 9.881 0.687 10.589 9.812 0.784
H15MET 2016-09-30 03:15:00 11086 208 900.0 2016.0 274.00 315.0 7.9900 8.0600 93.000 91.700 6.9240 6.8000 0.00000 0.00000 0.00 0.000 10.720 9.966 0.750 10.771 9.881 0.894
H15MET 2016-09-30 03:00:00 11085 208 900.0 2016.0 274.00 300.0 8.1500 8.1800 92.900 92.000 7.0700 6.9480 0.01300 0.01300 347.90 0.030 10.837 10.066 0.769 10.859 9.982 0.869
H15MET 2016-09-30 02:45:00 11084 208 900.0 2016.0 274.00 245.0 8.2900 8.2900 92.600 91.600 7.1600 7.0100 0.00000 0.00000 0.00 0.000 10.941 10.129 0.810 10.941 10.025 0.919
H15MET 2016-09-30 02:30:00 11083 208 900.0 2016.0 274.00 230.0 8.3800 8.4100 92.500 91.500 7.2300 7.1100 0.00000 0.00000 0.00 0.000 11.008 10.177 0.826 11.030 10.094 0.938
H15MET 2016-09-30 02:15:00 11082 208 900.0 2016.0 274.00 215.0 8.5300 8.5900 92.000 90.900 7.3100 7.1900 0.00000 0.00000 0.00 0.000 11.120 10.233 0.890 11.166 10.149 1.016
H15MET 2016-09-30 02:00:00 11081 208 900.0 2016.0 274.00 200.0 8.7700 8.7400 91.800 90.900 7.5200 7.3400 0.00000 0.00000 0.00 0.000 11.303 10.381 0.927 11.280 10.254 1.026
H15MET 2016-09-30 01:45:00 11080 208 900.0 2016.0 274.00 145.0 8.9000 8.9000 92.300 91.200 7.7200 7.5500 0.00100 0.00100 40.05 3.071 11.402 10.524 0.878 11.402 10.403 1.003
H15MET 2016-09-30 01:30:00 11079 208 900.0 2016.0 274.00 130.0 8.9800 8.9100 92.400 91.500 7.8100 7.6100 0.00000 0.00000 0.00 0.000 11.464 10.589 0.871 11.410 10.445 0.970
H15MET 2016-09-30 01:15:00 11078 208 900.0 2016.0 274.00 115.0 8.9200 8.8700 93.200 92.500 7.8800 7.7200 0.00000 0.00000 0.00 0.000 11.418 10.640 0.776 11.379 10.524 0.853
H15MET 2016-09-30 01:00:00 11077 208 900.0 2016.0 274.00 100.0 8.8200 8.8000 93.400 92.400 7.8200 7.6400 0.00000 0.00000 0.00 0.000 11.341 10.596 0.749 11.326 10.467 0.861
H15MET 2016-09-30 00:45:00 11076 208 900.0 2016.0 274.00 45.0 8.8000 8.8200 94.300 93.300 7.9400 7.8100 0.00000 0.00000 0.00 0.000 11.326 10.683 0.646 11.341 10.589 0.760
H15MET 2016-09-30 00:30:00 11075 208 900.0 2016.0 274.00 30.0 8.7700 8.7700 94.800 93.800 7.9800 7.8300 0.00000 0.00000 0.00 0.000 11.303 10.712 0.588 11.303 10.603 0.701
H15MET 2016-09-30 00:15:00 11074 208 900.0 2016.0 274.00 15.0 8.7000 8.7400 95.000 93.900 7.9400 7.8100 0.00000 0.00000 0.00 0.000 11.249 10.683 0.562 11.280 10.589 0.688
H15MET 2016-09-30 00:00:00 11073 208 900.0 2016.0 273.00 2400.0 8.8100 8.8300 95.000 94.100 8.0500 7.9300 0.00000 0.00000 0.00 0.000 11.333 10.764 0.567 11.349 10.676 0.670
H15MET 2016-09-29 23:45:00 11072 208 900.0 2016.0 273.00 2345.0 8.8800 8.8600 94.500 93.900 8.0500 7.9300 0.00200 0.00200 321.90 0.000 11.387 10.764 0.626 11.372 10.676 0.694
H15MET 2016-09-29 23:30:00 11071 208 900.0 2016.0 273.00 2330.0 8.8500 8.8500 95.700 95.000 8.2000 8.1000 0.00000 0.00000 0.00 0.000 11.364 10.874 0.489 11.364 10.800 0.568
H15MET 2016-09-29 23:15:00 11070 208 900.0 2016.0 273.00 2315.0 8.8100 8.8500 95.500 94.600 8.1300 8.0300 0.00000 0.00000 0.00 0.000 11.333 10.822 0.510 11.364 10.749 0.614
H15MET 2016-09-29 23:00:00 11069 208 900.0 2016.0 273.00 2300.0 8.7800 8.8700 95.000 93.900 8.0200 7.9400 0.00000 0.00000 0.00 0.000 11.310 10.742 0.566 11.379 10.683 0.694
H15MET 2016-09-29 22:45:00 11068 208 900.0 2016.0 273.00 2245.0 8.9300 9.0600 94.300 93.100 8.0500 8.0100 0.02700 0.02700 322.60 0.000 11.426 10.764 0.651 11.526 10.734 0.795
H15MET 2016-09-29 22:30:00 11067 208 900.0 2016.0 273.00 2230.0 9.2600 9.3400 93.600 92.700 8.2900 8.2200 0.01100 0.01100 322.70 0.000 11.683 10.941 0.748 11.746 10.889 0.857
H15MET 2016-09-29 22:15:00 11066 208 900.0 2016.0 273.00 2215.0 9.4700 9.5100 94.000 93.200 8.5500 8.4600 0.00000 0.00000 0.00 0.000 11.849 11.135 0.711 11.881 11.068 0.808
H15MET 2016-09-29 22:00:00 11065 208 900.0 2016.0 273.00 2200.0 9.5100 9.5400 93.900 92.900 8.5800 8.4600 0.00000 0.00000 0.00 0.000 11.881 11.158 0.725 11.905 11.068 0.845
H15MET 2016-09-29 21:45:00 11064 208 900.0 2016.0 273.00 2145.0 9.5300 9.5800 93.400 92.200 8.5200 8.3800 0.00000 0.00000 0.00 0.000 11.897 11.113 0.785 11.937 11.008 0.931
H15MET 2016-09-29 21:30:00 11063 208 900.0 2016.0 273.00 2130.0 9.5400 9.5800 92.900 91.800 8.4600 8.3200 0.00000 0.00000 0.00 0.000 11.905 11.068 0.845 11.937 10.963 0.979
H15MET 2016-09-29 21:15:00 11062 208 900.0 2016.0 273.00 2115.0 9.5200 9.5700 93.300 92.100 8.4800 8.3600 0.00800 0.00800 322.70 0.000 11.889 11.083 0.797 11.929 10.993 0.942
H15MET 2016-09-29 21:00:00 11061 208 900.0 2016.0 273.00 2100.0 9.5400 9.6600 92.700 91.600 8.4200 8.3700 0.00000 0.00000 0.00 0.000 11.905 11.038 0.869 12.002 11.000 1.008
H15MET 2016-09-29 20:45:00 11060 208 900.0 2016.0 273.00 2045.0 9.7100 9.8400 92.000 90.400 8.4700 8.3500 0.03200 0.03200 322.40 0.311 12.042 11.075 0.963 12.148 10.985 1.166
H15MET 2016-09-29 20:30:00 11059 208 900.0 2016.0 273.00 2030.0 9.9300 10.1500 90.900 88.600 8.5200 8.3500 0.12400 0.12400 322.90 0.294 12.221 11.113 1.112 12.403 10.985 1.414
H15MET 2016-09-29 20:15:00 11058 208 900.0 2016.0 273.00 2015.0 10.3200 10.4500 90.000 88.400 8.7500 8.6200 0.02900 0.02900 322.70 0.043 12.545 11.287 1.254 12.654 11.188 1.468
H15MET 2016-09-29 20:00:00 11057 208 900.0 2016.0 273.00 2000.0 10.6300 10.6800 91.200 89.800 9.2700 9.0900 0.00000 0.00000 0.00 0.000 12.807 11.691 1.127 12.850 11.550 1.311
H15MET 2016-09-29 19:45:00 11056 208 900.0 2016.0 273.00 1945.0 10.7800 10.9200 90.900 88.800 9.3500 9.1500 0.00000 0.00000 0.00 0.000 12.935 11.754 1.177 13.056 11.597 1.462
H15MET 2016-09-29 19:30:00 11055 208 900.0 2016.0 273.00 1930.0 10.9700 11.1400 90.000 87.900 9.4000 9.2200 0.00800 0.00800 322.90 0.059 13.100 11.794 1.310 13.249 11.652 1.603
H15MET 2016-09-29 19:15:00 11054 208 900.0 2016.0 273.00 1915.0 11.1300 11.2600 89.800 88.100 9.5300 9.3600 0.00500 0.00500 323.80 0.000 13.240 11.897 1.350 13.355 11.762 1.589
H15MET 2016-09-29 19:00:00 11053 208 900.0 2016.0 273.00 1900.0 11.2900 11.3600 90.300 88.300 9.7500 9.4900 0.00000 0.00000 0.00 0.000 13.381 12.075 1.298 13.444 11.865 1.573
H15MET 2016-09-29 18:45:00 11052 208 900.0 2016.0 273.00 1845.0 11.4000 11.5200 89.900 88.100 9.8000 9.6200 0.02500 0.02500 322.80 0.000 13.479 12.115 1.361 13.587 11.970 1.617
H15MET 2016-09-29 18:30:00 11051 208 900.0 2016.0 273.00 1830.0 11.5400 11.6600 88.900 87.100 9.7700 9.5900 0.07700 0.07700 322.70 0.081 13.605 12.091 1.510 13.713 11.945 1.769
H15MET 2016-09-29 18:15:00 11050 208 900.0 2016.0 273.00 1815.0 11.7200 11.8800 88.500 86.300 9.8800 9.6600 0.10400 0.10400 322.70 0.037 13.768 12.180 1.583 13.914 12.002 1.906
H15MET 2016-09-29 18:00:00 11049 208 900.0 2016.0 273.00 1800.0 11.9900 12.1500 87.500 85.700 9.9800 9.8200 0.03400 0.03400 322.90 0.020 14.015 12.262 1.752 14.164 12.131 2.025
H15MET 2016-09-29 17:45:00 11048 208 900.0 2016.0 273.00 1745.0 12.2200 12.4600 87.600 85.300 10.2200 10.0600 0.00000 0.00000 0.00 0.000 14.229 12.461 1.764 14.456 12.328 2.125
H15MET 2016-09-29 17:30:00 11047 208 900.0 2016.0 273.00 1730.0 12.5800 12.8900 86.500 83.300 10.3900 10.1300 0.00000 0.00000 0.00 0.000 14.570 12.603 1.967 14.869 12.386 2.483
H15MET 2016-09-29 17:15:00 11046 208 900.0 2016.0 273.00 1715.0 13.0400 13.3200 85.500 82.700 10.6600 10.4400 0.04500 0.04500 323.40 0.275 15.016 12.832 2.177 15.293 12.645 2.646
H15MET 2016-09-29 17:00:00 11045 208 900.0 2016.0 273.00 1700.0 13.5500 13.8900 83.900 80.600 10.8800 10.6000 0.07400 0.07400 327.00 0.145 15.524 13.022 2.499 15.871 12.781 3.079
H15MET 2016-09-29 16:45:00 11044 208 900.0 2016.0 273.00 1645.0 14.0900 14.5000 80.600 75.700 10.8000 10.2600 0.01200 0.01200 328.20 0.056 16.078 12.953 3.119 16.511 12.494 4.012
H15MET 2016-09-29 16:30:00 11043 208 900.0 2016.0 273.00 1630.0 14.7400 15.2000 75.300 69.380 10.4100 9.6300 0.00300 0.00300 327.80 0.003 16.769 12.620 4.142 17.273 11.978 5.289
H15MET 2016-09-29 16:15:00 11042 208 900.0 2016.0 273.00 1615.0 15.1000 15.6300 73.700 66.620 10.4300 9.4400 0.05900 0.04700 331.90 19.880 17.162 12.637 4.514 17.756 11.826 5.927
H15MET 2016-09-29 16:00:00 11041 208 900.0 2016.0 273.00 1600.0 15.5200 15.9100 71.500 65.570 10.3900 9.4700 0.04300 0.03900 287.40 5.268 17.631 12.603 5.025 18.077 11.849 6.224
H15MET 2016-09-29 15:45:00 11040 208 900.0 2016.0 273.00 1545.0 15.9500 16.2400 66.330 60.630 9.6800 8.6100 0.00600 0.00600 130.40 0.007 18.123 12.018 6.102 18.462 11.181 7.268
H15MET 2016-09-29 15:30:00 11039 208 900.0 2016.0 273.00 1530.0 16.0900 16.5300 66.190 58.810 9.7700 8.4400 0.05300 0.02000 22.23 14.000 18.286 12.091 6.182 18.806 11.053 7.746
H15MET 2016-09-29 15:15:00 11038 208 900.0 2016.0 273.00 1515.0 16.3900 16.7600 63.840 57.510 9.5200 8.3300 0.09000 0.05000 97.30 13.620 18.639 11.889 6.740 19.083 10.970 8.108
H15MET 2016-09-29 15:00:00 11037 208 900.0 2016.0 273.00 1500.0 16.2600 16.7300 66.470 60.270 9.9900 8.9900 0.07400 0.02500 5.76 13.430 18.485 12.271 6.198 19.046 11.472 7.567
H15MET 2016-09-29 14:45:00 11036 208 900.0 2016.0 273.00 1445.0 16.5000 16.8400 63.730 58.780 9.6000 8.7200 0.21400 0.12000 106.20 15.960 18.770 11.953 6.808 19.180 11.264 7.906
H15MET 2016-09-29 14:30:00 11035 208 900.0 2016.0 273.00 1430.0 16.7700 16.9900 62.750 59.640 9.6200 9.0800 0.11800 0.09500 335.10 17.120 19.095 11.970 7.113 19.363 11.542 7.815
H15MET 2016-09-29 14:15:00 11034 208 900.0 2016.0 273.00 1415.0 16.6400 16.8900 64.680 61.160 9.9600 9.3600 0.23600 0.14300 314.10 32.400 18.938 12.246 6.689 19.241 11.762 7.473
H15MET 2016-09-29 14:00:00 11033 208 900.0 2016.0 273.00 1400.0 16.2800 16.6000 69.730 65.290 10.7300 10.0500 0.17400 0.08700 294.80 20.570 18.509 12.892 5.603 18.890 12.320 6.557
H15MET 2016-09-29 13:45:00 11032 208 900.0 2016.0 273.00 1345.0 16.3600 16.5700 71.300 67.150 11.1600 10.4500 0.19100 0.08600 200.10 29.030 18.603 13.266 5.339 18.854 12.654 6.193
H15MET 2016-09-29 13:30:00 11031 208 900.0 2016.0 273.00 1330.0 16.2400 16.5100 72.400 68.670 11.2700 10.7300 0.17400 0.12000 126.00 26.060 18.462 13.364 5.095 18.782 12.892 5.884
H15MET 2016-09-29 13:15:00 11030 208 900.0 2016.0 273.00 1315.0 16.1800 16.5900 74.500 69.550 11.6400 11.0000 0.28200 0.23400 273.80 23.420 18.391 13.695 4.690 18.878 13.126 5.748
H15MET 2016-09-29 13:00:00 11029 208 900.0 2016.0 273.00 1300.0 16.1200 16.4100 76.800 71.900 12.0500 11.3200 0.05900 0.04200 160.40 17.870 18.321 14.071 4.250 18.663 13.408 5.244
H15MET 2016-09-29 12:45:00 11028 208 900.0 2016.0 273.00 1245.0 16.0600 16.3600 77.500 73.200 12.1400 11.5500 0.16900 0.04500 171.20 46.260 18.251 14.154 4.106 18.603 13.614 4.986
H15MET 2016-09-29 12:30:00 11027 208 900.0 2016.0 273.00 1230.0 15.9100 16.3500 77.100 72.100 11.8900 11.3100 0.18200 0.10500 139.60 26.690 18.077 13.923 4.140 18.592 13.399 5.187
H15MET 2016-09-29 12:15:00 11026 208 900.0 2016.0 273.00 1215.0 15.5800 15.8900 77.000 72.400 11.5700 10.9400 0.32800 0.11600 265.70 37.740 17.699 13.632 4.071 18.054 13.074 4.983
H15MET 2016-09-29 12:00:00 11025 208 900.0 2016.0 273.00 1200.0 15.5500 15.6700 74.900 72.200 11.1100 10.6800 0.04600 0.00800 136.70 20.520 17.665 13.222 4.434 17.801 12.850 4.949
H15MET 2016-09-29 11:45:00 11024 208 900.0 2016.0 273.00 1145.0 15.3400 15.4500 76.800 73.000 11.2900 10.6400 0.27000 0.23000 289.70 19.980 17.429 13.381 4.043 17.552 12.815 4.739
H15MET 2016-09-29 11:30:00 11023 208 900.0 2016.0 273.00 1130.0 14.7900 15.0300 79.300 74.700 11.2500 10.5800 0.49500 0.43200 282.70 22.220 16.823 13.346 3.482 17.085 12.764 4.322
H15MET 2016-09-29 11:15:00 11022 208 900.0 2016.0 273.00 1115.0 14.2900 14.4500 83.900 79.100 11.6000 10.8700 0.11900 0.10300 285.30 10.350 16.288 13.659 2.622 16.457 13.013 3.440
H15MET 2016-09-29 11:00:00 11021 208 900.0 2016.0 273.00 1100.0 14.1400 14.2200 84.800 80.500 11.6100 10.9200 0.02500 0.02100 140.10 0.924 16.130 13.668 2.452 16.214 13.056 3.162
H15MET 2016-09-29 10:45:00 11020 208 900.0 2016.0 273.00 1045.0 13.8200 14.0100 82.700 78.600 10.9300 10.3600 0.33800 0.31600 285.00 15.190 15.799 13.065 2.733 15.995 12.578 3.423
H15MET 2016-09-29 10:30:00 11019 208 900.0 2016.0 273.00 1030.0 13.3900 14.1500 89.900 82.600 11.7700 11.2300 0.09400 0.03400 196.80 24.190 15.363 13.813 1.552 16.141 13.328 2.809
H15MET 2016-09-29 10:15:00 11018 208 900.0 2016.0 273.00 1015.0 13.4600 15.0800 89.300 79.500 11.7300 11.5700 0.00000 0.00000 0.00 0.000 15.433 13.777 1.651 17.140 13.632 3.514
H15MET 2016-09-29 10:00:00 11017 208 900.0 2016.0 273.00 1000.0 13.4200 14.2600 88.500 82.600 11.5700 11.3400 0.02300 0.02300 1.13 2.251 15.393 13.632 1.770 16.256 13.426 2.829
H15MET 2016-09-29 09:45:00 11016 208 900.0 2016.0 273.00 945.0 12.7800 13.7400 92.800 86.400 11.6400 11.5000 0.00000 0.00000 0.00 0.000 14.762 13.695 1.063 15.717 13.569 2.138
H15MET 2016-09-29 09:30:00 11015 208 900.0 2016.0 273.00 930.0 11.6500 11.9200 96.300 94.000 11.0900 10.9800 0.00000 0.00000 0.00 0.000 13.704 13.205 0.507 13.951 13.109 0.837
H15MET 2016-09-29 09:15:00 11014 208 900.0 2016.0 273.00 915.0 11.4300 11.5800 97.300 95.300 11.0100 10.8600 0.00000 0.00000 0.00 0.000 13.506 13.135 0.365 13.641 13.004 0.641
H15MET 2016-09-29 09:00:00 11013 208 900.0 2016.0 273.00 900.0 11.2700 11.1300 97.700 97.000 10.9200 10.6700 0.04800 0.04800 273.00 1.067 13.364 13.056 0.307 13.240 12.841 0.397
H15MET 2016-09-29 08:45:00 11012 208 900.0 2016.0 273.00 845.0 11.0600 10.8500 98.600 98.300 10.8500 10.5900 0.02200 0.02200 275.30 1.010 13.179 12.996 0.185 12.996 12.773 0.221
H15MET 2016-09-29 08:30:00 11011 208 900.0 2016.0 273.00 830.0 10.8700 10.6500 99.600 98.700 10.8100 10.4500 0.40100 0.37200 295.00 8.620 13.013 12.961 0.052 12.824 12.654 0.167
H15MET 2016-09-29 08:15:00 11010 208 900.0 2016.0 273.00 815.0 10.9300 10.6500 100.000 100.000 10.9300 10.6500 0.04100 0.04000 282.90 1.470 13.065 13.065 0.000 12.824 12.824 0.000
H15MET 2016-09-29 08:00:00 11009 208 900.0 2016.0 273.00 800.0 10.5500 10.3600 100.000 100.000 10.5500 10.3600 0.00000 0.00000 0.00 0.000 12.739 12.739 0.000 12.578 12.578 0.000
H15MET 2016-09-29 07:45:00 11008 208 900.0 2016.0 273.00 745.0 10.3000 10.1400 100.000 100.000 10.3000 10.1400 0.00000 0.00000 0.00 0.000 12.528 12.528 0.000 12.394 12.394 0.000
H15MET 2016-09-29 07:30:00 11007 208 900.0 2016.0 273.00 730.0 10.1100 9.9600 100.000 100.000 10.1100 9.9600 0.00900 0.00900 152.70 0.631 12.370 12.370 0.000 12.246 12.246 0.000
H15MET 2016-09-29 07:15:00 11006 208 900.0 2016.0 273.00 715.0 9.9200 9.7700 100.000 100.000 9.9200 9.7700 0.03100 0.03100 146.80 0.621 12.213 12.213 -0.000 12.091 12.091 0.000
H15MET 2016-09-29 07:00:00 11005 208 900.0 2016.0 273.00 700.0 9.5700 9.5100 100.000 100.000 9.5700 9.5100 0.00000 0.00000 0.00 0.000 11.929 11.929 0.000 11.881 11.881 -0.000
H15MET 2016-09-29 06:45:00 11004 208 900.0 2016.0 273.00 645.0 9.4800 9.4400 100.000 100.000 9.4800 9.4400 0.00000 0.00000 0.00 0.000 11.857 11.857 0.000 11.826 11.826 0.000
H15MET 2016-09-29 06:30:00 11003 208 900.0 2016.0 273.00 630.0 9.5300 9.5100 100.000 100.000 9.5300 9.5100 0.00000 0.00000 0.00 0.000 11.897 11.897 -0.000 11.881 11.881 -0.000
H15MET 2016-09-29 06:15:00 11002 208 900.0 2016.0 273.00 615.0 9.6600 9.6100 100.000 100.000 9.6600 9.6100 0.00000 0.00000 0.00 0.000 12.002 12.002 0.000 11.962 11.962 0.000
H15MET 2016-09-29 06:00:00 11001 208 900.0 2016.0 273.00 600.0 9.6100 9.5600 100.000 100.000 9.6000 9.5600 0.00000 0.00000 0.00 0.000 11.962 11.953 0.000 11.921 11.921 -0.000
H15MET 2016-09-29 05:45:00 11000 208 900.0 2016.0 273.00 545.0 9.4900 9.4500 100.000 100.000 9.4900 9.4500 0.00000 0.00000 0.00 0.000 11.865 11.865 0.000 11.833 11.833 0.000
H15MET 2016-09-29 05:30:00 10999 208 900.0 2016.0 273.00 530.0 9.3300 9.3300 100.000 100.000 9.3300 9.3300 0.00000 0.00000 0.00 0.000 11.738 11.738 -0.000 11.738 11.738 -0.000
H15MET 2016-09-29 05:15:00 10998 208 900.0 2016.0 273.00 515.0 9.3100 9.2600 100.000 100.000 9.3100 9.2600 0.00000 0.00000 0.00 0.000 11.722 11.722 0.000 11.683 11.683 0.000
H15MET 2016-09-29 05:00:00 10997 208 900.0 2016.0 273.00 500.0 9.3300 9.3100 99.900 100.000 9.3200 9.3100 0.00000 0.00000 0.00 0.000 11.738 11.730 0.012 11.722 11.722 0.000
H15MET 2016-09-29 04:45:00 10996 208 900.0 2016.0 273.00 445.0 9.3500 9.3400 99.900 100.000 9.3300 9.3400 0.00000 0.00000 0.00 0.000 11.754 11.738 0.012 11.746 11.746 0.000
H15MET 2016-09-29 04:30:00 10995 208 900.0 2016.0 273.00 430.0 9.4800 9.4700 99.900 100.000 9.4600 9.4700 0.00000 0.00000 0.00 0.000 11.857 11.841 0.012 11.849 11.849 0.000
H15MET 2016-09-29 04:15:00 10994 208 900.0 2016.0 273.00 415.0 9.5800 9.5900 99.900 100.000 9.5700 9.5900 0.00000 0.00000 0.00 0.000 11.937 11.929 0.012 11.945 11.945 0.000
H15MET 2016-09-29 04:00:00 10993 208 900.0 2016.0 273.00 400.0 9.5700 9.5900 99.800 100.000 9.5400 9.5900 0.00000 0.00000 0.00 0.000 11.929 11.905 0.024 11.945 11.945 0.000
H15MET 2016-09-29 03:45:00 10992 208 900.0 2016.0 273.00 345.0 9.6400 9.6700 99.800 100.000 9.6100 9.6700 0.00000 0.00000 0.00 0.000 11.986 11.962 0.024 12.010 12.010 0.000
H15MET 2016-09-29 03:30:00 10991 208 900.0 2016.0 273.00 330.0 9.7100 9.7400 99.700 100.000 9.6600 9.7400 0.00000 0.00000 0.00 0.000 12.042 12.002 0.036 12.066 12.066 0.000
H15MET 2016-09-29 03:15:00 10990 208 900.0 2016.0 273.00 315.0 9.7200 9.7200 99.500 100.000 9.6500 9.7200 0.00000 0.00000 0.00 0.000 12.050 11.994 0.060 12.050 12.050 0.000
H15MET 2016-09-29 03:00:00 10989 208 900.0 2016.0 273.00 300.0 9.8600 9.8800 99.500 100.000 9.7900 9.8800 0.00000 0.00000 0.00 0.000 12.164 12.107 0.061 12.180 12.180 0.000
H15MET 2016-09-29 02:45:00 10988 208 900.0 2016.0 273.00 245.0 9.8700 9.8700 99.400 100.000 9.7800 9.8700 0.00000 0.00000 0.00 0.000 12.172 12.099 0.073 12.172 12.172 0.000
H15MET 2016-09-29 02:30:00 10987 208 900.0 2016.0 273.00 230.0 9.9000 9.9100 99.300 100.000 9.8000 9.9100 0.00000 0.00000 0.00 0.000 12.197 12.115 0.085 12.205 12.205 0.000
H15MET 2016-09-29 02:15:00 10986 208 900.0 2016.0 273.00 215.0 9.9900 10.0400 99.200 100.000 9.8700 10.0400 0.00000 0.00000 0.00 0.000 12.271 12.172 0.098 12.312 12.312 0.000
H15MET 2016-09-29 02:00:00 10985 208 900.0 2016.0 273.00 200.0 10.0500 10.0600 99.000 99.600 9.9000 10.0000 0.00000 0.00000 0.00 0.000 12.320 12.197 0.123 12.328 12.279 0.049
H15MET 2016-09-29 01:45:00 10984 208 900.0 2016.0 273.00 145.0 10.1600 10.2100 98.900 99.700 10.0100 10.1600 0.00000 0.00000 0.00 0.000 12.411 12.287 0.137 12.453 12.411 0.037
H15MET 2016-09-29 01:30:00 10983 208 900.0 2016.0 273.00 130.0 10.2400 10.2800 98.900 99.500 10.0700 10.2100 0.00000 0.00000 0.00 0.000 12.478 12.336 0.137 12.511 12.453 0.063
H15MET 2016-09-29 01:15:00 10982 208 900.0 2016.0 273.00 115.0 10.3300 10.3400 98.800 99.300 10.1500 10.2400 0.00000 0.00000 0.00 0.000 12.553 12.403 0.151 12.561 12.478 0.088
H15MET 2016-09-29 01:00:00 10981 208 900.0 2016.0 273.00 100.0 10.4600 10.4600 98.800 99.100 10.2800 10.3300 0.00000 0.00000 0.00 0.000 12.662 12.511 0.152 12.662 12.553 0.114
H15MET 2016-09-29 00:45:00 10980 208 900.0 2016.0 273.00 45.0 10.4500 10.4700 98.700 98.800 10.2500 10.2900 0.00000 0.00000 0.00 0.000 12.654 12.486 0.165 12.671 12.519 0.152
H15MET 2016-09-29 00:30:00 10979 208 900.0 2016.0 273.00 30.0 10.4900 10.5300 98.300 98.100 10.2400 10.2400 0.00000 0.00000 0.00 0.000 12.688 12.478 0.216 12.722 12.478 0.242
H15MET 2016-09-29 00:15:00 10978 208 900.0 2016.0 273.00 15.0 10.6000 10.6500 98.400 98.000 10.3600 10.3500 0.00000 0.00000 0.00 0.000 12.781 12.578 0.204 12.824 12.570 0.256
H15MET 2016-09-29 00:00:00 10977 208 900.0 2016.0 272.00 2400.0 10.7000 10.7700 98.200 98.000 10.4400 10.4700 0.00000 0.00000 0.00 0.000 12.867 12.645 0.232 12.927 12.671 0.259
H15MET 2016-09-28 23:45:00 10976 208 900.0 2016.0 272.00 2345.0 10.8000 10.8400 98.200 97.900 10.5300 10.5300 0.00000 0.00000 0.00 0.000 12.953 12.722 0.233 12.987 12.722 0.273
H15MET 2016-09-28 23:30:00 10975 208 900.0 2016.0 272.00 2330.0 10.9300 10.9600 98.000 97.700 10.6300 10.6100 0.00000 0.00000 0.00 0.000 13.065 12.807 0.261 13.091 12.790 0.301
H15MET 2016-09-28 23:15:00 10974 208 900.0 2016.0 272.00 2315.0 11.0400 11.0700 97.900 97.600 10.7200 10.7100 0.00000 0.00000 0.00 0.000 13.161 12.884 0.276 13.187 12.875 0.316
H15MET 2016-09-28 23:00:00 10973 208 900.0 2016.0 272.00 2300.0 11.1700 11.2000 97.500 96.900 10.7900 10.7300 0.00000 0.00000 0.00 0.000 13.275 12.944 0.332 13.302 12.892 0.412
H15MET 2016-09-28 22:45:00 10972 208 900.0 2016.0 272.00 2245.0 11.3200 11.4100 97.100 96.300 10.8800 10.8500 0.00000 0.00000 0.00 0.000 13.408 13.022 0.389 13.488 12.996 0.499
H15MET 2016-09-28 22:30:00 10971 208 900.0 2016.0 272.00 2230.0 11.4600 11.5200 96.900 96.500 10.9800 10.9800 0.00000 0.00000 0.00 0.000 13.533 13.109 0.420 13.587 13.109 0.476
H15MET 2016-09-28 22:15:00 10970 208 900.0 2016.0 272.00 2215.0 11.5500 11.6000 97.000 96.400 11.0900 11.0500 0.00000 0.00000 0.00 0.000 13.614 13.205 0.408 13.659 13.170 0.492
H15MET 2016-09-28 22:00:00 10969 208 900.0 2016.0 272.00 2200.0 11.6500 11.7200 96.500 95.600 11.1100 11.0500 0.00000 0.00000 0.00 0.000 13.704 13.222 0.480 13.768 13.170 0.606
H15MET 2016-09-28 21:45:00 10968 208 900.0 2016.0 272.00 2145.0 11.8200 11.8600 96.200 95.700 11.2300 11.1900 0.00000 0.00000 0.00 0.000 13.859 13.328 0.527 13.896 13.293 0.598
H15MET 2016-09-28 21:30:00 10967 208 900.0 2016.0 272.00 2130.0 11.9100 11.9200 96.100 95.600 11.3100 11.2300 0.00000 0.00000 0.00 0.000 13.941 13.399 0.544 13.951 13.328 0.614
H15MET 2016-09-28 21:15:00 10966 208 900.0 2016.0 272.00 2115.0 12.0600 12.0900 95.400 95.000 11.3500 11.3200 0.00000 0.00000 0.00 0.000 14.080 13.435 0.648 14.108 13.408 0.705
H15MET 2016-09-28 21:00:00 10965 208 900.0 2016.0 272.00 2100.0 12.1700 12.2000 95.500 95.000 11.4700 11.4300 0.00000 0.00000 0.00 0.000 14.182 13.542 0.638 14.211 13.506 0.711
H15MET 2016-09-28 20:45:00 10964 208 900.0 2016.0 272.00 2045.0 12.2800 12.3200 95.500 94.700 11.5800 11.4900 0.00000 0.00000 0.00 0.000 14.286 13.641 0.643 14.323 13.560 0.759
H15MET 2016-09-28 20:30:00 10963 208 900.0 2016.0 272.00 2030.0 12.3900 12.4400 95.000 94.100 11.6000 11.5100 0.00000 0.00000 0.00 0.000 14.389 13.659 0.719 14.437 13.578 0.852
H15MET 2016-09-28 20:15:00 10962 208 900.0 2016.0 272.00 2015.0 12.5300 12.5900 94.200 93.300 11.6200 11.5400 0.00000 0.00000 0.00 0.000 14.522 13.677 0.842 14.579 13.605 0.977
H15MET 2016-09-28 20:00:00 10961 208 900.0 2016.0 272.00 2000.0 12.7200 12.7300 92.900 92.500 11.6000 11.5500 0.00000 0.00000 0.00 0.000 14.704 13.659 1.044 14.714 13.614 1.104
H15MET 2016-09-28 19:45:00 10960 208 900.0 2016.0 272.00 1945.0 12.9700 12.9600 92.200 92.500 11.7400 11.7800 0.00000 0.00000 0.00 0.000 14.947 13.786 1.166 14.937 13.822 1.120
H15MET 2016-09-28 19:30:00 10959 208 900.0 2016.0 272.00 1930.0 13.0400 13.1400 92.200 92.300 11.8100 11.9100 0.00000 0.00000 0.00 0.000 15.016 13.850 1.171 15.114 13.941 1.164
H15MET 2016-09-28 19:15:00 10958 208 900.0 2016.0 272.00 1915.0 13.1100 13.2200 92.100 91.500 11.8500 11.8700 0.00000 0.00000 0.00 0.000 15.085 13.886 1.192 15.193 13.905 1.291
H15MET 2016-09-28 19:00:00 10957 208 900.0 2016.0 272.00 1900.0 13.2700 13.4400 91.000 89.600 11.8200 11.7600 0.00000 0.00000 0.00 0.000 15.243 13.859 1.372 15.413 13.804 1.603
H15MET 2016-09-28 18:45:00 10956 208 900.0 2016.0 272.00 1845.0 13.5900 13.8200 89.300 88.400 11.8600 11.9400 0.00000 0.00000 0.00 0.000 15.564 13.896 1.665 15.799 13.969 1.833
H15MET 2016-09-28 18:30:00 10955 208 900.0 2016.0 272.00 1830.0 13.8100 14.1100 88.900 87.300 12.0100 12.0300 0.00000 0.00000 0.00 0.000 15.789 14.034 1.753 16.099 14.052 2.045
H15MET 2016-09-28 18:15:00 10954 208 900.0 2016.0 272.00 1815.0 14.0800 14.4500 87.800 86.200 12.1000 12.1800 0.00000 0.00000 0.00 0.000 16.068 14.117 1.960 16.457 14.192 2.271
H15MET 2016-09-28 18:00:00 10953 208 900.0 2016.0 272.00 1800.0 14.3900 14.7600 87.000 84.700 12.2600 12.2100 0.02500 0.02500 330.80 0.123 16.394 14.267 2.131 16.790 14.220 2.569
H15MET 2016-09-28 17:45:00 10952 208 900.0 2016.0 272.00 1745.0 14.7800 15.2200 85.700 83.100 12.4000 12.3700 0.00000 0.00000 0.00 0.000 16.812 14.399 2.404 17.295 14.370 2.923
H15MET 2016-09-28 17:30:00 10951 208 900.0 2016.0 272.00 1730.0 15.2900 15.6700 85.200 83.200 12.8200 12.8400 0.01100 0.01100 330.90 0.608 17.373 14.801 2.571 17.801 14.820 2.991
H15MET 2016-09-28 17:15:00 10950 208 900.0 2016.0 272.00 1715.0 15.8100 16.1800 84.600 82.100 13.2300 13.1200 0.00000 0.00000 0.00 0.000 17.962 15.203 2.766 18.391 15.094 3.292
H15MET 2016-09-28 17:00:00 10949 208 900.0 2016.0 272.00 1700.0 16.3100 16.8000 84.900 80.900 13.7600 13.4900 0.00000 0.00000 0.00 0.000 18.544 15.737 2.800 19.131 15.463 3.654
H15MET 2016-09-28 16:45:00 10948 208 900.0 2016.0 272.00 1645.0 16.7200 17.1400 84.900 79.500 14.1600 13.5500 0.04500 0.04300 327.60 5.104 19.034 16.151 2.874 19.548 15.524 4.007
H15MET 2016-09-28 16:30:00 10947 208 900.0 2016.0 272.00 1630.0 17.0300 17.4000 84.200 80.000 14.3500 13.9200 0.01100 0.01100 299.00 0.017 19.412 16.351 3.067 19.872 15.902 3.974
H15MET 2016-09-28 16:15:00 10946 208 900.0 2016.0 272.00 1615.0 17.4700 17.9400 81.100 76.700 14.1900 13.7900 0.02300 0.02300 279.20 0.051 19.960 16.183 3.772 20.560 15.768 4.790
H15MET 2016-09-28 16:00:00 10945 208 900.0 2016.0 272.00 1600.0 17.7700 18.3200 79.300 72.900 14.1400 13.3800 0.00000 0.00000 46.93 0.000 20.341 16.130 4.211 21.057 15.353 5.706
H15MET 2016-09-28 15:45:00 10944 208 900.0 2016.0 272.00 1545.0 18.2200 18.7700 76.800 70.700 14.0700 13.3300 0.03200 0.03200 314.40 1.093 20.925 16.057 4.855 21.658 15.303 6.346
H15MET 2016-09-28 15:30:00 10943 208 900.0 2016.0 272.00 1530.0 18.2600 18.8600 78.600 72.300 14.4700 13.7500 0.11300 0.10800 325.00 6.971 20.978 16.479 4.489 21.780 15.727 6.033
H15MET 2016-09-28 15:15:00 10942 208 900.0 2016.0 272.00 1515.0 18.6600 19.1000 75.600 70.700 14.2500 13.6600 0.05400 0.03400 21.08 16.780 21.510 16.246 5.248 22.109 15.635 6.478
H15MET 2016-09-28 15:00:00 10941 208 900.0 2016.0 272.00 1500.0 19.2200 19.4700 69.570 66.350 13.5000 13.0300 0.12600 0.10300 329.90 20.220 22.275 15.473 6.778 22.624 15.006 7.613
H15MET 2016-09-28 14:45:00 10940 208 900.0 2016.0 272.00 1445.0 19.1800 19.4700 69.090 65.870 13.3600 12.9100 0.20800 0.15800 303.10 26.110 22.220 15.333 6.868 22.624 14.889 7.722
H15MET 2016-09-28 14:30:00 10939 208 900.0 2016.0 272.00 1430.0 19.1500 19.5600 70.100 66.340 13.5700 13.1100 0.14400 0.11800 279.00 14.800 22.178 15.544 6.631 22.751 15.085 7.658
H15MET 2016-09-28 14:15:00 10938 208 900.0 2016.0 272.00 1415.0 19.0100 19.5000 72.300 68.900 13.9000 13.6300 0.35100 0.27900 289.50 25.130 21.985 15.881 6.090 22.666 15.605 7.049
H15MET 2016-09-28 14:00:00 10937 208 900.0 2016.0 272.00 1400.0 18.5700 19.0700 75.800 70.900 14.2000 13.6500 0.28600 0.22500 271.00 30.840 21.389 16.193 5.176 22.068 15.625 6.422
H15MET 2016-09-28 13:45:00 10936 208 900.0 2016.0 272.00 1345.0 18.6400 18.9800 76.800 73.400 14.4700 14.1200 0.20600 0.09100 260.00 13.370 21.483 16.479 4.984 21.944 16.110 5.837
H15MET 2016-09-28 13:30:00 10935 208 900.0 2016.0 272.00 1330.0 18.2400 18.7200 78.000 74.000 14.3400 13.9900 0.05500 0.04600 292.30 13.700 20.951 16.341 4.609 21.591 15.974 5.614
H15MET 2016-09-28 13:15:00 10934 208 900.0 2016.0 272.00 1315.0 18.1900 18.7300 78.700 73.800 14.4200 13.9600 0.03500 0.03300 137.00 0.149 20.886 16.426 4.449 21.604 15.943 5.660
H15MET 2016-09-28 13:00:00 10933 208 900.0 2016.0 272.00 1300.0 17.8400 18.3600 79.800 74.600 14.2900 13.7700 0.26500 0.22600 288.40 14.800 20.431 16.288 4.127 21.110 15.748 5.362
H15MET 2016-09-28 12:45:00 10932 208 900.0 2016.0 272.00 1245.0 17.4800 17.9100 84.000 79.100 14.7400 14.2200 0.12400 0.02300 359.40 20.670 19.973 16.769 3.196 20.521 16.214 4.289
H15MET 2016-09-28 12:30:00 10931 208 900.0 2016.0 272.00 1230.0 17.3400 17.7600 84.600 79.500 14.7200 14.1700 0.37200 0.34700 130.80 19.940 19.797 16.747 3.049 20.328 16.162 4.167
H15MET 2016-09-28 12:15:00 10930 208 900.0 2016.0 272.00 1215.0 16.7300 17.1300 87.100 82.700 14.5600 14.1500 0.10500 0.05300 325.00 19.380 19.046 16.575 2.457 19.536 16.141 3.380
H15MET 2016-09-28 12:00:00 10929 208 900.0 2016.0 272.00 1200.0 16.2700 16.6500 89.800 85.300 14.6000 14.1700 0.10400 0.10100 258.80 5.327 18.497 16.618 1.887 18.950 16.162 2.786
H15MET 2016-09-28 11:45:00 10928 208 900.0 2016.0 272.00 1145.0 15.9400 16.2900 91.000 87.000 14.4700 14.1300 0.11300 0.11200 265.10 3.549 18.112 16.479 1.630 18.521 16.120 2.408
H15MET 2016-09-28 11:30:00 10927 208 900.0 2016.0 272.00 1130.0 15.5800 15.8600 91.400 88.000 14.1900 13.8700 0.10600 0.08400 284.60 13.860 17.699 16.183 1.522 18.019 15.850 2.162
H15MET 2016-09-28 11:15:00 10926 208 900.0 2016.0 272.00 1115.0 15.1500 15.3100 92.700 89.900 13.9800 13.6700 0.12400 0.08100 267.20 31.000 17.217 15.964 1.257 17.395 15.646 1.757
H15MET 2016-09-28 11:00:00 10925 208 900.0 2016.0 272.00 1100.0 14.6100 14.7900 94.300 91.800 13.7000 13.4600 0.09500 0.09100 254.50 10.350 16.628 15.676 0.948 16.823 15.433 1.379
H15MET 2016-09-28 10:45:00 10924 208 900.0 2016.0 272.00 1045.0 14.1500 14.3000 95.100 93.100 13.3800 13.2000 0.09800 0.07400 168.70 4.373 16.141 15.353 0.791 16.298 15.173 1.125
H15MET 2016-09-28 10:30:00 10923 208 900.0 2016.0 272.00 1030.0 14.1100 14.2200 94.300 92.600 13.2000 13.0500 0.18200 0.16900 280.90 12.200 16.099 15.173 0.918 16.214 15.025 1.200
H15MET 2016-09-28 10:15:00 10922 208 900.0 2016.0 272.00 1015.0 14.2400 14.5000 93.500 91.300 13.2100 13.1000 0.13300 0.13000 271.00 6.201 16.235 15.183 1.055 16.511 15.075 1.436
H15MET 2016-09-28 10:00:00 10921 208 900.0 2016.0 272.00 1000.0 14.1600 13.9400 93.800 93.200 13.1700 12.8600 0.13300 0.01100 199.70 19.770 16.151 15.144 1.001 15.923 14.840 1.083
H15MET 2016-09-28 09:45:00 10920 208 900.0 2016.0 272.00 945.0 13.7300 13.4200 96.300 95.700 13.1400 12.7500 0.06200 0.04600 271.20 0.954 15.707 15.114 0.581 15.393 14.733 0.662
H15MET 2016-09-28 09:30:00 10919 208 900.0 2016.0 272.00 930.0 13.2500 12.9400 97.500 98.100 12.8600 12.6500 0.07300 0.01300 29.91 5.472 15.223 14.840 0.381 14.918 14.637 0.283
H15MET 2016-09-28 09:15:00 10918 208 900.0 2016.0 272.00 915.0 13.0400 12.6100 98.900 99.900 12.8700 12.6000 0.14500 0.14500 273.20 1.696 15.016 14.850 0.165 14.599 14.589 0.015
H15MET 2016-09-28 09:00:00 10917 208 900.0 2016.0 272.00 900.0 12.7100 12.4400 99.200 100.000 12.6000 12.4400 0.04900 0.04800 270.00 4.985 14.695 14.589 0.118 14.437 14.437 0.000
H15MET 2016-09-28 08:45:00 10916 208 900.0 2016.0 272.00 845.0 12.5700 12.2800 99.600 100.000 12.5100 12.2800 0.04200 0.04200 271.90 0.778 14.560 14.503 0.058 14.286 14.286 0.000
H15MET 2016-09-28 08:30:00 10915 208 900.0 2016.0 272.00 830.0 12.4800 12.2500 99.900 100.000 12.4800 12.2500 0.23000 0.22600 284.80 8.160 14.475 14.475 0.014 14.257 14.257 -0.000
H15MET 2016-09-28 08:15:00 10914 208 900.0 2016.0 272.00 815.0 12.3700 12.1700 100.000 100.000 12.3700 12.1700 0.00000 0.00000 0.00 0.000 14.370 14.370 0.000 14.182 14.182 0.000
H15MET 2016-09-28 08:00:00 10913 208 900.0 2016.0 272.00 800.0 12.2600 12.0600 100.000 100.000 12.2600 12.0600 0.00000 0.00000 0.00 0.000 14.267 14.267 0.000 14.080 14.080 0.000
H15MET 2016-09-28 07:45:00 10912 208 900.0 2016.0 272.00 745.0 12.1200 11.9700 100.000 100.000 12.1200 11.9700 0.00000 0.00000 0.00 0.000 14.136 14.136 0.000 13.997 13.997 0.000
H15MET 2016-09-28 07:30:00 10911 208 900.0 2016.0 272.00 730.0 12.0100 11.8800 100.000 100.000 12.0100 11.8800 0.00000 0.00000 0.00 0.000 14.034 14.034 0.000 13.914 13.914 0.000
H15MET 2016-09-28 07:15:00 10910 208 900.0 2016.0 272.00 715.0 11.9400 11.7600 100.000 100.000 11.9400 11.7600 0.00000 0.00000 0.00 0.000 13.969 13.969 0.000 13.804 13.804 0.000
H15MET 2016-09-28 07:00:00 10909 208 900.0 2016.0 272.00 700.0 11.7700 11.6500 100.000 100.000 11.7700 11.6500 0.00000 0.00000 0.00 0.000 13.813 13.813 -0.000 13.704 13.704 0.000
H15MET 2016-09-28 06:45:00 10908 208 900.0 2016.0 272.00 645.0 11.7100 11.6000 100.000 100.000 11.7100 11.6000 0.00000 0.00000 0.00 0.000 13.759 13.759 0.000 13.659 13.659 -0.000
H15MET 2016-09-28 06:30:00 10907 208 900.0 2016.0 272.00 630.0 11.6500 11.5600 100.000 100.000 11.6500 11.5600 0.00000 0.00000 0.00 0.000 13.704 13.704 0.000 13.623 13.623 0.000
H15MET 2016-09-28 06:15:00 10906 208 900.0 2016.0 272.00 615.0 11.5400 11.4700 100.000 100.000 11.5400 11.4700 0.00000 0.00000 0.00 0.000 13.605 13.605 0.000 13.542 13.542 0.000
H15MET 2016-09-28 06:00:00 10905 208 900.0 2016.0 272.00 600.0 11.4700 11.3800 100.000 100.000 11.4700 11.3800 0.00000 0.00000 0.00 0.000 13.542 13.542 0.000 13.461 13.461 -0.000
H15MET 2016-09-28 05:45:00 10904 208 900.0 2016.0 272.00 545.0 11.3200 11.2600 100.000 100.000 11.3100 11.2600 0.00000 0.00000 0.00 0.000 13.408 13.399 0.000 13.355 13.355 0.000
H15MET 2016-09-28 05:30:00 10903 208 900.0 2016.0 272.00 530.0 11.1800 11.1000 100.000 100.000 11.1800 11.1000 0.00000 0.00000 0.00 0.000 13.284 13.284 0.000 13.214 13.214 0.000
H15MET 2016-09-28 05:15:00 10902 208 900.0 2016.0 272.00 515.0 11.0200 10.9600 100.000 100.000 11.0200 10.9600 0.00000 0.00000 0.00 0.000 13.144 13.144 0.000 13.091 13.091 0.000
H15MET 2016-09-28 05:00:00 10901 208 900.0 2016.0 272.00 500.0 10.8800 10.8100 100.000 100.000 10.8800 10.8100 0.00000 0.00000 0.00 0.000 13.022 13.022 0.000 12.961 12.961 0.000
H15MET 2016-09-28 04:45:00 10900 208 900.0 2016.0 272.00 445.0 10.7500 10.7100 100.000 100.000 10.7500 10.7100 0.00000 0.00000 0.00 0.000 12.910 12.910 0.000 12.875 12.875 0.000
H15MET 2016-09-28 04:30:00 10899 208 900.0 2016.0 272.00 430.0 10.6000 10.6100 99.900 100.000 10.5900 10.6100 0.00000 0.00000 0.00 0.000 12.781 12.773 0.013 12.790 12.790 0.000
H15MET 2016-09-28 04:15:00 10898 208 900.0 2016.0 272.00 415.0 10.6400 10.6900 99.900 100.000 10.6200 10.6900 0.00000 0.00000 0.00 0.000 12.815 12.798 0.013 12.858 12.858 0.000
H15MET 2016-09-28 04:00:00 10897 208 900.0 2016.0 272.00 400.0 10.7900 10.8500 99.800 100.000 10.7700 10.8500 0.00000 0.00000 0.00 0.000 12.944 12.927 0.026 12.996 12.996 0.000
H15MET 2016-09-28 03:45:00 10896 208 900.0 2016.0 272.00 345.0 10.9900 11.0500 99.900 100.000 10.9700 11.0500 0.00000 0.00000 0.00 0.000 13.117 13.100 0.013 13.170 13.170 -0.000
H15MET 2016-09-28 03:30:00 10895 208 900.0 2016.0 272.00 330.0 11.1000 11.1500 99.800 100.000 11.0800 11.1500 0.00000 0.00000 0.00 0.000 13.214 13.196 0.026 13.258 13.258 -0.000
H15MET 2016-09-28 03:15:00 10894 208 900.0 2016.0 272.00 315.0 11.1800 11.2200 99.800 100.000 11.1400 11.2200 0.00000 0.00000 0.00 0.000 13.284 13.249 0.027 13.319 13.319 0.000
H15MET 2016-09-28 03:00:00 10893 208 900.0 2016.0 272.00 300.0 11.2700 11.2900 99.800 100.000 11.2300 11.2900 0.00000 0.00000 0.00 0.000 13.364 13.328 0.027 13.381 13.381 0.000
H15MET 2016-09-28 02:45:00 10892 208 900.0 2016.0 272.00 245.0 11.2900 11.3000 99.700 100.000 11.2500 11.3000 0.00000 0.00000 0.00 0.000 13.381 13.346 0.040 13.390 13.390 0.000
H15MET 2016-09-28 02:30:00 10891 208 900.0 2016.0 272.00 230.0 11.3100 11.3600 99.500 100.000 11.2400 11.3600 0.00000 0.00000 0.00 0.000 13.399 13.337 0.067 13.444 13.444 0.000
H15MET 2016-09-28 02:15:00 10890 208 900.0 2016.0 272.00 215.0 11.4700 11.5000 99.600 100.000 11.4000 11.5000 0.00000 0.00000 0.00 0.000 13.542 13.479 0.054 13.569 13.569 0.000
H15MET 2016-09-28 02:00:00 10889 208 900.0 2016.0 272.00 200.0 11.5600 11.5900 99.500 100.000 11.4900 11.5900 0.00000 0.00000 0.00 0.000 13.623 13.560 0.068 13.650 13.650 0.000
H15MET 2016-09-28 01:45:00 10888 208 900.0 2016.0 272.00 145.0 11.6400 11.6700 99.400 100.000 11.5400 11.6700 0.00000 0.00000 0.00 0.000 13.695 13.605 0.082 13.722 13.722 0.000
H15MET 2016-09-28 01:30:00 10887 208 900.0 2016.0 272.00 130.0 11.7500 11.8000 99.300 100.000 11.6400 11.8000 0.00000 0.00000 0.00 0.000 13.795 13.695 0.097 13.841 13.841 0.000
H15MET 2016-09-28 01:15:00 10886 208 900.0 2016.0 272.00 115.0 11.8300 11.8600 99.200 100.000 11.7100 11.8600 0.00000 0.00000 0.00 0.000 13.868 13.759 0.111 13.896 13.896 0.000
H15MET 2016-09-28 01:00:00 10885 208 900.0 2016.0 272.00 100.0 11.9100 11.9500 99.000 99.900 11.7500 11.9300 0.00000 0.00000 0.00 0.000 13.941 13.795 0.139 13.978 13.960 0.014
H15MET 2016-09-28 00:45:00 10884 208 900.0 2016.0 272.00 45.0 12.0400 12.0900 98.800 99.400 11.8600 12.0000 0.00000 0.00000 0.00 0.000 14.062 13.896 0.169 14.108 14.025 0.085
H15MET 2016-09-28 00:30:00 10883 208 900.0 2016.0 272.00 30.0 12.1500 12.1900 98.700 99.200 11.9500 12.0800 0.00000 0.00000 0.00 0.000 14.164 13.978 0.184 14.201 14.099 0.114
H15MET 2016-09-28 00:15:00 10882 208 900.0 2016.0 272.00 15.0 12.2300 12.2800 98.700 99.100 12.0300 12.1400 0.00000 0.00000 0.00 0.000 14.239 14.052 0.185 14.286 14.154 0.129
H15MET 2016-09-28 00:00:00 10881 208 900.0 2016.0 271.00 2400.0 12.2900 12.3200 98.800 99.000 12.1000 12.1700 0.00000 0.00000 0.00 0.000 14.295 14.117 0.172 14.323 14.182 0.143
H15MET 2016-09-27 23:45:00 10880 208 900.0 2016.0 271.00 2345.0 12.3500 12.3900 98.600 98.900 12.1400 12.2300 0.00000 0.00000 0.00 0.000 14.351 14.154 0.201 14.389 14.239 0.158
H15MET 2016-09-27 23:30:00 10879 208 900.0 2016.0 271.00 2330.0 12.4600 12.4900 98.500 98.500 12.2300 12.2600 0.00000 0.00000 0.00 0.000 14.456 14.239 0.217 14.484 14.267 0.217
H15MET 2016-09-27 23:15:00 10878 208 900.0 2016.0 271.00 2315.0 12.5400 12.6000 98.300 98.000 12.2700 12.2900 0.00000 0.00000 0.00 0.000 14.532 14.276 0.247 14.589 14.295 0.292
H15MET 2016-09-27 23:00:00 10877 208 900.0 2016.0 271.00 2300.0 12.6500 12.7300 98.200 97.800 12.3700 12.3900 0.00000 0.00000 0.00 0.000 14.637 14.370 0.263 14.714 14.389 0.324
H15MET 2016-09-27 22:45:00 10876 208 900.0 2016.0 271.00 2245.0 12.6900 12.7700 98.100 97.700 12.4000 12.4100 0.00000 0.00000 0.00 0.000 14.675 14.399 0.279 14.753 14.408 0.339
H15MET 2016-09-27 22:30:00 10875 208 900.0 2016.0 271.00 2230.0 12.7900 12.9000 97.700 97.100 12.4300 12.4600 0.00000 0.00000 0.00 0.000 14.772 14.427 0.340 14.879 14.456 0.431
H15MET 2016-09-27 22:15:00 10874 208 900.0 2016.0 271.00 2215.0 12.9400 13.0400 97.400 96.800 12.5400 12.5400 0.00000 0.00000 0.00 0.000 14.918 14.532 0.388 15.016 14.532 0.481
H15MET 2016-09-27 22:00:00 10873 208 900.0 2016.0 271.00 2200.0 13.0800 13.1500 97.100 96.400 12.6300 12.5900 0.00000 0.00000 0.00 0.000 15.055 14.618 0.437 15.124 14.579 0.544
H15MET 2016-09-27 21:45:00 10872 208 900.0 2016.0 271.00 2145.0 13.2200 13.3000 96.800 96.100 12.7300 12.6800 0.00000 0.00000 0.00 0.000 15.193 14.714 0.486 15.273 14.666 0.596
H15MET 2016-09-27 21:30:00 10871 208 900.0 2016.0 271.00 2130.0 13.3000 13.4000 96.800 95.900 12.8000 12.7600 0.00000 0.00000 0.00 0.000 15.273 14.782 0.489 15.373 14.743 0.630
H15MET 2016-09-27 21:15:00 10870 208 900.0 2016.0 271.00 2115.0 13.4200 13.5500 96.300 95.300 12.8500 12.8000 0.00000 0.00000 0.00 0.000 15.393 14.830 0.570 15.524 14.782 0.730
H15MET 2016-09-27 21:00:00 10869 208 900.0 2016.0 271.00 2100.0 13.5600 13.6900 95.700 94.800 12.8900 12.8700 0.00000 0.00000 0.00 0.000 15.534 14.869 0.668 15.666 14.850 0.815
H15MET 2016-09-27 20:45:00 10868 208 900.0 2016.0 271.00 2045.0 13.7800 13.8600 95.200 94.600 13.0300 13.0100 0.00000 0.00000 0.00 0.000 15.758 15.006 0.756 15.840 14.986 0.855
H15MET 2016-09-27 20:30:00 10867 208 900.0 2016.0 271.00 2030.0 13.8900 13.9900 95.100 94.400 13.1200 13.1100 0.00000 0.00000 0.00 0.000 15.871 15.094 0.778 15.974 15.085 0.895
H15MET 2016-09-27 20:15:00 10866 208 900.0 2016.0 271.00 2015.0 13.9600 14.0300 95.300 94.500 13.2100 13.1600 0.00000 0.00000 0.00 0.000 15.943 15.183 0.749 16.016 15.134 0.881
H15MET 2016-09-27 20:00:00 10865 208 900.0 2016.0 271.00 2000.0 14.0200 14.1800 94.600 93.200 13.1800 13.1000 0.00000 0.00000 0.00 0.000 16.005 15.154 0.864 16.172 15.075 1.100
H15MET 2016-09-27 19:45:00 10864 208 900.0 2016.0 271.00 1945.0 14.2000 14.3800 93.900 92.500 13.2200 13.1900 0.00000 0.00000 0.00 0.000 16.193 15.193 0.988 16.383 15.164 1.229
H15MET 2016-09-27 19:30:00 10863 208 900.0 2016.0 271.00 1930.0 14.4000 14.5600 93.000 91.900 13.2900 13.2500 0.00000 0.00000 0.00 0.000 16.404 15.263 1.148 16.575 15.223 1.343
H15MET 2016-09-27 19:15:00 10862 208 900.0 2016.0 271.00 1915.0 14.6400 14.8500 92.100 90.900 13.3700 13.3700 0.00000 0.00000 0.00 0.000 16.661 15.343 1.316 16.888 15.343 1.537
H15MET 2016-09-27 19:00:00 10861 208 900.0 2016.0 271.00 1900.0 14.8700 15.1300 91.500 89.700 13.5100 13.4500 0.00000 0.00000 0.00 0.000 16.910 15.483 1.437 17.195 15.423 1.771
H15MET 2016-09-27 18:45:00 10860 208 900.0 2016.0 271.00 1845.0 15.2900 15.5600 89.600 87.700 13.5900 13.5300 0.00400 0.00400 324.70 0.000 17.373 15.564 1.807 17.676 15.504 2.174
H15MET 2016-09-27 18:30:00 10859 208 900.0 2016.0 271.00 1830.0 15.7400 16.0000 88.700 87.000 13.8700 13.8300 0.03900 0.03900 325.10 0.077 17.881 15.850 2.021 18.181 15.809 2.364
H15MET 2016-09-27 18:15:00 10858 208 900.0 2016.0 271.00 1815.0 16.1400 16.4300 87.300 85.400 14.0300 13.9600 0.02100 0.02100 325.30 0.019 18.344 16.016 2.330 18.686 15.943 2.728
H15MET 2016-09-27 18:00:00 10857 208 900.0 2016.0 271.00 1800.0 16.5800 16.9800 86.300 83.400 14.2800 14.1300 0.00300 0.00300 327.10 0.000 18.866 16.277 2.585 19.351 16.120 3.212
H15MET 2016-09-27 17:45:00 10856 208 900.0 2016.0 271.00 1745.0 16.9700 17.4500 85.800 80.900 14.5800 14.1500 0.02500 0.02500 325.50 0.393 19.339 16.596 2.746 19.935 16.141 3.808
H15MET 2016-09-27 17:30:00 10855 208 900.0 2016.0 271.00 1730.0 17.3600 17.8700 85.000 80.100 14.8000 14.3900 0.03700 0.03700 328.50 1.086 19.822 16.834 2.973 20.470 16.394 4.073
H15MET 2016-09-27 17:15:00 10854 208 900.0 2016.0 271.00 1715.0 17.8300 18.4000 82.200 76.500 14.7400 14.1800 0.11700 0.11100 330.40 2.334 20.418 16.769 3.634 21.163 16.172 4.973
H15MET 2016-09-27 17:00:00 10853 208 900.0 2016.0 271.00 1700.0 18.2400 18.7900 80.100 74.200 14.7500 14.1100 0.02900 0.02800 309.90 5.798 20.951 16.779 4.169 21.685 16.099 5.595
H15MET 2016-09-27 16:45:00 10852 208 900.0 2016.0 271.00 1645.0 18.8000 19.5700 76.700 69.220 14.6200 13.7700 0.11200 0.07300 343.90 25.990 21.699 16.639 5.056 22.765 15.748 7.007
H15MET 2016-09-27 16:30:00 10851 208 900.0 2016.0 271.00 1630.0 19.6700 20.3200 71.000 64.590 14.2600 13.4200 0.14500 0.10500 324.90 30.330 22.907 16.256 6.643 23.847 15.393 8.444
H15MET 2016-09-27 16:15:00 10850 208 900.0 2016.0 271.00 1615.0 20.2500 20.8100 67.030 61.920 13.9200 13.2400 0.20600 0.18300 322.80 22.550 23.744 15.902 7.829 24.578 15.213 9.359
H15MET 2016-09-27 16:00:00 10849 208 900.0 2016.0 271.00 1600.0 20.2400 20.8500 68.100 62.100 14.1600 13.3300 0.21400 0.05700 273.50 45.240 23.730 16.151 7.570 24.639 15.303 9.338
H15MET 2016-09-27 15:45:00 10848 208 900.0 2016.0 271.00 1545.0 20.8600 21.3500 64.730 60.160 13.9500 13.3000 0.19600 0.14200 306.50 30.410 24.654 15.933 8.696 25.407 15.273 10.122
H15MET 2016-09-27 15:30:00 10847 208 900.0 2016.0 271.00 1530.0 20.9800 21.4800 62.840 58.170 13.6200 12.9100 0.14300 0.07300 314.10 21.510 24.837 15.595 9.229 25.610 14.889 10.713
H15MET 2016-09-27 15:15:00 10846 208 900.0 2016.0 271.00 1515.0 21.1200 21.5500 63.270 58.540 13.8400 13.0700 0.11500 0.06500 2.81 22.910 25.051 15.819 9.201 25.720 15.045 10.663
H15MET 2016-09-27 15:00:00 10845 208 900.0 2016.0 271.00 1500.0 21.5200 21.8200 58.410 55.740 13.0100 12.5800 0.16000 0.04900 295.30 43.100 25.673 14.986 10.677 26.148 14.570 11.573
H15MET 2016-09-27 14:45:00 10844 208 900.0 2016.0 271.00 1445.0 21.8600 22.0800 57.450 54.330 13.0700 12.4300 0.19400 0.08900 326.20 34.060 26.211 15.045 11.153 26.565 14.427 12.132
H15MET 2016-09-27 14:30:00 10843 208 900.0 2016.0 271.00 1430.0 22.0800 22.2400 54.090 52.510 12.3700 12.0700 0.15100 0.08800 309.20 26.660 26.565 14.370 12.196 26.825 14.089 12.739
H15MET 2016-09-27 14:15:00 10842 208 900.0 2016.0 271.00 1415.0 21.5600 21.9500 56.320 52.870 12.4900 11.9000 0.32700 0.15900 344.50 40.840 25.736 14.484 11.241 26.356 13.932 12.421
H15MET 2016-09-27 14:00:00 10841 208 900.0 2016.0 271.00 1400.0 21.6500 22.0000 53.500 50.730 11.8000 11.3200 0.31300 0.28500 270.00 18.850 25.877 13.841 12.033 26.436 13.408 13.025
H15MET 2016-09-27 13:45:00 10840 208 900.0 2016.0 271.00 1345.0 21.8700 22.2100 52.200 48.900 11.6300 10.9500 0.31900 0.24700 296.30 21.730 26.227 13.686 12.537 26.776 13.083 13.683
H15MET 2016-09-27 13:30:00 10839 208 900.0 2016.0 271.00 1330.0 21.5900 21.9700 53.940 50.390 11.8400 11.1700 0.38400 0.17800 297.10 53.950 25.783 13.877 11.876 26.388 13.275 13.091
H15MET 2016-09-27 13:15:00 10838 208 900.0 2016.0 271.00 1315.0 21.2900 21.7800 54.610 50.600 11.7700 11.0700 0.24200 0.22600 285.20 14.430 25.314 13.813 11.490 26.084 13.187 12.885
H15MET 2016-09-27 13:00:00 10837 208 900.0 2016.0 271.00 1300.0 21.0700 21.6100 55.560 50.390 11.8100 10.8500 0.37300 0.31400 299.30 19.830 24.974 13.850 11.099 25.814 12.996 12.806
H15MET 2016-09-27 12:45:00 10836 208 900.0 2016.0 271.00 1245.0 19.9500 20.8800 63.960 56.330 12.9100 11.8500 0.31100 0.29600 272.80 10.800 23.308 14.889 8.400 24.685 13.886 10.780
H15MET 2016-09-27 12:30:00 10835 208 900.0 2016.0 271.00 1230.0 19.5800 20.2600 71.400 62.590 14.2600 12.8800 0.14400 0.13900 109.40 8.830 22.779 16.256 6.515 23.759 14.859 8.888
H15MET 2016-09-27 12:15:00 10834 208 900.0 2016.0 271.00 1215.0 19.2400 19.7600 73.300 68.140 14.3300 13.7100 0.00000 0.00000 0.00 0.000 22.303 16.330 5.955 23.035 15.686 7.339
H15MET 2016-09-27 12:00:00 10833 208 900.0 2016.0 271.00 1200.0 19.0800 19.6600 72.500 66.920 14.0200 13.3300 0.07500 0.06700 149.50 6.286 22.081 16.005 6.072 22.893 15.303 7.573
H15MET 2016-09-27 11:45:00 10832 208 900.0 2016.0 271.00 1145.0 18.7100 19.2700 73.400 66.090 13.8500 12.7700 0.09900 0.05200 296.20 8.130 21.577 15.830 5.740 22.344 14.753 7.577
H15MET 2016-09-27 11:30:00 10831 208 900.0 2016.0 271.00 1130.0 17.9800 18.5400 77.300 71.900 13.9500 13.3600 0.05200 0.01700 77.80 0.451 20.612 15.933 4.679 21.349 15.333 5.999
H15MET 2016-09-27 11:15:00 10830 208 900.0 2016.0 271.00 1115.0 17.7100 18.2200 78.400 73.000 13.9100 13.3000 0.00200 0.00200 160.70 0.010 20.264 15.892 4.377 20.925 15.273 5.650
H15MET 2016-09-27 11:00:00 10829 208 900.0 2016.0 271.00 1100.0 17.2300 17.8300 79.500 73.300 13.6600 12.9800 0.00000 0.00000 0.00 0.000 19.660 15.635 4.030 20.418 14.957 5.452
H15MET 2016-09-27 10:45:00 10828 208 900.0 2016.0 271.00 1045.0 16.9100 17.6600 80.000 72.100 13.4400 12.5800 0.01700 0.01600 245.50 4.359 19.265 15.413 3.853 20.201 14.570 5.636
H15MET 2016-09-27 10:30:00 10827 208 900.0 2016.0 271.00 1030.0 16.8600 17.9300 79.500 71.100 13.2900 12.6100 0.06900 0.06700 281.40 5.273 19.204 15.263 3.937 20.547 14.599 5.938
H15MET 2016-09-27 10:15:00 10826 208 900.0 2016.0 271.00 1015.0 17.3300 19.0900 77.600 67.170 13.3800 12.8600 0.00000 0.00000 0.00 0.000 19.784 15.353 4.432 22.095 14.840 7.254
H15MET 2016-09-27 10:00:00 10825 208 900.0 2016.0 271.00 1000.0 17.8800 18.7300 73.600 67.660 13.1100 12.6300 0.02000 0.01700 229.50 7.720 20.483 15.085 5.407 21.604 14.618 6.987
H15MET 2016-09-27 09:45:00 10824 208 900.0 2016.0 271.00 945.0 15.8700 17.0100 82.700 75.900 12.9200 12.7000 0.00000 0.00000 0.00 0.000 18.031 14.898 3.119 19.388 14.685 4.672
H15MET 2016-09-27 09:30:00 10823 208 900.0 2016.0 271.00 930.0 14.6900 15.9500 88.200 80.000 12.7600 12.5000 0.00000 0.00000 0.00 0.000 16.715 14.743 1.972 18.123 14.494 3.625
H15MET 2016-09-27 09:15:00 10822 208 900.0 2016.0 271.00 915.0 14.6100 16.7800 86.600 75.300 12.4000 12.3900 0.00000 0.00000 0.00 0.000 16.628 14.399 2.228 19.107 14.389 4.719
H15MET 2016-09-27 09:00:00 10821 208 900.0 2016.0 271.00 900.0 15.2200 16.6500 83.700 75.200 12.4700 12.2400 0.00000 0.00000 0.00 0.000 17.295 14.465 2.819 18.950 14.248 4.700
H15MET 2016-09-27 08:45:00 10820 208 900.0 2016.0 271.00 845.0 16.1000 17.0000 78.200 72.700 12.3000 12.0700 0.00000 0.00000 0.00 0.000 18.298 14.304 3.989 19.375 14.089 5.289
H15MET 2016-09-27 08:30:00 10819 208 900.0 2016.0 271.00 830.0 13.8700 15.2700 87.500 79.700 11.8000 11.7500 0.00000 0.00000 0.00 0.000 15.850 13.841 1.981 17.351 13.795 3.522
H15MET 2016-09-27 08:15:00 10818 208 900.0 2016.0 271.00 815.0 12.3300 12.5900 93.700 91.700 11.3500 11.2700 0.00000 0.00000 0.00 0.000 14.333 13.435 0.903 14.579 13.364 1.210
H15MET 2016-09-27 08:00:00 10817 208 900.0 2016.0 271.00 800.0 12.0300 12.1800 94.200 92.700 11.1300 11.0400 0.00000 0.00000 0.00 0.000 14.052 13.240 0.815 14.192 13.161 1.036
H15MET 2016-09-27 07:45:00 10816 208 900.0 2016.0 271.00 745.0 11.7600 11.8300 94.400 93.400 10.8900 10.7900 0.00000 0.00000 0.00 0.000 13.804 13.030 0.773 13.868 12.944 0.915
H15MET 2016-09-27 07:30:00 10815 208 900.0 2016.0 271.00 730.0 11.6100 11.6500 93.600 92.900 10.6100 10.5300 0.00000 0.00000 0.00 0.000 13.668 12.790 0.875 13.704 12.722 0.973
H15MET 2016-09-27 07:15:00 10814 208 900.0 2016.0 271.00 715.0 11.5800 11.6400 93.000 92.400 10.5000 10.4400 0.00000 0.00000 0.00 0.000 13.641 12.696 0.955 13.695 12.645 1.041
H15MET 2016-09-27 07:00:00 10813 208 900.0 2016.0 271.00 700.0 11.5500 11.6200 92.000 91.200 10.3000 10.2400 0.00000 0.00000 0.00 0.000 13.614 12.528 1.089 13.677 12.478 1.204
H15MET 2016-09-27 06:45:00 10812 208 900.0 2016.0 271.00 645.0 11.7000 11.7400 91.000 90.600 10.2900 10.2500 0.00000 0.00000 0.00 0.000 13.749 12.519 1.237 13.786 12.486 1.296
H15MET 2016-09-27 06:30:00 10811 208 900.0 2016.0 271.00 630.0 11.7400 11.8100 90.500 89.800 10.2400 10.1900 0.00000 0.00000 0.00 0.000 13.786 12.478 1.310 13.850 12.436 1.413
H15MET 2016-09-27 06:15:00 10810 208 900.0 2016.0 271.00 615.0 11.7800 11.8600 90.700 90.500 10.3200 10.3600 0.00000 0.00000 0.00 0.000 13.822 12.545 1.285 13.896 12.578 1.320
H15MET 2016-09-27 06:00:00 10809 208 900.0 2016.0 271.00 600.0 11.8700 11.9200 90.600 90.200 10.3800 10.3700 0.00000 0.00000 0.00 0.000 13.905 12.595 1.307 13.951 12.586 1.367
H15MET 2016-09-27 05:45:00 10808 208 900.0 2016.0 271.00 545.0 11.9200 11.9800 90.100 88.900 10.3500 10.2100 0.00000 0.00000 0.00 0.000 13.951 12.570 1.381 14.006 12.453 1.555
H15MET 2016-09-27 05:30:00 10807 208 900.0 2016.0 271.00 530.0 12.1000 12.1500 89.100 88.200 10.3500 10.2600 0.00000 0.00000 0.00 0.000 14.117 12.570 1.539 14.164 12.494 1.671
H15MET 2016-09-27 05:15:00 10806 208 900.0 2016.0 271.00 515.0 12.1800 12.2300 89.100 88.900 10.4400 10.4500 0.00000 0.00000 0.00 0.000 14.192 12.645 1.547 14.239 12.654 1.580
H15MET 2016-09-27 05:00:00 10805 208 900.0 2016.0 271.00 500.0 12.2800 12.3400 89.300 89.300 10.5800 10.6300 0.00000 0.00000 0.00 0.000 14.286 12.764 1.529 14.342 12.807 1.535
H15MET 2016-09-27 04:45:00 10804 208 900.0 2016.0 271.00 445.0 12.3600 12.4400 88.900 88.100 10.5800 10.5300 0.00000 0.00000 0.00 0.000 14.361 12.764 1.594 14.437 12.722 1.718
H15MET 2016-09-27 04:30:00 10803 208 900.0 2016.0 271.00 430.0 12.5700 12.6300 86.900 86.300 10.4400 10.4000 0.00000 0.00000 0.00 0.000 14.560 12.645 1.907 14.618 12.612 2.003
H15MET 2016-09-27 04:15:00 10802 208 900.0 2016.0 271.00 415.0 12.7200 12.8100 86.500 85.800 10.5200 10.4800 0.00000 0.00000 0.00 0.000 14.704 12.713 1.985 14.791 12.679 2.100
H15MET 2016-09-27 04:00:00 10801 208 900.0 2016.0 271.00 400.0 12.8900 13.0000 85.700 84.400 10.5500 10.4400 0.00000 0.00000 0.00 0.000 14.869 12.739 2.126 14.976 12.645 2.336
H15MET 2016-09-27 03:45:00 10800 208 900.0 2016.0 271.00 345.0 12.9500 13.0800 87.200 86.200 10.8700 10.8300 0.00000 0.00000 0.00 0.000 14.928 13.013 1.911 15.055 12.979 2.078
H15MET 2016-09-27 03:30:00 10799 208 900.0 2016.0 271.00 330.0 13.0700 13.2200 87.000 86.500 10.9600 11.0100 0.00000 0.00000 0.00 0.000 15.045 13.091 1.956 15.193 13.135 2.051
H15MET 2016-09-27 03:15:00 10798 208 900.0 2016.0 271.00 315.0 13.2500 13.3600 86.500 87.300 11.0500 11.2900 0.00000 0.00000 0.00 0.000 15.223 13.170 2.055 15.333 13.381 1.947
H15MET 2016-09-27 03:00:00 10797 208 900.0 2016.0 271.00 300.0 13.2400 13.3700 87.800 87.300 11.2600 11.3100 0.00000 0.00000 0.00 0.000 15.213 13.355 1.856 15.343 13.399 1.949
H15MET 2016-09-27 02:45:00 10796 208 900.0 2016.0 271.00 245.0 13.4100 13.5000 84.400 85.000 10.8300 11.0300 0.00000 0.00000 0.00 0.000 15.383 12.979 2.400 15.473 13.152 2.321
H15MET 2016-09-27 02:30:00 10795 208 900.0 2016.0 271.00 230.0 13.4700 13.6200 86.500 85.700 11.2600 11.2700 0.00000 0.00000 0.00 0.000 15.443 13.355 2.085 15.595 13.364 2.230
H15MET 2016-09-27 02:15:00 10794 208 900.0 2016.0 271.00 215.0 13.5500 13.7400 87.100 85.000 11.4500 11.2600 0.00000 0.00000 0.00 0.000 15.524 13.524 2.003 15.717 13.355 2.358
H15MET 2016-09-27 02:00:00 10793 208 900.0 2016.0 271.00 200.0 13.6900 13.8600 86.200 84.000 11.4200 11.2100 0.00000 0.00000 0.00 0.000 15.666 13.497 2.162 15.840 13.310 2.534
H15MET 2016-09-27 01:45:00 10792 208 900.0 2016.0 271.00 145.0 13.8000 14.0300 86.300 84.100 11.5500 11.3900 0.00000 0.00000 0.00 0.000 15.778 13.614 2.162 16.016 13.470 2.547
H15MET 2016-09-27 01:30:00 10791 208 900.0 2016.0 271.00 130.0 13.8700 14.1000 86.400 83.500 11.6400 11.3500 0.00000 0.00000 0.00 0.000 15.850 13.695 2.156 16.089 13.435 2.655
H15MET 2016-09-27 01:15:00 10790 208 900.0 2016.0 271.00 115.0 13.8800 14.0900 84.600 81.200 11.3300 10.9200 0.00000 0.00000 0.00 0.000 15.861 13.417 2.443 16.078 13.056 3.023
H15MET 2016-09-27 01:00:00 10789 208 900.0 2016.0 271.00 100.0 13.9800 14.1800 83.300 81.000 11.1900 10.9700 0.00000 0.00000 0.00 0.000 15.964 13.293 2.666 16.172 13.100 3.073
H15MET 2016-09-27 00:45:00 10788 208 900.0 2016.0 271.00 45.0 14.1100 14.3500 82.800 79.100 11.2300 10.7800 0.00000 0.00000 0.00 0.000 16.099 13.328 2.769 16.351 12.935 3.417
H15MET 2016-09-27 00:30:00 10787 208 900.0 2016.0 271.00 30.0 14.2300 14.4900 83.700 79.800 11.5200 11.0400 0.00000 0.00000 0.00 0.000 16.225 13.587 2.645 16.500 13.161 3.333
H15MET 2016-09-27 00:15:00 10786 208 900.0 2016.0 271.00 15.0 14.3700 14.6600 83.100 79.100 11.5400 11.0800 0.00000 0.00000 0.00 0.000 16.372 13.605 2.767 16.682 13.196 3.487
H15MET 2016-09-27 00:00:00 10785 208 900.0 2016.0 270.00 2400.0 14.5500 14.8800 83.400 80.400 11.7600 11.5300 0.00000 0.00000 0.00 0.000 16.564 13.804 2.750 16.921 13.596 3.316
H15MET 2016-09-26 23:45:00 10784 208 900.0 2016.0 270.00 2345.0 14.5800 14.8900 83.700 79.300 11.8600 11.3400 0.00000 0.00000 0.00 0.000 16.596 13.896 2.705 16.932 13.426 3.505
H15MET 2016-09-26 23:30:00 10783 208 900.0 2016.0 270.00 2330.0 14.6900 15.0500 84.700 80.400 12.1400 11.7000 0.00000 0.00000 0.00 0.000 16.715 14.154 2.557 17.107 13.749 3.353
H15MET 2016-09-26 23:15:00 10782 208 900.0 2016.0 270.00 2315.0 14.8500 15.1400 81.600 77.800 11.7400 11.2900 0.00000 0.00000 0.00 0.000 16.888 13.786 3.107 17.206 13.381 3.820
H15MET 2016-09-26 23:00:00 10781 208 900.0 2016.0 270.00 2300.0 14.9800 15.2800 79.100 74.600 11.3700 10.8000 0.00000 0.00000 0.00 0.000 17.030 13.452 3.559 17.362 12.953 4.410
H15MET 2016-09-26 22:45:00 10780 208 900.0 2016.0 270.00 2245.0 15.0600 15.4300 80.600 76.400 11.7500 11.2900 0.00000 0.00000 0.00 0.000 17.118 13.795 3.321 17.530 13.381 4.137
H15MET 2016-09-26 22:30:00 10779 208 900.0 2016.0 270.00 2230.0 15.2000 15.5500 80.400 75.700 11.8400 11.2800 0.00000 0.00000 0.00 0.000 17.273 13.877 3.385 17.665 13.372 4.293
H15MET 2016-09-26 22:15:00 10778 208 900.0 2016.0 270.00 2215.0 15.2900 15.6600 78.100 73.100 11.5000 10.8600 0.00000 0.00000 0.00 0.000 17.373 13.569 3.805 17.790 13.004 4.786
H15MET 2016-09-26 22:00:00 10777 208 900.0 2016.0 270.00 2200.0 15.3800 15.7500 79.200 73.400 11.7800 11.0200 0.00000 0.00000 0.00 0.000 17.474 13.822 3.634 17.893 13.144 4.759
H15MET 2016-09-26 21:45:00 10776 208 900.0 2016.0 270.00 2145.0 15.4700 15.8200 81.600 76.700 12.3300 11.7500 0.00000 0.00000 0.00 0.000 17.575 14.333 3.234 17.973 13.795 4.188
H15MET 2016-09-26 21:30:00 10775 208 900.0 2016.0 270.00 2130.0 15.5900 15.9200 79.500 74.800 12.0600 11.4700 0.00000 0.00000 0.00 0.000 17.710 14.080 3.631 18.088 13.542 4.558
H15MET 2016-09-26 21:15:00 10774 208 900.0 2016.0 270.00 2115.0 15.7400 16.0800 79.800 75.100 12.2600 11.6800 0.00000 0.00000 0.00 0.000 17.881 14.267 3.612 18.274 13.731 4.550
H15MET 2016-09-26 21:00:00 10773 208 900.0 2016.0 270.00 2100.0 15.8600 16.2700 79.800 74.000 12.3700 11.6300 0.00000 0.00000 0.00 0.000 18.019 14.370 3.640 18.497 13.686 4.809
H15MET 2016-09-26 20:45:00 10772 208 900.0 2016.0 270.00 2045.0 16.0200 16.4200 81.700 76.500 12.8900 12.2900 0.00000 0.00000 0.00 0.000 18.204 14.869 3.331 18.675 14.295 4.389
H15MET 2016-09-26 20:30:00 10771 208 900.0 2016.0 270.00 2030.0 16.2200 16.5700 81.400 77.200 13.0300 12.5700 0.00000 0.00000 0.00 0.000 18.438 15.006 3.429 18.854 14.560 4.299
H15MET 2016-09-26 20:15:00 10770 208 900.0 2016.0 270.00 2015.0 16.3200 16.7100 76.700 71.900 12.2300 11.6100 0.00000 0.00000 0.00 0.000 18.556 14.239 4.324 19.022 13.668 5.345
H15MET 2016-09-26 20:00:00 10769 208 900.0 2016.0 270.00 2000.0 16.6600 17.0400 77.900 73.100 12.7900 12.1800 0.00000 0.00000 0.00 0.000 18.962 14.772 4.191 19.425 14.192 5.225
H15MET 2016-09-26 19:45:00 10768 208 900.0 2016.0 270.00 1945.0 16.8700 17.2800 80.100 75.900 13.4200 12.9900 0.01500 0.01500 73.00 0.019 19.216 15.393 3.824 19.722 14.967 4.753
H15MET 2016-09-26 19:30:00 10767 208 900.0 2016.0 270.00 1930.0 17.2300 17.6900 78.000 74.300 13.3600 13.0600 0.00000 0.00000 0.00 0.000 19.660 15.333 4.325 20.239 15.035 5.201
H15MET 2016-09-26 19:15:00 10766 208 900.0 2016.0 270.00 1915.0 17.5400 18.1100 75.500 69.660 13.1700 12.4800 0.00000 0.00000 0.00 0.000 20.048 15.144 4.912 20.781 14.475 6.305
H15MET 2016-09-26 19:00:00 10765 208 900.0 2016.0 270.00 1900.0 17.8100 18.4000 73.500 68.040 13.0000 12.3900 0.00000 0.00000 0.00 0.000 20.393 14.976 5.404 21.163 14.389 6.764
H15MET 2016-09-26 18:45:00 10764 208 900.0 2016.0 270.00 1845.0 18.0600 18.6400 75.200 69.830 13.5900 13.0200 0.00000 0.00000 0.00 0.000 20.716 15.564 5.138 21.483 14.996 6.481
H15MET 2016-09-26 18:30:00 10763 208 900.0 2016.0 270.00 1830.0 18.5000 19.0600 73.900 68.870 13.7700 13.2100 0.01600 0.01600 73.10 0.028 21.296 15.748 5.558 22.054 15.183 6.865
H15MET 2016-09-26 18:15:00 10762 208 900.0 2016.0 270.00 1815.0 18.9300 19.5500 70.800 65.080 13.5200 12.8200 0.01400 0.01400 84.00 0.215 21.876 15.494 6.388 22.737 14.801 7.940
H15MET 2016-09-26 18:00:00 10761 208 900.0 2016.0 270.00 1800.0 19.4400 20.1700 68.780 61.770 13.5500 12.6000 0.08900 0.05200 25.63 17.850 22.582 15.524 7.050 23.627 14.589 9.033
H15MET 2016-09-26 17:45:00 10760 208 900.0 2016.0 270.00 1745.0 19.8300 20.7000 66.980 58.800 13.5200 12.3500 0.08000 0.05200 1.88 24.480 23.135 15.494 7.639 24.413 14.351 10.058
H15MET 2016-09-26 17:30:00 10759 208 900.0 2016.0 270.00 1730.0 20.1800 21.1800 65.070 55.050 13.4000 11.8000 0.00400 0.00400 0.38 0.008 23.642 15.373 8.258 25.143 13.841 11.302
H15MET 2016-09-26 17:15:00 10758 208 900.0 2016.0 270.00 1715.0 20.5000 21.5100 64.280 54.360 13.5200 11.9100 0.02600 0.02100 22.20 0.707 24.114 15.494 8.613 25.657 13.941 11.710
H15MET 2016-09-26 17:00:00 10757 208 900.0 2016.0 270.00 1700.0 20.9000 21.9100 63.970 54.280 13.8300 12.2600 0.04000 0.03100 65.56 14.600 24.715 15.809 8.905 26.292 14.267 12.020
H15MET 2016-09-26 16:45:00 10756 208 900.0 2016.0 270.00 1645.0 21.2200 22.3500 63.950 54.040 14.1300 12.5900 0.04900 0.04700 59.14 7.760 25.205 16.120 9.086 27.005 14.579 12.412
H15MET 2016-09-26 16:30:00 10755 208 900.0 2016.0 270.00 1630.0 21.3300 22.3800 65.210 54.910 14.5200 12.8500 0.16800 0.11300 47.88 25.820 25.376 16.532 8.828 27.055 14.830 12.199
H15MET 2016-09-26 16:15:00 10754 208 900.0 2016.0 270.00 1615.0 21.7000 22.8400 65.640 56.120 14.9800 13.6200 0.01800 0.01300 3.27 12.830 25.957 17.030 8.919 27.820 15.595 12.208
H15MET 2016-09-26 16:00:00 10753 208 900.0 2016.0 270.00 1600.0 22.0900 23.1700 64.040 54.000 14.9700 13.3400 0.30700 0.18500 63.57 39.970 26.582 17.019 9.559 28.381 15.313 13.055
H15MET 2016-09-26 15:45:00 10752 208 900.0 2016.0 270.00 1545.0 22.5500 23.6400 61.700 52.460 14.7900 13.2900 0.19800 0.15300 55.50 27.050 27.335 16.823 10.469 29.197 15.263 13.880
H15MET 2016-09-26 15:30:00 10751 208 900.0 2016.0 270.00 1530.0 22.4200 23.8300 63.530 52.450 15.1500 13.4800 0.24000 0.16900 62.92 28.880 27.121 17.217 9.891 29.532 15.453 14.043
H15MET 2016-09-26 15:15:00 10750 208 900.0 2016.0 270.00 1515.0 22.7000 23.9700 62.670 51.990 15.2000 13.4800 0.26800 0.20800 81.70 29.720 27.585 17.273 10.298 29.782 15.453 14.298
H15MET 2016-09-26 15:00:00 10749 208 900.0 2016.0 270.00 1500.0 23.1000 24.4700 60.830 50.670 15.1100 13.5700 0.08200 0.06500 42.09 19.760 28.261 17.173 11.070 30.688 15.544 15.138
H15MET 2016-09-26 14:45:00 10748 208 900.0 2016.0 270.00 1445.0 23.9300 25.2000 56.360 46.520 14.7000 12.8900 0.30300 0.22800 99.10 19.430 29.710 16.725 12.966 32.053 14.869 17.142
H15MET 2016-09-26 14:30:00 10747 208 900.0 2016.0 270.00 1430.0 25.0100 26.7300 44.460 33.000 11.8500 8.9600 0.44300 0.24100 117.00 42.910 31.693 13.886 17.602 35.088 11.449 23.509
H15MET 2016-09-26 14:15:00 10746 208 900.0 2016.0 270.00 1415.0 24.8800 26.7100 50.760 35.860 13.9500 10.2600 0.29600 0.08800 65.53 29.440 31.448 15.933 15.485 35.047 12.494 22.479
H15MET 2016-09-26 14:00:00 10745 208 900.0 2016.0 270.00 1400.0 24.5100 25.8500 48.600 37.580 12.6600 9.9700 0.23000 0.19000 20.50 22.070 30.761 14.647 15.811 33.313 12.254 20.794
H15MET 2016-09-26 13:45:00 10744 208 900.0 2016.0 270.00 1345.0 23.7100 25.2500 56.210 45.180 14.4600 12.5100 0.28900 0.27700 64.33 14.160 29.320 16.468 12.839 32.148 14.503 17.624
H15MET 2016-09-26 13:30:00 10743 208 900.0 2016.0 270.00 1330.0 24.0500 25.9400 50.280 36.860 13.0300 10.0200 0.21600 0.20200 65.88 13.670 29.925 15.006 14.879 33.491 12.295 21.146
H15MET 2016-09-26 13:15:00 10742 208 900.0 2016.0 270.00 1315.0 24.4600 26.4300 47.910 32.910 12.5700 8.6900 0.16900 0.15800 61.44 9.030 30.669 14.560 15.976 34.474 11.242 23.128
H15MET 2016-09-26 13:00:00 10741 208 900.0 2016.0 270.00 1300.0 23.7900 25.5200 52.500 39.480 13.4800 10.6800 0.16300 0.14000 30.61 15.580 29.461 15.453 13.994 32.668 12.850 19.771
H15MET 2016-09-26 12:45:00 10740 208 900.0 2016.0 270.00 1245.0 23.4100 25.2000 53.780 39.540 13.4800 10.3900 0.07000 0.06200 48.23 11.920 28.795 15.453 13.309 32.053 12.603 19.379
H15MET 2016-09-26 12:30:00 10739 208 900.0 2016.0 270.00 1230.0 23.1500 24.8900 58.920 44.690 14.6600 11.9700 0.16200 0.16000 74.30 6.025 28.347 16.682 11.645 31.467 13.997 17.404
H15MET 2016-09-26 12:15:00 10738 208 900.0 2016.0 270.00 1215.0 22.7800 24.1700 61.370 50.250 14.9600 13.1700 0.32100 0.31900 69.56 4.021 27.719 17.008 10.708 30.141 15.144 14.995
H15MET 2016-09-26 12:00:00 10737 208 900.0 2016.0 270.00 1200.0 22.5700 23.7600 62.380 53.670 15.0100 13.7700 0.07500 0.06100 45.78 4.749 27.369 17.063 10.296 29.408 15.748 13.625
H15MET 2016-09-26 11:45:00 10736 208 900.0 2016.0 270.00 1145.0 22.4900 23.4600 57.820 51.350 13.7600 12.8300 0.00000 0.00000 0.00 0.000 27.236 15.737 11.488 28.882 14.811 14.051
H15MET 2016-09-26 11:30:00 10735 208 900.0 2016.0 270.00 1130.0 22.0700 23.0100 57.470 53.380 13.2700 12.9900 0.08600 0.08500 62.52 3.630 26.549 15.243 11.291 28.108 14.967 13.104
H15MET 2016-09-26 11:15:00 10734 208 900.0 2016.0 270.00 1115.0 21.6100 22.7200 61.300 57.010 13.8300 13.7300 0.15700 0.15400 58.30 7.980 25.814 15.809 9.990 27.619 15.707 11.873
H15MET 2016-09-26 11:00:00 10733 208 900.0 2016.0 270.00 1100.0 21.2000 22.4400 63.510 55.010 14.0000 12.9500 0.00000 0.00000 0.00 0.000 25.174 15.985 9.186 27.154 14.928 12.216
H15MET 2016-09-26 10:45:00 10732 208 900.0 2016.0 270.00 1045.0 20.9100 22.1000 64.210 53.580 13.8900 12.2400 0.00000 0.00000 0.00 0.000 24.730 15.871 8.851 26.598 14.248 12.347
H15MET 2016-09-26 10:30:00 10731 208 900.0 2016.0 270.00 1030.0 20.6000 21.4800 66.390 58.990 14.1100 13.1100 0.00000 0.00000 0.00 0.000 24.263 16.099 8.155 25.610 15.085 10.503
H15MET 2016-09-26 10:15:00 10730 208 900.0 2016.0 270.00 1015.0 20.3200 21.0700 66.550 59.530 13.8900 12.8900 0.03400 0.03400 70.80 0.839 23.847 15.871 7.977 24.974 14.869 10.107
H15MET 2016-09-26 10:00:00 10729 208 900.0 2016.0 270.00 1000.0 20.0700 20.7000 66.950 60.700 13.7300 12.8300 0.00000 0.00000 0.00 0.000 23.482 15.707 7.761 24.413 14.811 9.594
H15MET 2016-09-26 09:45:00 10728 208 900.0 2016.0 270.00 945.0 18.6000 19.7300 72.800 64.030 13.6100 12.7300 0.00000 0.00000 0.00 0.000 21.429 15.585 5.829 22.992 14.714 8.270
H15MET 2016-09-26 09:30:00 10727 208 900.0 2016.0 270.00 930.0 17.4300 18.6500 78.600 68.390 13.6800 12.7100 0.07900 0.07800 65.19 4.177 19.910 15.656 4.261 21.496 14.695 6.795
H15MET 2016-09-26 09:15:00 10726 208 900.0 2016.0 270.00 915.0 16.9500 18.5500 79.800 68.250 13.4400 12.5900 0.06700 0.06500 61.04 1.439 19.314 15.413 3.901 21.362 14.579 6.783
H15MET 2016-09-26 09:00:00 10725 208 900.0 2016.0 270.00 900.0 16.8700 17.9300 79.000 70.000 13.2000 12.3800 0.30300 0.22700 67.19 29.180 19.216 15.173 4.035 20.547 14.380 6.164
H15MET 2016-09-26 08:45:00 10724 208 900.0 2016.0 270.00 845.0 17.3700 18.1100 76.000 69.370 13.0900 12.4100 0.22500 0.16100 69.68 32.860 19.834 15.065 4.760 20.781 14.408 6.365
H15MET 2016-09-26 08:30:00 10723 208 900.0 2016.0 270.00 830.0 16.1000 17.1800 80.900 71.800 12.8100 12.0500 0.28000 0.19500 58.26 38.390 18.298 14.791 3.495 19.597 14.071 5.526
H15MET 2016-09-26 08:15:00 10722 208 900.0 2016.0 270.00 815.0 15.2900 15.8600 84.900 77.200 12.7600 11.8700 0.14200 0.14200 83.30 2.567 17.373 14.743 2.623 18.019 13.905 4.108
H15MET 2016-09-26 08:00:00 10721 208 900.0 2016.0 270.00 800.0 14.9800 15.4200 85.500 79.000 12.5600 11.7900 0.16000 0.15900 82.10 3.211 17.030 14.551 2.469 17.518 13.831 3.679
H15MET 2016-09-26 07:45:00 10720 208 900.0 2016.0 270.00 745.0 14.6300 15.0300 86.400 80.800 12.3800 11.7600 0.24400 0.16500 94.60 34.210 16.650 14.380 2.264 17.085 13.804 3.280
H15MET 2016-09-26 07:30:00 10719 208 900.0 2016.0 270.00 730.0 14.4300 14.7300 86.500 82.100 12.2000 11.7100 0.16500 0.15300 87.70 4.273 16.436 14.211 2.219 16.758 13.759 3.000
H15MET 2016-09-26 07:15:00 10718 208 900.0 2016.0 270.00 715.0 14.3700 14.6700 84.900 79.700 11.8600 11.2000 0.07800 0.05900 74.90 7.510 16.372 13.896 2.472 16.693 13.302 3.389
H15MET 2016-09-26 07:00:00 10717 208 900.0 2016.0 270.00 700.0 14.5900 14.9300 85.500 79.500 12.1900 11.4200 0.08900 0.08800 110.60 3.718 16.607 14.201 2.408 16.975 13.497 3.480
H15MET 2016-09-26 06:45:00 10716 208 900.0 2016.0 270.00 645.0 14.7400 15.1700 85.100 79.000 12.2700 11.5500 0.02700 0.02700 115.50 0.518 16.769 14.276 2.499 17.239 13.614 3.620
H15MET 2016-09-26 06:30:00 10715 208 900.0 2016.0 270.00 630.0 14.8800 15.2800 82.400 75.400 11.9100 10.9500 0.15300 0.05500 30.54 29.090 16.921 13.941 2.978 17.362 13.083 4.271
H15MET 2016-09-26 06:15:00 10714 208 900.0 2016.0 270.00 615.0 15.0900 15.6000 84.100 77.600 12.4300 11.6900 0.07000 0.06700 118.20 1.980 17.151 14.427 2.727 17.722 13.740 3.970
H15MET 2016-09-26 06:00:00 10713 208 900.0 2016.0 270.00 600.0 15.2200 15.7100 84.500 76.700 12.6200 11.6300 0.11700 0.08200 94.20 24.340 17.295 14.608 2.681 17.847 13.686 4.158
H15MET 2016-09-26 05:45:00 10712 208 900.0 2016.0 270.00 545.0 15.3300 15.8100 83.900 77.000 12.6400 11.7800 0.02000 0.01900 348.50 5.011 17.418 14.627 2.804 17.962 13.822 4.131
H15MET 2016-09-26 05:30:00 10711 208 900.0 2016.0 270.00 530.0 15.6400 16.1600 82.300 74.800 12.6300 11.6900 0.07300 0.07000 74.50 0.410 17.767 14.618 3.145 18.368 13.740 4.629
H15MET 2016-09-26 05:15:00 10710 208 900.0 2016.0 270.00 515.0 15.8200 16.4300 80.500 72.900 12.4700 11.5500 0.11700 0.11700 50.86 2.283 17.973 14.465 3.505 18.686 13.614 5.064
H15MET 2016-09-26 05:00:00 10709 208 900.0 2016.0 270.00 500.0 16.1400 16.8600 79.200 70.000 12.5300 11.3600 0.13400 0.06400 24.83 26.080 18.344 14.522 3.816 19.204 13.444 5.761
H15MET 2016-09-26 04:45:00 10708 208 900.0 2016.0 270.00 445.0 16.4000 17.2100 77.100 67.690 12.3700 11.1800 0.13400 0.10100 20.79 11.500 18.651 14.370 4.271 19.635 13.284 6.344
H15MET 2016-09-26 04:30:00 10707 208 900.0 2016.0 270.00 430.0 16.5400 17.3300 76.100 67.320 12.3100 11.2100 0.20200 0.12200 51.19 36.550 18.818 14.314 4.497 19.784 13.310 6.465
H15MET 2016-09-26 04:15:00 10706 208 900.0 2016.0 270.00 415.0 16.5300 17.4300 76.400 66.940 12.3600 11.2200 0.39000 0.18900 87.30 47.350 18.806 14.361 4.438 19.910 13.319 6.582
H15MET 2016-09-26 04:00:00 10705 208 900.0 2016.0 270.00 400.0 16.8600 17.8500 73.500 62.960 12.0800 10.6800 0.35800 0.24900 61.55 37.520 19.204 14.099 5.089 20.444 12.850 7.572
H15MET 2016-09-26 03:45:00 10704 208 900.0 2016.0 270.00 345.0 16.6400 17.5300 74.500 64.160 12.0800 10.6800 0.28300 0.19200 51.20 36.670 18.938 14.099 4.829 20.036 12.850 7.181
H15MET 2016-09-26 03:30:00 10703 208 900.0 2016.0 270.00 330.0 16.5300 17.4100 76.300 66.370 12.3400 11.0800 0.39900 0.29600 58.02 34.070 18.806 14.342 4.457 19.885 13.196 6.687
H15MET 2016-09-26 03:15:00 10702 208 900.0 2016.0 270.00 315.0 16.5500 17.3900 74.400 64.100 11.9800 10.5400 0.37300 0.19500 35.41 42.030 18.830 14.006 4.820 19.859 12.730 7.130
H15MET 2016-09-26 03:00:00 10701 208 900.0 2016.0 270.00 300.0 16.3800 17.1800 75.600 66.110 12.0700 10.8000 0.32200 0.23000 36.21 32.200 18.627 14.089 4.545 19.597 12.953 6.642
H15MET 2016-09-26 02:45:00 10700 208 900.0 2016.0 270.00 245.0 16.2200 16.9600 77.900 68.670 12.3500 11.1600 0.31500 0.18600 48.25 41.950 18.438 14.351 4.075 19.326 13.266 6.055
H15MET 2016-09-26 02:30:00 10699 208 900.0 2016.0 270.00 230.0 16.3400 17.1400 77.000 67.070 12.3100 10.9800 0.20800 0.18400 83.30 16.250 18.580 14.314 4.273 19.548 13.109 6.437
H15MET 2016-09-26 02:15:00 10698 208 900.0 2016.0 270.00 215.0 16.3500 17.1400 77.000 68.150 12.3100 11.2200 0.31400 0.31000 64.04 6.330 18.592 14.314 4.276 19.548 13.319 6.226
H15MET 2016-09-26 02:00:00 10697 208 900.0 2016.0 270.00 200.0 16.3000 17.1400 76.800 67.460 12.2200 11.0600 0.26400 0.24100 59.05 21.090 18.532 14.229 4.300 19.548 13.179 6.361
H15MET 2016-09-26 01:45:00 10696 208 900.0 2016.0 270.00 145.0 16.2400 17.0200 77.900 68.720 12.3800 11.2300 0.24300 0.24200 71.40 3.562 18.462 14.380 4.080 19.400 13.328 6.068
H15MET 2016-09-26 01:30:00 10695 208 900.0 2016.0 270.00 130.0 16.3600 17.1600 76.400 66.840 12.1900 10.9500 0.17500 0.16100 72.50 10.130 18.603 14.201 4.390 19.573 13.083 6.490
H15MET 2016-09-26 01:15:00 10694 208 900.0 2016.0 270.00 115.0 16.2100 16.9900 77.800 68.190 12.3300 11.0800 0.28900 0.26600 71.80 18.300 18.426 14.333 4.091 19.363 13.196 6.159
H15MET 2016-09-26 01:00:00 10693 208 900.0 2016.0 270.00 100.0 16.0600 16.7600 80.200 71.600 12.6600 11.6100 0.28100 0.25800 84.30 16.500 18.251 14.647 3.614 19.083 13.668 5.419
H15MET 2016-09-26 00:45:00 10692 208 900.0 2016.0 270.00 45.0 16.0900 16.7600 79.900 71.600 12.6200 11.6000 0.09000 0.08900 99.60 4.213 18.286 14.608 3.675 19.083 13.659 5.419
H15MET 2016-09-26 00:30:00 10691 208 900.0 2016.0 270.00 30.0 16.0500 16.6700 81.200 72.900 12.8300 11.7900 0.12700 0.06700 15.28 17.180 18.239 14.811 3.429 18.974 13.831 5.142
H15MET 2016-09-26 00:15:00 10690 208 900.0 2016.0 270.00 15.0 16.1200 16.8100 80.500 72.100 12.7600 11.7600 0.09400 0.08800 95.90 9.780 18.321 14.743 3.573 19.143 13.804 5.341
H15MET 2016-09-26 00:00:00 10689 208 900.0 2016.0 269.00 2400.0 16.2000 16.9000 80.300 72.000 12.8100 11.8200 0.05600 0.05600 122.20 0.934 18.415 14.791 3.628 19.253 13.859 5.391
H15MET 2016-09-25 23:45:00 10688 208 900.0 2016.0 269.00 2345.0 16.1900 16.8500 80.500 72.300 12.8400 11.8300 0.00000 0.00000 0.00 0.000 18.403 14.820 3.589 19.192 13.868 5.316
H15MET 2016-09-25 23:30:00 10687 208 900.0 2016.0 269.00 2330.0 16.1900 16.8700 80.900 72.000 12.9000 11.8000 0.10300 0.05900 53.31 19.500 18.403 14.879 3.515 19.216 13.841 5.381
H15MET 2016-09-25 23:15:00 10686 208 900.0 2016.0 269.00 2315.0 16.2200 16.8300 80.900 73.200 12.9400 12.0100 0.07400 0.07400 74.90 1.782 18.438 14.918 3.522 19.168 14.034 5.137
H15MET 2016-09-25 23:00:00 10685 208 900.0 2016.0 269.00 2300.0 16.3500 16.9300 79.700 72.400 12.8300 11.9400 0.04600 0.04600 43.18 0.364 18.592 14.811 3.774 19.290 13.969 5.324
H15MET 2016-09-25 22:45:00 10684 208 900.0 2016.0 269.00 2245.0 16.4800 17.1700 78.100 70.400 12.6500 11.7400 0.08600 0.08000 47.25 4.506 18.746 14.637 4.105 19.585 13.786 5.797
H15MET 2016-09-25 22:30:00 10683 208 900.0 2016.0 269.00 2230.0 16.6700 17.4400 76.700 67.080 12.5600 11.2600 0.08700 0.07800 351.60 9.140 18.974 14.551 4.421 19.922 13.355 6.558
H15MET 2016-09-25 22:15:00 10682 208 900.0 2016.0 269.00 2215.0 16.6300 17.3700 77.500 68.430 12.6900 11.5000 0.09200 0.08500 37.71 9.470 18.926 14.675 4.258 19.834 13.569 6.262
H15MET 2016-09-25 22:00:00 10681 208 900.0 2016.0 269.00 2200.0 16.6000 17.3700 78.600 69.150 12.8700 11.6600 0.17300 0.12700 33.68 29.480 18.890 14.850 4.042 19.834 13.713 6.119
H15MET 2016-09-25 21:45:00 10680 208 900.0 2016.0 269.00 2145.0 16.5400 17.2600 79.900 70.800 13.0500 11.9100 0.25500 0.19900 49.25 30.160 18.818 15.025 3.782 19.697 13.941 5.751
H15MET 2016-09-25 21:30:00 10679 208 900.0 2016.0 269.00 2130.0 16.4600 17.0900 81.900 73.500 13.3600 12.3200 0.16700 0.15000 58.97 19.530 18.722 15.333 3.389 19.486 14.323 5.164
H15MET 2016-09-25 21:15:00 10678 208 900.0 2016.0 269.00 2115.0 16.3900 16.9400 84.600 77.200 13.7900 12.9200 0.21500 0.21200 64.31 7.580 18.639 15.768 2.870 19.302 14.898 4.401
H15MET 2016-09-25 21:00:00 10677 208 900.0 2016.0 269.00 2100.0 16.4900 17.0600 84.900 78.300 13.9600 13.2500 0.10500 0.09800 59.61 8.080 18.758 15.943 2.832 19.449 15.223 4.220
H15MET 2016-09-25 20:45:00 10676 208 900.0 2016.0 269.00 2045.0 16.7200 17.4100 82.300 74.100 13.6900 12.7400 0.10200 0.10200 73.30 0.150 19.034 15.666 3.369 19.885 14.724 5.150
H15MET 2016-09-25 20:30:00 10675 208 900.0 2016.0 269.00 2030.0 16.7700 17.4700 82.200 73.700 13.7300 12.7200 0.06500 0.06500 72.50 1.233 19.095 15.707 3.399 19.960 14.704 5.249
H15MET 2016-09-25 20:15:00 10674 208 900.0 2016.0 269.00 2015.0 16.5600 17.1600 85.200 77.500 14.0600 13.1900 0.17800 0.17800 69.34 0.707 18.842 16.047 2.789 19.573 15.164 4.404
H15MET 2016-09-25 20:00:00 10673 208 900.0 2016.0 269.00 2000.0 16.6600 17.2600 86.100 78.700 14.3300 13.5300 0.06000 0.05800 66.80 8.670 18.962 16.330 2.636 19.697 15.504 4.195
H15MET 2016-09-25 19:45:00 10672 208 900.0 2016.0 269.00 1945.0 16.8800 17.4100 86.300 79.500 14.5700 13.8300 0.05500 0.05500 65.72 0.039 19.229 16.586 2.634 19.885 15.809 4.076
H15MET 2016-09-25 19:30:00 10671 208 900.0 2016.0 269.00 1930.0 17.0700 17.6900 84.100 76.300 14.3600 13.4600 0.06900 0.06900 65.61 0.336 19.461 16.362 3.094 20.239 15.433 4.797
H15MET 2016-09-25 19:15:00 10670 208 900.0 2016.0 269.00 1915.0 17.1400 17.6900 84.900 77.700 14.5800 13.7400 0.17500 0.17500 68.46 1.316 19.548 16.596 2.952 20.239 15.717 4.513
H15MET 2016-09-25 19:00:00 10669 208 900.0 2016.0 269.00 1900.0 17.2900 17.8900 85.500 79.000 14.8500 14.2000 0.20800 0.20800 66.52 0.458 19.734 16.888 2.861 20.495 16.193 4.304
H15MET 2016-09-25 18:45:00 10668 208 900.0 2016.0 269.00 1845.0 17.6500 18.3000 83.700 76.800 14.8700 14.1500 0.23900 0.23900 65.77 0.163 20.188 16.910 3.291 21.030 16.141 4.879
H15MET 2016-09-25 18:30:00 10667 208 900.0 2016.0 269.00 1830.0 17.9700 18.6400 86.200 78.800 15.6300 14.8900 0.26400 0.23200 55.17 21.330 20.599 17.756 2.843 21.483 16.932 4.554
H15MET 2016-09-25 18:15:00 10666 208 900.0 2016.0 269.00 1815.0 18.1900 18.9500 86.400 79.400 15.8800 15.3100 0.00000 0.00000 0.00 0.000 20.886 18.042 2.840 21.903 17.395 4.512
H15MET 2016-09-25 18:00:00 10665 208 900.0 2016.0 269.00 1800.0 18.4600 19.1800 85.000 78.300 15.9000 15.3100 0.02500 0.02500 52.10 0.000 21.242 18.065 3.186 22.220 17.395 4.822
H15MET 2016-09-25 17:45:00 10664 208 900.0 2016.0 269.00 1745.0 18.6900 19.5100 84.600 77.100 16.0400 15.3800 0.00000 0.00000 0.00 0.000 21.550 18.228 3.319 22.680 17.474 5.194
H15MET 2016-09-25 17:30:00 10663 208 900.0 2016.0 269.00 1730.0 18.9600 19.8100 83.800 75.300 16.1500 15.3100 0.02900 0.02900 51.81 0.000 21.917 18.356 3.551 23.107 17.395 5.707
H15MET 2016-09-25 17:15:00 10662 208 900.0 2016.0 269.00 1715.0 19.2200 20.0400 81.800 73.900 16.0400 15.2500 0.11500 0.11500 51.88 0.000 22.275 18.228 4.054 23.438 17.328 6.117
H15MET 2016-09-25 17:00:00 10661 208 900.0 2016.0 269.00 1700.0 19.4800 20.2900 80.600 73.400 16.0500 15.3700 0.15600 0.15600 51.93 0.023 22.638 18.239 4.392 23.803 17.462 6.332
H15MET 2016-09-25 16:45:00 10660 208 900.0 2016.0 269.00 1645.0 19.7900 20.5600 80.200 72.800 16.2800 15.5100 0.14300 0.14300 52.98 0.569 23.078 18.509 4.569 24.203 17.620 6.583
H15MET 2016-09-25 16:30:00 10659 208 900.0 2016.0 269.00 1630.0 20.0200 20.8100 78.200 71.600 16.1100 15.4900 0.10600 0.10600 54.63 0.396 23.409 18.309 5.103 24.578 17.597 6.980
H15MET 2016-09-25 16:15:00 10658 208 900.0 2016.0 269.00 1615.0 20.2000 21.0700 76.100 69.300 15.8600 15.2300 0.34400 0.34400 54.62 1.051 23.671 18.019 5.657 24.974 17.306 7.667
H15MET 2016-09-25 16:00:00 10657 208 900.0 2016.0 269.00 1600.0 20.4200 21.3500 73.400 65.970 15.5100 14.7300 0.30900 0.30900 53.22 0.694 23.995 17.620 6.383 25.407 16.758 8.646
H15MET 2016-09-25 15:45:00 10656 208 900.0 2016.0 269.00 1545.0 20.5000 21.5500 74.300 65.870 15.7800 14.9000 0.40500 0.40400 57.68 2.990 24.114 17.927 6.197 25.720 16.942 8.778
H15MET 2016-09-25 15:30:00 10655 208 900.0 2016.0 269.00 1530.0 20.7200 21.7800 75.000 66.910 16.1300 15.3600 0.24900 0.24900 52.79 2.789 24.443 18.333 6.111 26.084 17.451 8.631
H15MET 2016-09-25 15:15:00 10654 208 900.0 2016.0 269.00 1515.0 20.7100 21.8400 74.600 65.900 16.0300 15.1800 0.27400 0.27300 49.25 4.457 24.428 18.216 6.205 26.180 17.250 8.927
H15MET 2016-09-25 15:00:00 10653 208 900.0 2016.0 269.00 1500.0 20.8000 21.9500 74.400 65.510 16.0900 15.1900 0.23100 0.23000 56.24 2.082 24.563 18.286 6.288 26.356 17.262 9.090
H15MET 2016-09-25 14:45:00 10652 208 900.0 2016.0 269.00 1445.0 20.7600 22.0100 74.500 64.730 16.0500 15.0600 0.32800 0.32700 52.81 2.641 24.503 18.239 6.248 26.452 17.118 9.330
H15MET 2016-09-25 14:30:00 10651 208 900.0 2016.0 269.00 1430.0 20.6800 21.8900 76.200 65.420 16.3300 15.1100 0.24900 0.23500 60.88 6.389 24.383 18.568 5.803 26.259 17.173 9.081
H15MET 2016-09-25 14:15:00 10650 208 900.0 2016.0 269.00 1415.0 21.1400 22.6300 75.000 63.950 16.5400 15.4400 0.33200 0.32100 61.27 14.460 25.082 18.818 6.270 27.468 17.541 9.902
H15MET 2016-09-25 14:00:00 10649 208 900.0 2016.0 269.00 1400.0 21.1500 22.4900 72.900 61.480 16.1100 14.7000 0.12200 0.10700 47.93 16.570 25.097 18.309 6.801 27.236 16.725 10.491
H15MET 2016-09-25 13:45:00 10648 208 900.0 2016.0 269.00 1345.0 20.7000 22.0200 76.700 66.070 16.4600 15.3800 0.33900 0.32800 45.22 12.240 24.413 18.722 5.688 26.468 17.474 8.981
H15MET 2016-09-25 13:30:00 10647 208 900.0 2016.0 269.00 1330.0 20.8800 22.2000 74.400 64.730 16.1600 15.2300 0.25200 0.21400 62.82 26.910 24.685 18.368 6.319 26.760 17.306 9.438
H15MET 2016-09-25 13:15:00 10646 208 900.0 2016.0 269.00 1315.0 20.3100 21.4100 77.000 67.990 16.1300 15.2300 0.18300 0.16800 59.60 19.780 23.833 18.333 5.482 25.500 17.306 8.163
H15MET 2016-09-25 13:00:00 10645 208 900.0 2016.0 269.00 1300.0 20.1500 21.2900 79.100 70.300 16.4100 15.6700 0.14600 0.14500 59.83 3.398 23.598 18.663 4.932 25.314 17.801 7.518
H15MET 2016-09-25 12:45:00 10644 208 900.0 2016.0 269.00 1245.0 20.0300 21.0700 78.800 70.700 16.2300 15.5300 0.16400 0.16200 64.06 2.299 23.424 18.450 4.966 24.974 17.642 7.317
H15MET 2016-09-25 12:30:00 10643 208 900.0 2016.0 269.00 1230.0 19.6900 20.5100 80.200 73.100 16.1700 15.5300 0.20700 0.20500 61.33 4.074 22.935 18.379 4.541 24.129 17.642 6.491
H15MET 2016-09-25 12:15:00 10642 208 900.0 2016.0 269.00 1215.0 19.2700 20.3800 81.300 74.000 15.9900 15.5800 0.22100 0.21800 54.45 6.363 22.344 18.170 4.178 23.936 17.699 6.223
H15MET 2016-09-25 12:00:00 10641 208 900.0 2016.0 269.00 1200.0 18.8500 19.8900 81.700 74.500 15.6600 15.1800 0.12900 0.07300 24.57 26.550 21.767 17.790 3.983 23.222 17.250 5.921
H15MET 2016-09-25 11:45:00 10640 208 900.0 2016.0 269.00 1145.0 18.2000 19.0600 81.900 76.700 15.0500 14.8700 0.16400 0.16100 66.70 7.620 20.899 17.107 3.783 22.054 16.910 5.139
H15MET 2016-09-25 11:30:00 10639 208 900.0 2016.0 269.00 1130.0 17.9000 18.8900 81.500 75.600 14.6900 14.4800 0.06900 0.06800 69.02 0.368 20.508 16.715 3.794 21.821 16.489 5.324
H15MET 2016-09-25 11:15:00 10638 208 900.0 2016.0 269.00 1115.0 17.6000 18.6700 82.000 76.500 14.4900 14.4400 0.00000 0.00000 0.00 0.000 20.124 16.500 3.622 21.523 16.447 5.058
H15MET 2016-09-25 11:00:00 10637 208 900.0 2016.0 269.00 1100.0 17.2300 18.2000 80.800 74.800 13.9100 13.6600 0.00000 0.00000 0.00 0.000 19.660 15.892 3.775 20.899 15.635 5.266
H15MET 2016-09-25 10:45:00 10636 208 900.0 2016.0 269.00 1045.0 16.7200 17.6300 82.600 75.600 13.7500 13.2600 0.00000 0.00000 0.00 0.000 19.034 15.727 3.312 20.163 15.233 4.920
H15MET 2016-09-25 10:30:00 10635 208 900.0 2016.0 269.00 1030.0 16.6700 17.5600 82.300 75.800 13.6300 13.2400 0.07000 0.07000 62.81 0.112 18.974 15.605 3.358 20.074 15.213 4.858
H15MET 2016-09-25 10:15:00 10634 208 900.0 2016.0 269.00 1015.0 16.9200 17.1900 80.300 77.100 13.5000 13.1600 0.31100 0.31100 61.18 0.359 19.277 15.473 3.798 19.610 15.134 4.491
H15MET 2016-09-25 10:00:00 10633 208 900.0 2016.0 269.00 1000.0 16.4200 16.5300 80.100 77.900 12.9900 12.6700 0.38100 0.38100 60.01 0.773 18.675 14.967 3.716 18.806 14.656 4.156
H15MET 2016-09-25 09:45:00 10632 208 900.0 2016.0 269.00 945.0 14.7700 15.4700 85.500 80.700 12.3600 12.1700 0.40800 0.40800 57.28 0.985 16.801 14.361 2.436 17.575 14.182 3.392
H15MET 2016-09-25 09:30:00 10631 208 900.0 2016.0 269.00 930.0 13.7900 14.6200 85.500 79.300 11.4000 11.0700 0.32800 0.32800 54.04 0.495 15.768 13.479 2.286 16.639 13.187 3.444
H15MET 2016-09-25 09:15:00 10630 208 900.0 2016.0 269.00 915.0 13.4500 14.6600 83.500 75.300 10.7000 10.3400 0.38300 0.38300 49.80 0.229 15.423 12.867 2.545 16.682 12.561 4.121
H15MET 2016-09-25 09:00:00 10629 208 900.0 2016.0 269.00 900.0 13.5600 14.3200 81.500 75.000 10.4500 9.9500 0.08200 0.08200 48.98 0.027 15.534 12.654 2.874 16.320 12.238 4.080
H15MET 2016-09-25 08:45:00 10628 208 900.0 2016.0 269.00 845.0 13.4100 13.8200 80.100 75.400 10.0500 9.5400 0.16600 0.16600 48.86 0.000 15.383 12.320 3.061 15.799 11.905 3.887
H15MET 2016-09-25 08:30:00 10627 208 900.0 2016.0 269.00 830.0 11.7900 12.6600 85.300 76.500 9.3900 8.6500 0.19100 0.19100 48.56 0.100 13.831 11.786 2.033 14.647 11.211 3.442
H15MET 2016-09-25 08:15:00 10626 208 900.0 2016.0 269.00 815.0 10.8100 11.2100 90.300 83.800 9.2800 8.5700 0.18500 0.18500 47.83 0.533 12.961 11.699 1.257 13.310 11.151 2.156
H15MET 2016-09-25 08:00:00 10625 208 900.0 2016.0 269.00 800.0 10.2900 10.6900 93.300 86.900 9.2600 8.5900 0.07500 0.07500 47.77 0.459 12.519 11.683 0.839 12.858 11.166 1.684
H15MET 2016-09-25 07:45:00 10624 208 900.0 2016.0 269.00 745.0 9.8500 10.1600 95.000 88.900 9.0900 8.4000 0.00000 0.00000 0.00 0.000 12.156 11.550 0.608 12.411 11.023 1.378
H15MET 2016-09-25 07:30:00 10623 208 900.0 2016.0 269.00 730.0 9.4500 9.6700 95.800 91.200 8.8100 8.3000 0.00300 0.00300 30.50 0.014 11.833 11.333 0.497 12.010 10.948 1.057
H15MET 2016-09-25 07:15:00 10622 208 900.0 2016.0 269.00 715.0 9.3000 9.5100 94.100 89.500 8.3900 7.8600 0.02100 0.02100 66.12 0.071 11.715 11.015 0.691 11.881 10.625 1.248
H15MET 2016-09-25 07:00:00 10621 208 900.0 2016.0 269.00 700.0 9.2700 9.4600 94.500 91.700 8.4300 8.1900 0.00000 0.00000 0.00 0.000 11.691 11.045 0.643 11.841 10.867 0.983
H15MET 2016-09-25 06:45:00 10620 208 900.0 2016.0 269.00 645.0 9.0500 9.2600 94.600 89.500 8.2300 7.6300 0.00900 0.00900 17.62 0.023 11.519 10.896 0.622 11.683 10.460 1.227
H15MET 2016-09-25 06:30:00 10619 208 900.0 2016.0 269.00 630.0 8.9300 9.1400 96.800 94.500 8.4400 8.3000 0.00000 0.00000 0.00 0.000 11.426 11.053 0.366 11.589 10.948 0.637
H15MET 2016-09-25 06:15:00 10618 208 900.0 2016.0 269.00 615.0 8.9000 9.1300 96.500 94.400 8.3700 8.2700 0.00000 0.00000 0.00 0.000 11.402 11.000 0.399 11.581 10.926 0.649
H15MET 2016-09-25 06:00:00 10617 208 900.0 2016.0 269.00 600.0 8.7100 8.9300 96.800 93.900 8.2200 8.0100 0.00000 0.00000 0.00 0.000 11.257 10.889 0.360 11.426 10.734 0.697
H15MET 2016-09-25 05:45:00 10616 208 900.0 2016.0 269.00 545.0 8.6000 8.8100 97.500 95.500 8.2300 8.1300 0.00000 0.00000 0.00 0.000 11.173 10.896 0.279 11.333 10.822 0.510
H15MET 2016-09-25 05:30:00 10615 208 900.0 2016.0 269.00 530.0 8.4900 8.6900 96.600 94.800 7.9800 7.9100 0.00000 0.00000 0.00 0.000 11.090 10.712 0.377 11.242 10.661 0.585
H15MET 2016-09-25 05:15:00 10614 208 900.0 2016.0 269.00 515.0 8.5200 8.6800 95.900 94.000 7.9000 7.7800 0.00000 0.00000 0.00 0.000 11.113 10.654 0.456 11.234 10.567 0.674
H15MET 2016-09-25 05:00:00 10613 208 900.0 2016.0 269.00 500.0 8.4900 8.6700 95.400 94.300 7.7900 7.8100 0.00000 0.00000 0.00 0.000 11.090 10.575 0.510 11.226 10.589 0.640
H15MET 2016-09-25 04:45:00 10612 208 900.0 2016.0 269.00 445.0 8.4200 8.6300 96.800 94.600 7.9400 7.8100 0.00000 0.00000 0.00 0.000 11.038 10.683 0.353 11.196 10.589 0.605
H15MET 2016-09-25 04:30:00 10611 208 900.0 2016.0 269.00 430.0 8.3400 8.4900 97.100 94.900 7.9100 7.7200 0.00000 0.00000 0.00 0.000 10.978 10.661 0.318 11.090 10.524 0.566
H15MET 2016-09-25 04:15:00 10610 208 900.0 2016.0 269.00 415.0 8.1600 8.3500 95.900 94.000 7.5500 7.4400 0.00000 0.00000 0.00 0.000 10.844 10.403 0.445 10.985 10.325 0.659
H15MET 2016-09-25 04:00:00 10609 208 900.0 2016.0 269.00 400.0 8.2000 8.4500 96.200 93.500 7.6300 7.4700 0.03200 0.03200 338.50 1.318 10.874 10.460 0.413 11.060 10.346 0.719
H15MET 2016-09-25 03:45:00 10608 208 900.0 2016.0 269.00 345.0 8.0100 8.2800 95.400 92.800 7.3200 7.1800 0.04600 0.03100 4.13 18.250 10.734 10.240 0.494 10.933 10.142 0.787
H15MET 2016-09-25 03:30:00 10607 208 900.0 2016.0 269.00 330.0 7.9500 8.2500 94.600 91.700 7.1500 6.9820 0.00000 0.00000 0.00 0.000 10.691 10.122 0.577 10.911 10.006 0.906
H15MET 2016-09-25 03:15:00 10606 208 900.0 2016.0 269.00 315.0 7.8800 8.1900 94.600 91.100 7.0700 6.8270 0.00000 0.00000 0.00 0.000 10.640 10.066 0.575 10.867 9.900 0.967
H15MET 2016-09-25 03:00:00 10605 208 900.0 2016.0 269.00 300.0 7.7900 8.1000 94.200 90.500 6.9110 6.6430 0.00000 0.00000 0.00 0.000 10.575 9.957 0.613 10.800 9.775 1.026
H15MET 2016-09-25 02:45:00 10604 208 900.0 2016.0 269.00 245.0 7.7100 8.0400 92.100 89.200 6.5010 6.3660 0.00000 0.00000 0.00 0.000 10.517 9.680 0.831 10.756 9.590 1.162
H15MET 2016-09-25 02:30:00 10603 208 900.0 2016.0 269.00 230.0 7.7900 8.1300 94.100 91.100 6.9050 6.7730 0.00000 0.00000 0.00 0.000 10.575 9.953 0.624 10.822 9.863 0.963
H15MET 2016-09-25 02:15:00 10602 208 900.0 2016.0 269.00 215.0 7.6600 7.9200 92.500 90.600 6.5340 6.4740 0.00000 0.00000 0.00 0.000 10.481 9.702 0.786 10.669 9.662 1.003
H15MET 2016-09-25 02:00:00 10601 208 900.0 2016.0 269.00 200.0 7.8200 8.0300 93.900 91.500 6.8940 6.7360 0.00000 0.00000 0.00 0.000 10.596 9.945 0.646 10.749 9.838 0.914
H15MET 2016-09-25 01:45:00 10600 208 900.0 2016.0 269.00 145.0 7.7000 8.0000 93.300 91.100 6.6780 6.6340 0.00000 0.00000 0.00 0.000 10.510 9.799 0.704 10.727 9.769 0.955
H15MET 2016-09-25 01:30:00 10599 208 900.0 2016.0 269.00 130.0 7.7900 8.1000 94.300 90.800 6.9290 6.6790 0.00000 0.00000 0.00 0.000 10.575 9.969 0.603 10.800 9.799 0.994
H15MET 2016-09-25 01:15:00 10598 208 900.0 2016.0 269.00 115.0 7.7500 7.8900 93.700 91.800 6.7990 6.6380 0.00000 0.00000 0.00 0.000 10.546 9.881 0.664 10.647 9.772 0.873
H15MET 2016-09-25 01:00:00 10597 208 900.0 2016.0 269.00 100.0 7.9400 8.0500 94.600 92.000 7.1300 6.8260 0.00000 0.00000 0.00 0.000 10.683 10.108 0.577 10.764 9.899 0.861
H15MET 2016-09-25 00:45:00 10596 208 900.0 2016.0 269.00 45.0 8.0900 8.2000 96.100 93.200 7.5100 7.1600 0.00000 0.00000 0.00 0.000 10.793 10.374 0.421 10.874 10.129 0.739
H15MET 2016-09-25 00:30:00 10595 208 900.0 2016.0 269.00 30.0 8.1400 8.2500 96.400 94.400 7.6100 7.4000 0.00000 0.00000 0.00 0.000 10.830 10.445 0.390 10.911 10.296 0.611
H15MET 2016-09-25 00:15:00 10594 208 900.0 2016.0 269.00 15.0 8.1900 8.2500 97.100 95.100 7.7500 7.5200 0.00000 0.00000 0.00 0.000 10.867 10.546 0.315 10.911 10.381 0.535
H15MET 2016-09-25 00:00:00 10593 208 900.0 2016.0 268.00 2400.0 8.1900 8.2700 96.900 95.300 7.7400 7.5700 0.05900 0.05900 94.70 0.000 10.867 10.539 0.337 10.926 10.417 0.514
H15MET 2016-09-24 23:45:00 10592 208 900.0 2016.0 268.00 2345.0 8.3300 8.3800 96.900 96.100 7.8600 7.7900 0.04200 0.04200 94.90 0.066 10.970 10.625 0.340 11.008 10.575 0.429
H15MET 2016-09-24 23:30:00 10591 208 900.0 2016.0 268.00 2330.0 8.6600 8.8400 98.600 98.400 8.4500 8.6000 0.00000 0.00000 0.00 0.000 11.219 11.060 0.157 11.356 11.173 0.182
H15MET 2016-09-24 23:15:00 10590 208 900.0 2016.0 268.00 2315.0 8.6800 8.8600 98.700 98.400 8.4900 8.6200 0.00000 0.00000 0.00 0.000 11.234 11.090 0.146 11.372 11.188 0.182
H15MET 2016-09-24 23:00:00 10589 208 900.0 2016.0 268.00 2300.0 8.6500 8.7200 98.600 97.700 8.4300 8.3800 0.00000 0.00000 0.00 0.000 11.211 11.045 0.157 11.264 11.008 0.259
H15MET 2016-09-24 22:45:00 10588 208 900.0 2016.0 268.00 2245.0 8.6800 8.7400 98.700 98.200 8.4800 8.4800 0.00000 0.00000 0.00 0.000 11.234 11.083 0.146 11.280 11.083 0.203
H15MET 2016-09-24 22:30:00 10587 208 900.0 2016.0 268.00 2230.0 8.5900 8.6700 98.300 97.800 8.3400 8.3300 0.15800 0.15800 94.60 0.000 11.166 10.978 0.190 11.226 10.970 0.247
H15MET 2016-09-24 22:15:00 10586 208 900.0 2016.0 268.00 2215.0 8.5300 8.5800 97.800 97.900 8.2100 8.2700 0.09300 0.09300 94.60 0.000 11.120 10.881 0.245 11.158 10.926 0.234
H15MET 2016-09-24 22:00:00 10585 208 900.0 2016.0 268.00 2200.0 8.5300 8.5100 97.700 97.700 8.1800 8.1700 0.00000 0.00000 0.00 0.000 11.120 10.859 0.256 11.105 10.852 0.255
H15MET 2016-09-24 21:45:00 10584 208 900.0 2016.0 268.00 2145.0 8.4800 8.4600 96.600 96.000 7.9800 7.8700 0.04900 0.04900 94.90 0.341 11.083 10.712 0.377 11.068 10.632 0.443
H15MET 2016-09-24 21:30:00 10583 208 900.0 2016.0 268.00 2130.0 8.5600 8.5200 96.200 95.200 7.9900 7.8000 0.23200 0.23200 98.00 1.291 11.143 10.720 0.423 11.113 10.582 0.533
H15MET 2016-09-24 21:15:00 10582 208 900.0 2016.0 268.00 2115.0 8.8700 8.9300 97.400 97.200 8.4800 8.5000 0.02500 0.02500 109.80 1.715 11.379 11.083 0.296 11.426 11.098 0.320
H15MET 2016-09-24 21:00:00 10581 208 900.0 2016.0 268.00 2100.0 9.1500 9.1400 97.900 97.500 8.8300 8.7700 0.09000 0.09000 96.20 1.139 11.597 11.349 0.244 11.589 11.303 0.290
H15MET 2016-09-24 20:45:00 10580 208 900.0 2016.0 268.00 2045.0 9.5800 9.5800 98.700 99.100 9.3800 9.4400 0.03500 0.03400 102.50 0.974 11.937 11.778 0.155 11.937 11.826 0.107
H15MET 2016-09-24 20:30:00 10579 208 900.0 2016.0 268.00 2030.0 9.7800 9.8600 99.100 100.000 9.6400 9.8600 0.00000 0.00000 0.00 0.000 12.099 11.986 0.109 12.164 12.164 0.000
H15MET 2016-09-24 20:15:00 10578 208 900.0 2016.0 268.00 2015.0 9.8100 9.8400 98.800 99.000 9.6400 9.6900 0.00000 0.00000 0.00 0.000 12.123 11.986 0.145 12.148 12.026 0.121
H15MET 2016-09-24 20:00:00 10577 208 900.0 2016.0 268.00 2000.0 9.8900 9.9200 98.500 97.900 9.6600 9.6100 0.07400 0.07400 86.80 1.288 12.189 12.002 0.183 12.213 11.962 0.256
H15MET 2016-09-24 19:45:00 10576 208 900.0 2016.0 268.00 1945.0 10.2000 10.4200 98.300 97.400 9.9400 10.0200 0.09800 0.09800 110.30 0.168 12.444 12.229 0.212 12.629 12.295 0.328
H15MET 2016-09-24 19:30:00 10575 208 900.0 2016.0 268.00 1930.0 10.7100 10.8700 98.800 97.800 10.5400 10.5400 0.00000 0.00000 0.00 0.000 12.875 12.730 0.155 13.013 12.730 0.286
H15MET 2016-09-24 19:15:00 10574 208 900.0 2016.0 268.00 1915.0 10.7000 10.8200 98.800 98.200 10.5200 10.5600 0.00000 0.00000 0.00 0.000 12.867 12.713 0.154 12.970 12.747 0.233
H15MET 2016-09-24 19:00:00 10573 208 900.0 2016.0 268.00 1900.0 10.7400 10.8300 97.500 96.100 10.3600 10.2300 0.06400 0.06000 70.60 0.702 12.901 12.578 0.323 12.979 12.469 0.506
H15MET 2016-09-24 18:45:00 10572 208 900.0 2016.0 268.00 1845.0 11.1100 11.1600 98.000 96.200 10.8100 10.5700 0.01500 0.01500 55.39 0.055 13.222 12.961 0.264 13.266 12.756 0.504
H15MET 2016-09-24 18:30:00 10571 208 900.0 2016.0 268.00 1830.0 11.2600 11.3300 97.700 96.000 10.9100 10.7100 0.00000 0.00000 0.00 0.000 13.355 13.048 0.307 13.417 12.875 0.537
H15MET 2016-09-24 18:15:00 10570 208 900.0 2016.0 268.00 1815.0 11.4400 11.5600 97.200 94.700 11.0000 10.7500 0.00000 0.00000 0.00 0.000 13.515 13.126 0.378 13.623 12.910 0.722
H15MET 2016-09-24 18:00:00 10569 208 900.0 2016.0 268.00 1800.0 11.5800 11.7400 96.600 93.100 11.0600 10.6600 0.00000 0.00000 0.00 0.000 13.641 13.179 0.464 13.786 12.832 0.951
H15MET 2016-09-24 17:45:00 10568 208 900.0 2016.0 268.00 1745.0 11.6200 11.7300 94.100 90.400 10.7000 10.2000 0.03400 0.03400 47.71 0.000 13.677 12.867 0.807 13.777 12.444 1.323
H15MET 2016-09-24 17:30:00 10567 208 900.0 2016.0 268.00 1730.0 11.8200 11.9500 93.200 88.900 10.7700 10.1800 0.04600 0.04600 47.70 0.000 13.859 12.927 0.942 13.978 12.428 1.552
H15MET 2016-09-24 17:15:00 10566 208 900.0 2016.0 268.00 1715.0 12.0100 12.1300 94.900 90.500 11.2200 10.6200 0.20900 0.20900 47.63 0.000 14.034 13.319 0.716 14.145 12.798 1.344
H15MET 2016-09-24 17:00:00 10565 208 900.0 2016.0 268.00 1700.0 12.2300 12.3400 94.600 90.700 11.3800 10.8600 0.11500 0.11500 47.67 0.000 14.239 13.461 0.769 14.342 13.004 1.334
H15MET 2016-09-24 16:45:00 10564 208 900.0 2016.0 268.00 1645.0 12.4500 12.6300 93.800 91.000 11.4800 11.1900 0.24900 0.24900 47.90 0.159 14.446 13.551 0.896 14.618 13.293 1.316
H15MET 2016-09-24 16:30:00 10563 208 900.0 2016.0 268.00 1630.0 12.6600 12.8700 92.900 90.500 11.5500 11.3500 0.19300 0.19300 49.45 0.134 14.647 13.614 1.040 14.850 13.435 1.411
H15MET 2016-09-24 16:15:00 10562 208 900.0 2016.0 268.00 1615.0 12.7800 13.0700 94.000 90.900 11.8400 11.6100 0.24600 0.24600 51.86 0.639 14.762 13.877 0.886 15.045 13.668 1.369
H15MET 2016-09-24 16:00:00 10561 208 900.0 2016.0 268.00 1600.0 12.8800 13.1400 94.700 90.800 12.0600 11.6600 0.35000 0.35000 52.77 1.214 14.859 14.080 0.788 15.114 13.713 1.391
H15MET 2016-09-24 15:45:00 10560 208 900.0 2016.0 268.00 1545.0 12.9700 13.2200 94.500 91.100 12.1100 11.8000 0.34500 0.34500 53.20 2.710 14.947 14.127 0.822 15.193 13.841 1.352
H15MET 2016-09-24 15:30:00 10559 208 900.0 2016.0 268.00 1530.0 13.0300 13.2800 95.100 91.700 12.2600 11.9600 0.37500 0.37300 59.25 4.074 15.006 14.267 0.735 15.253 13.988 1.266
H15MET 2016-09-24 15:15:00 10558 208 900.0 2016.0 268.00 1515.0 13.2300 13.4200 95.500 93.100 12.5300 12.3300 0.29300 0.27900 46.56 10.910 15.203 14.522 0.684 15.393 14.333 1.062
H15MET 2016-09-24 15:00:00 10557 208 900.0 2016.0 268.00 1500.0 13.3000 13.4800 95.000 92.300 12.5100 12.2600 0.37700 0.37500 60.33 5.551 15.273 14.503 0.764 15.453 14.267 1.190
H15MET 2016-09-24 14:45:00 10556 208 900.0 2016.0 268.00 1445.0 13.5000 13.7100 92.500 89.100 12.3100 11.9200 0.28800 0.28700 60.25 3.494 15.473 14.314 1.160 15.686 13.951 1.710
H15MET 2016-09-24 14:30:00 10555 208 900.0 2016.0 268.00 1430.0 13.7300 13.9300 95.500 92.200 13.0300 12.6800 0.18100 0.16500 41.25 6.431 15.707 15.006 0.707 15.912 14.666 1.241
H15MET 2016-09-24 14:15:00 10554 208 900.0 2016.0 268.00 1415.0 13.7600 13.9500 94.700 92.100 12.9200 12.6800 0.18600 0.17900 63.34 11.400 15.737 14.898 0.834 15.933 14.666 1.259
H15MET 2016-09-24 14:00:00 10553 208 900.0 2016.0 268.00 1400.0 13.4400 13.6900 95.100 90.200 12.6600 12.0900 0.30600 0.22700 64.12 13.500 15.413 14.647 0.755 15.666 14.108 1.535
H15MET 2016-09-24 13:45:00 10552 208 900.0 2016.0 268.00 1345.0 13.4300 13.5900 96.200 94.900 12.8500 12.7900 0.17700 0.17000 81.00 4.749 15.403 14.830 0.585 15.564 14.772 0.794
H15MET 2016-09-24 13:30:00 10551 208 900.0 2016.0 268.00 1330.0 13.7500 14.0500 92.900 90.400 12.6100 12.4900 0.15000 0.11300 55.84 11.080 15.727 14.599 1.117 16.037 14.484 1.540
H15MET 2016-09-24 13:15:00 10550 208 900.0 2016.0 268.00 1315.0 13.5700 13.8800 85.800 79.300 11.2200 10.3200 0.27500 0.18100 320.50 25.490 15.544 13.319 2.207 15.861 12.545 3.283
H15MET 2016-09-24 13:00:00 10549 208 900.0 2016.0 268.00 1300.0 12.8800 13.0100 96.900 95.100 12.4000 12.2300 0.14600 0.10000 127.00 25.350 14.859 14.399 0.461 14.986 14.239 0.734
H15MET 2016-09-24 12:45:00 10548 208 900.0 2016.0 268.00 1245.0 12.9300 13.0400 95.000 91.700 12.1400 11.7100 0.17300 0.07000 59.22 19.940 14.908 14.154 0.745 15.016 13.759 1.246
H15MET 2016-09-24 12:30:00 10547 208 900.0 2016.0 268.00 1230.0 12.8400 12.9300 95.300 92.500 12.1000 11.7500 0.15200 0.12300 43.93 14.820 14.820 14.117 0.697 14.908 13.795 1.118
H15MET 2016-09-24 12:15:00 10546 208 900.0 2016.0 268.00 1215.0 12.5000 12.6300 95.500 92.500 11.8100 11.4500 0.19800 0.11300 17.06 20.190 14.494 13.850 0.652 14.618 13.524 1.096
H15MET 2016-09-24 12:00:00 10545 208 900.0 2016.0 268.00 1200.0 12.1600 12.1300 98.500 96.100 11.9300 11.5200 0.39200 0.29500 278.10 21.350 14.173 13.960 0.213 14.145 13.587 0.552
H15MET 2016-09-24 11:45:00 10544 208 900.0 2016.0 268.00 1145.0 11.7900 11.7000 98.700 98.600 11.5900 11.4900 0.12100 0.09500 91.20 21.550 13.831 13.650 0.180 13.749 13.560 0.192
H15MET 2016-09-24 11:30:00 10543 208 900.0 2016.0 268.00 1130.0 11.6000 11.4900 97.900 97.400 11.2800 11.1000 0.15100 0.02700 263.40 6.585 13.659 13.372 0.287 13.560 13.214 0.353
H15MET 2016-09-24 11:15:00 10542 208 900.0 2016.0 268.00 1115.0 10.9900 10.8800 99.400 99.600 10.8900 10.8100 0.37900 0.09200 35.78 25.430 13.117 13.030 0.079 13.022 12.961 0.052
H15MET 2016-09-24 11:00:00 10541 208 900.0 2016.0 268.00 1100.0 10.8400 10.7100 99.400 99.200 10.7500 10.5900 0.15400 0.09600 274.80 22.240 12.987 12.910 0.078 12.875 12.773 0.103
H15MET 2016-09-24 10:45:00 10540 208 900.0 2016.0 268.00 1045.0 10.5300 10.3500 99.600 100.000 10.4600 10.3500 0.14500 0.12800 57.44 2.134 12.722 12.662 0.051 12.570 12.570 0.000
H15MET 2016-09-24 10:30:00 10539 208 900.0 2016.0 268.00 1030.0 10.1400 9.8900 99.900 100.000 10.1300 9.8900 0.10400 0.10100 45.54 6.940 12.394 12.386 0.012 12.189 12.189 0.000
H15MET 2016-09-24 10:15:00 10538 208 900.0 2016.0 268.00 1015.0 9.9400 9.7300 100.000 100.000 9.9400 9.7300 0.00500 0.00500 17.74 0.968 12.229 12.229 0.000 12.058 12.058 0.000
H15MET 2016-09-24 10:00:00 10537 208 900.0 2016.0 268.00 1000.0 10.1600 9.9500 100.000 100.000 10.1600 9.9500 0.01000 0.01000 31.48 0.029 12.411 12.411 -0.000 12.238 12.238 0.000
H15MET 2016-09-24 09:45:00 10536 208 900.0 2016.0 268.00 945.0 9.9900 9.8600 100.000 100.000 9.9900 9.8600 0.15300 0.12000 293.70 13.460 12.271 12.271 0.000 12.164 12.164 0.000
H15MET 2016-09-24 09:30:00 10535 208 900.0 2016.0 268.00 930.0 9.2200 9.0400 100.000 100.000 9.2200 9.0400 0.03200 0.03200 45.28 0.000 11.652 11.652 0.000 11.511 11.511 -0.000
H15MET 2016-09-24 09:15:00 10534 208 900.0 2016.0 268.00 915.0 8.6800 8.4800 100.000 100.000 8.6800 8.4800 0.01600 0.01600 41.05 0.000 11.234 11.234 0.000 11.083 11.083 0.000
H15MET 2016-09-24 09:00:00 10533 208 900.0 2016.0 268.00 900.0 8.5800 8.3700 100.000 100.000 8.5800 8.3700 0.00000 0.00000 0.00 0.000 11.158 11.158 0.000 11.000 11.000 0.000
H15MET 2016-09-24 08:45:00 10532 208 900.0 2016.0 268.00 845.0 8.4700 8.3100 100.000 100.000 8.4700 8.3100 0.00000 0.00000 0.00 0.000 11.075 11.075 0.000 10.956 10.956 -0.000
H15MET 2016-09-24 08:30:00 10531 208 900.0 2016.0 268.00 830.0 8.0800 7.9400 100.000 100.000 8.0800 7.9400 0.00000 0.00000 0.00 0.000 10.786 10.786 0.000 10.683 10.683 0.000
H15MET 2016-09-24 08:15:00 10530 208 900.0 2016.0 268.00 815.0 7.6300 7.5200 100.000 100.000 7.6300 7.5200 0.00000 0.00000 0.00 0.000 10.460 10.460 -0.000 10.381 10.381 0.000
H15MET 2016-09-24 08:00:00 10529 208 900.0 2016.0 268.00 800.0 7.3800 7.2500 100.000 100.000 7.3800 7.2500 0.00000 0.00000 0.00 0.000 10.282 10.282 0.000 10.191 10.191 0.000
H15MET 2016-09-24 07:45:00 10528 208 900.0 2016.0 268.00 745.0 7.2700 7.1100 100.000 100.000 7.2700 7.1100 0.00000 0.00000 0.00 0.000 10.205 10.205 0.000 10.094 10.094 0.000
H15MET 2016-09-24 07:30:00 10527 208 900.0 2016.0 268.00 730.0 6.9290 6.7510 100.000 100.000 6.9290 6.7510 0.00000 0.00000 0.00 0.000 9.969 9.969 0.000 9.848 9.848 0.000
H15MET 2016-09-24 07:15:00 10526 208 900.0 2016.0 268.00 715.0 6.5550 6.4580 100.000 100.000 6.5550 6.4580 0.00000 0.00000 0.00 0.000 9.716 9.716 0.000 9.651 9.651 0.000
H15MET 2016-09-24 07:00:00 10525 208 900.0 2016.0 268.00 700.0 6.4980 6.3950 100.000 100.000 6.4980 6.3950 0.00000 0.00000 0.00 0.000 9.678 9.678 0.000 9.609 9.609 0.000
H15MET 2016-09-24 06:45:00 10524 208 900.0 2016.0 268.00 645.0 6.6080 6.4710 100.000 100.000 6.6080 6.4710 0.00000 0.00000 0.00 0.000 9.752 9.752 0.000 9.660 9.660 0.000
H15MET 2016-09-24 06:30:00 10523 208 900.0 2016.0 268.00 630.0 6.7090 6.6020 100.000 100.000 6.7080 6.6020 0.00000 0.00000 0.00 0.000 9.820 9.819 0.000 9.747 9.747 0.000
H15MET 2016-09-24 06:15:00 10522 208 900.0 2016.0 268.00 615.0 6.8170 6.7260 100.000 100.000 6.8170 6.7260 0.00000 0.00000 0.00 0.000 9.893 9.893 0.000 9.831 9.831 0.000
H15MET 2016-09-24 06:00:00 10521 208 900.0 2016.0 268.00 600.0 6.8050 6.6690 100.000 100.000 6.8050 6.6690 0.00000 0.00000 0.00 0.000 9.885 9.885 0.000 9.793 9.793 0.000
H15MET 2016-09-24 05:45:00 10520 208 900.0 2016.0 268.00 545.0 6.7340 6.5840 100.000 100.000 6.7340 6.5840 0.00000 0.00000 0.00 0.000 9.836 9.836 0.000 9.735 9.735 0.000
H15MET 2016-09-24 05:30:00 10519 208 900.0 2016.0 268.00 530.0 6.7270 6.5700 100.000 100.000 6.7270 6.5700 0.00000 0.00000 0.00 0.000 9.832 9.832 0.000 9.726 9.726 0.000
H15MET 2016-09-24 05:15:00 10518 208 900.0 2016.0 268.00 515.0 6.6420 6.4940 100.000 100.000 6.6420 6.4940 0.00000 0.00000 0.00 0.000 9.774 9.774 0.000 9.675 9.675 0.000
H15MET 2016-09-24 05:00:00 10517 208 900.0 2016.0 268.00 500.0 6.5410 6.3740 100.000 100.000 6.5410 6.3730 0.00000 0.00000 0.00 0.000 9.707 9.707 0.000 9.595 9.595 0.000
H15MET 2016-09-24 04:45:00 10516 208 900.0 2016.0 268.00 445.0 6.5870 6.4380 100.000 100.000 6.5870 6.4380 0.00000 0.00000 0.00 0.000 9.737 9.737 0.000 9.638 9.638 0.000
H15MET 2016-09-24 04:30:00 10515 208 900.0 2016.0 268.00 430.0 6.7560 6.5960 100.000 100.000 6.7560 6.5960 0.00000 0.00000 0.00 0.000 9.851 9.851 0.000 9.743 9.743 0.000
H15MET 2016-09-24 04:15:00 10514 208 900.0 2016.0 268.00 415.0 6.9200 6.7500 100.000 100.000 6.9200 6.7500 0.00000 0.00000 0.00 0.000 9.963 9.963 0.000 9.847 9.847 0.000
H15MET 2016-09-24 04:00:00 10513 208 900.0 2016.0 268.00 400.0 7.2400 7.0400 100.000 100.000 7.2400 7.0400 0.00000 0.00000 0.00 0.000 10.184 10.184 0.000 10.046 10.046 0.000
H15MET 2016-09-24 03:45:00 10512 208 900.0 2016.0 268.00 345.0 7.4900 7.2700 100.000 100.000 7.4900 7.2700 0.00000 0.00000 0.00 0.000 10.360 10.360 0.000 10.205 10.205 0.000
H15MET 2016-09-24 03:30:00 10511 208 900.0 2016.0 268.00 330.0 7.8000 7.6200 100.000 100.000 7.8000 7.6200 0.00000 0.00000 0.00 0.000 10.582 10.582 0.000 10.453 10.453 0.000
H15MET 2016-09-24 03:15:00 10510 208 900.0 2016.0 268.00 315.0 7.9400 7.7900 100.000 100.000 7.9400 7.7900 0.00000 0.00000 0.00 0.000 10.683 10.683 0.000 10.575 10.575 0.000
H15MET 2016-09-24 03:00:00 10509 208 900.0 2016.0 268.00 300.0 8.1100 7.9200 100.000 100.000 8.1100 7.9200 0.00000 0.00000 0.00 0.000 10.808 10.808 0.000 10.669 10.669 0.000
H15MET 2016-09-24 02:45:00 10508 208 900.0 2016.0 268.00 245.0 8.3300 8.1700 100.000 100.000 8.3300 8.1700 0.00000 0.00000 0.00 0.000 10.970 10.970 0.000 10.852 10.852 0.000
H15MET 2016-09-24 02:30:00 10507 208 900.0 2016.0 268.00 230.0 8.4800 8.2900 100.000 100.000 8.4800 8.2900 0.00000 0.00000 0.00 0.000 11.083 11.083 0.000 10.941 10.941 0.000
H15MET 2016-09-24 02:15:00 10506 208 900.0 2016.0 268.00 215.0 8.5100 8.3500 100.000 100.000 8.5100 8.3500 0.00000 0.00000 0.00 0.000 11.105 11.105 0.000 10.985 10.985 -0.000
H15MET 2016-09-24 02:00:00 10505 208 900.0 2016.0 268.00 200.0 8.5500 8.3900 100.000 100.000 8.5500 8.3900 0.00000 0.00000 0.00 0.000 11.135 11.135 -0.000 11.015 11.015 -0.000
H15MET 2016-09-24 01:45:00 10504 208 900.0 2016.0 268.00 145.0 8.5700 8.4400 100.000 100.000 8.5700 8.4400 0.00000 0.00000 0.00 0.000 11.151 11.151 0.000 11.053 11.053 0.000
H15MET 2016-09-24 01:30:00 10503 208 900.0 2016.0 268.00 130.0 8.7700 8.6200 100.000 100.000 8.7700 8.6200 0.00000 0.00000 0.00 0.000 11.303 11.303 0.000 11.188 11.188 0.000
H15MET 2016-09-24 01:15:00 10502 208 900.0 2016.0 268.00 115.0 9.0100 8.8400 100.000 100.000 9.0100 8.8400 0.00000 0.00000 0.00 0.000 11.488 11.488 -0.000 11.356 11.356 0.000
H15MET 2016-09-24 01:00:00 10501 208 900.0 2016.0 268.00 100.0 9.0400 8.8600 100.000 100.000 9.0400 8.8600 0.00000 0.00000 0.00 0.000 11.511 11.511 -0.000 11.372 11.372 0.000
H15MET 2016-09-24 00:45:00 10500 208 900.0 2016.0 268.00 45.0 9.0500 8.8800 100.000 100.000 9.0500 8.8800 0.00000 0.00000 0.00 0.000 11.519 11.519 0.000 11.387 11.387 0.000
H15MET 2016-09-24 00:30:00 10499 208 900.0 2016.0 268.00 30.0 9.0900 8.9100 100.000 100.000 9.0900 8.9100 0.00000 0.00000 0.00 0.000 11.550 11.550 0.000 11.410 11.410 0.000
H15MET 2016-09-24 00:15:00 10498 208 900.0 2016.0 268.00 15.0 9.1000 8.9200 100.000 100.000 9.1000 8.9200 0.00000 0.00000 0.00 0.000 11.558 11.558 0.000 11.418 11.418 0.000
H15MET 2016-09-24 00:00:00 10497 208 900.0 2016.0 267.00 2400.0 9.1400 8.9600 100.000 100.000 9.1400 8.9600 0.00000 0.00000 0.00 0.000 11.589 11.589 0.000 11.449 11.449 0.000
H15MET 2016-09-23 23:45:00 10496 208 900.0 2016.0 267.00 2345.0 9.1400 8.9600 100.000 100.000 9.1400 8.9600 0.00000 0.00000 0.00 0.000 11.589 11.589 0.000 11.449 11.449 0.000
H15MET 2016-09-23 23:30:00 10495 208 900.0 2016.0 267.00 2330.0 9.1100 8.9500 100.000 100.000 9.1100 8.9500 0.00000 0.00000 0.00 0.000 11.565 11.565 0.000 11.441 11.441 0.000
H15MET 2016-09-23 23:15:00 10494 208 900.0 2016.0 267.00 2315.0 9.0900 8.9100 100.000 100.000 9.0900 8.9100 0.00000 0.00000 0.00 0.000 11.550 11.550 0.000 11.410 11.410 0.000
H15MET 2016-09-23 23:00:00 10493 208 900.0 2016.0 267.00 2300.0 9.0600 8.8700 100.000 100.000 9.0600 8.8700 0.00000 0.00000 0.00 0.000 11.526 11.526 0.000 11.379 11.379 -0.000
H15MET 2016-09-23 22:45:00 10492 208 900.0 2016.0 267.00 2245.0 9.0400 8.8700 100.000 100.000 9.0400 8.8700 0.00000 0.00000 0.00 0.000 11.511 11.511 -0.000 11.379 11.379 -0.000
H15MET 2016-09-23 22:30:00 10491 208 900.0 2016.0 267.00 2230.0 9.0200 8.8400 100.000 100.000 9.0200 8.8400 0.00000 0.00000 0.00 0.000 11.495 11.495 0.000 11.356 11.356 0.000
H15MET 2016-09-23 22:15:00 10490 208 900.0 2016.0 267.00 2215.0 8.9900 8.8300 100.000 100.000 8.9900 8.8300 0.00000 0.00000 0.00 0.000 11.472 11.472 0.000 11.349 11.349 0.000
H15MET 2016-09-23 22:00:00 10489 208 900.0 2016.0 267.00 2200.0 8.9800 8.7900 100.000 100.000 8.9800 8.7900 0.00000 0.00000 0.00 0.000 11.464 11.464 0.000 11.318 11.318 0.000
H15MET 2016-09-23 21:45:00 10488 208 900.0 2016.0 267.00 2145.0 8.9600 8.7800 100.000 100.000 8.9600 8.7800 0.00000 0.00000 0.00 0.000 11.449 11.449 0.000 11.310 11.310 0.000
H15MET 2016-09-23 21:30:00 10487 208 900.0 2016.0 267.00 2130.0 8.9300 8.7400 100.000 100.000 8.9300 8.7400 0.00000 0.00000 0.00 0.000 11.426 11.426 0.000 11.280 11.280 0.000
H15MET 2016-09-23 21:15:00 10486 208 900.0 2016.0 267.00 2115.0 8.9100 8.7200 100.000 100.000 8.9100 8.7200 0.00000 0.00000 0.00 0.000 11.410 11.410 0.000 11.264 11.264 0.000
H15MET 2016-09-23 21:00:00 10485 208 900.0 2016.0 267.00 2100.0 8.8900 8.7200 100.000 100.000 8.8900 8.7200 0.00000 0.00000 0.00 0.000 11.395 11.395 0.000 11.264 11.264 0.000
H15MET 2016-09-23 20:45:00 10484 208 900.0 2016.0 267.00 2045.0 8.8700 8.6900 100.000 100.000 8.8700 8.6900 0.00000 0.00000 0.00 0.000 11.379 11.379 -0.000 11.242 11.242 0.000
H15MET 2016-09-23 20:30:00 10483 208 900.0 2016.0 267.00 2030.0 8.8400 8.6700 100.000 100.000 8.8400 8.6700 0.00000 0.00000 0.00 0.000 11.356 11.356 0.000 11.226 11.226 0.000
H15MET 2016-09-23 20:15:00 10482 208 900.0 2016.0 267.00 2015.0 8.8500 8.6900 100.000 100.000 8.8500 8.6900 0.00000 0.00000 0.00 0.000 11.364 11.364 0.000 11.242 11.242 0.000
H15MET 2016-09-23 20:00:00 10481 208 900.0 2016.0 267.00 2000.0 8.8200 8.6500 100.000 100.000 8.8100 8.6500 0.00000 0.00000 0.00 0.000 11.341 11.333 0.000 11.211 11.211 0.000
H15MET 2016-09-23 19:45:00 10480 208 900.0 2016.0 267.00 1945.0 8.7200 8.5400 100.000 100.000 8.7200 8.5400 0.00000 0.00000 0.00 0.000 11.264 11.264 0.000 11.128 11.128 0.000
H15MET 2016-09-23 19:30:00 10479 208 900.0 2016.0 267.00 1930.0 8.5900 8.4000 100.000 100.000 8.5900 8.4000 0.00000 0.00000 0.00 0.000 11.166 11.166 0.000 11.023 11.023 0.000
H15MET 2016-09-23 19:15:00 10478 208 900.0 2016.0 267.00 1915.0 8.5400 8.3800 100.000 100.000 8.5400 8.3800 0.00000 0.00000 0.00 0.000 11.128 11.128 0.000 11.008 11.008 0.000
H15MET 2016-09-23 19:00:00 10477 208 900.0 2016.0 267.00 1900.0 8.6800 8.5200 100.000 100.000 8.6800 8.5200 0.00000 0.00000 0.00 0.000 11.234 11.234 0.000 11.113 11.113 0.000
H15MET 2016-09-23 18:45:00 10476 208 900.0 2016.0 267.00 1845.0 8.7100 8.5500 100.000 100.000 8.7100 8.5500 0.00000 0.00000 0.00 0.000 11.257 11.257 0.000 11.135 11.135 -0.000
H15MET 2016-09-23 18:30:00 10475 208 900.0 2016.0 267.00 1830.0 8.7200 8.5400 100.000 100.000 8.7200 8.5400 0.00000 0.00000 0.00 0.000 11.264 11.264 0.000 11.128 11.128 0.000
H15MET 2016-09-23 18:15:00 10474 208 900.0 2016.0 267.00 1815.0 8.7900 8.6100 100.000 100.000 8.7900 8.6100 0.00000 0.00000 0.00 0.000 11.318 11.318 0.000 11.181 11.181 0.000
H15MET 2016-09-23 18:00:00 10473 208 900.0 2016.0 267.00 1800.0 8.8200 8.6300 100.000 100.000 8.8200 8.6300 0.00000 0.00000 0.00 0.000 11.341 11.341 0.000 11.196 11.196 0.000
H15MET 2016-09-23 17:45:00 10472 208 900.0 2016.0 267.00 1745.0 8.8200 8.6200 100.000 100.000 8.8200 8.6200 0.00000 0.00000 0.00 0.000 11.341 11.341 0.000 11.188 11.188 0.000
H15MET 2016-09-23 17:30:00 10471 208 900.0 2016.0 267.00 1730.0 8.7500 8.5600 100.000 100.000 8.7500 8.5600 0.00000 0.00000 0.00 0.000 11.287 11.287 0.000 11.143 11.143 0.000
H15MET 2016-09-23 17:15:00 10470 208 900.0 2016.0 267.00 1715.0 8.5800 8.3900 100.000 100.000 8.5800 8.3900 0.00000 0.00000 0.00 0.000 11.158 11.158 0.000 11.015 11.015 -0.000
H15MET 2016-09-23 17:00:00 10469 208 900.0 2016.0 267.00 1700.0 8.4700 8.2400 100.000 100.000 8.4700 8.2400 0.00000 0.00000 0.00 0.000 11.075 11.075 0.000 10.904 10.904 0.000
H15MET 2016-09-23 16:45:00 10468 208 900.0 2016.0 267.00 1645.0 8.3900 8.1700 100.000 100.000 8.3900 8.1700 0.00000 0.00000 0.00 0.000 11.015 11.015 -0.000 10.852 10.852 0.000
H15MET 2016-09-23 16:30:00 10467 208 900.0 2016.0 267.00 1630.0 8.3000 8.1000 100.000 100.000 8.3000 8.1000 0.00000 0.00000 0.00 0.000 10.948 10.948 0.000 10.800 10.800 0.000
H15MET 2016-09-23 16:15:00 10466 208 900.0 2016.0 267.00 1615.0 8.2600 8.0800 100.000 100.000 8.2600 8.0800 0.00000 0.00000 0.00 0.000 10.918 10.918 0.000 10.786 10.786 0.000
H15MET 2016-09-23 16:00:00 10465 208 900.0 2016.0 267.00 1600.0 8.0900 7.8500 100.000 100.000 8.0900 7.8500 0.00000 0.00000 0.00 0.000 10.793 10.793 0.000 10.618 10.618 0.000
H15MET 2016-09-23 15:45:00 10464 208 900.0 2016.0 267.00 1545.0 7.9100 7.6700 100.000 100.000 7.9100 7.6700 0.02000 0.02000 47.39 0.011 10.661 10.661 0.000 10.488 10.488 0.000
H15MET 2016-09-23 15:30:00 10463 208 900.0 2016.0 267.00 1530.0 7.8300 7.5700 100.000 100.000 7.8300 7.5700 0.00100 0.00100 47.34 0.000 10.603 10.603 0.000 10.417 10.417 0.000
H15MET 2016-09-23 15:15:00 10462 208 900.0 2016.0 267.00 1515.0 7.7700 7.5100 100.000 100.000 7.7700 7.5100 0.00000 0.00000 0.00 0.000 10.560 10.560 0.000 10.374 10.374 0.000
H15MET 2016-09-23 15:00:00 10461 208 900.0 2016.0 267.00 1500.0 7.7500 7.4900 100.000 100.000 7.7500 7.4900 0.00000 0.00000 0.00 0.000 10.546 10.546 0.000 10.360 10.360 0.000
H15MET 2016-09-23 14:45:00 10460 208 900.0 2016.0 267.00 1445.0 7.7100 7.4400 100.000 100.000 7.7100 7.4400 0.00000 0.00000 0.00 0.000 10.517 10.517 0.000 10.325 10.325 -0.000
H15MET 2016-09-23 14:30:00 10459 208 900.0 2016.0 267.00 1430.0 7.6500 7.3600 100.000 100.000 7.6500 7.3600 0.00000 0.00000 0.00 0.000 10.474 10.474 0.000 10.268 10.268 0.000
H15MET 2016-09-23 14:15:00 10458 208 900.0 2016.0 267.00 1415.0 7.6200 7.3300 100.000 100.000 7.6200 7.3300 0.00000 0.00000 0.00 0.000 10.453 10.453 0.000 10.247 10.247 0.000
H15MET 2016-09-23 14:00:00 10457 208 900.0 2016.0 267.00 1400.0 7.5900 7.3000 99.900 100.000 7.5800 7.3000 0.00000 0.00000 0.00 0.000 10.431 10.424 0.010 10.226 10.226 0.000
H15MET 2016-09-23 13:45:00 10456 208 900.0 2016.0 267.00 1345.0 7.5400 7.2500 99.800 100.000 7.5200 7.2500 0.00000 0.00000 0.00 0.000 10.396 10.381 0.021 10.191 10.191 0.000
H15MET 2016-09-23 13:30:00 10455 208 900.0 2016.0 267.00 1330.0 7.4700 7.1900 99.800 100.000 7.4400 7.1900 0.00000 0.00000 0.00 0.000 10.346 10.325 0.021 10.149 10.149 0.000
H15MET 2016-09-23 13:15:00 10454 208 900.0 2016.0 267.00 1315.0 7.3200 6.9660 99.700 100.000 7.2700 6.9660 0.00000 0.00000 0.00 0.000 10.240 10.205 0.031 9.995 9.995 0.000
H15MET 2016-09-23 13:00:00 10453 208 900.0 2016.0 267.00 1300.0 7.1900 6.8750 99.500 100.000 7.1200 6.8750 0.00000 0.00000 0.00 0.000 10.149 10.101 0.051 9.932 9.932 0.000
H15MET 2016-09-23 12:45:00 10452 208 900.0 2016.0 267.00 1245.0 7.2000 6.8280 99.400 100.000 7.1200 6.8280 0.00000 0.00000 0.00 0.000 10.156 10.101 0.061 9.900 9.900 0.000
H15MET 2016-09-23 12:30:00 10451 208 900.0 2016.0 267.00 1230.0 7.2400 6.8970 99.400 100.000 7.1600 6.8960 0.00000 0.00000 0.00 0.000 10.184 10.129 0.061 9.947 9.947 0.000
H15MET 2016-09-23 12:15:00 10450 208 900.0 2016.0 267.00 1215.0 7.1800 6.9260 99.700 100.000 7.1400 6.9260 0.00000 0.00000 0.00 0.000 10.142 10.115 0.030 9.967 9.967 0.000
H15MET 2016-09-23 12:00:00 10449 208 900.0 2016.0 267.00 1200.0 7.0400 6.7740 99.800 100.000 7.0100 6.7740 0.00000 0.00000 0.00 0.000 10.046 10.025 0.020 9.864 9.864 0.000
H15MET 2016-09-23 11:45:00 10448 208 900.0 2016.0 267.00 1145.0 7.0000 6.6770 99.900 100.000 6.9850 6.6770 0.00000 0.00000 0.00 0.000 10.018 10.008 0.010 9.798 9.798 0.000
H15MET 2016-09-23 11:30:00 10447 208 900.0 2016.0 267.00 1130.0 6.7820 6.4770 99.700 100.000 6.7380 6.4770 0.00000 0.00000 0.00 0.000 9.869 9.839 0.030 9.664 9.664 0.000
H15MET 2016-09-23 11:15:00 10446 208 900.0 2016.0 267.00 1115.0 6.6080 6.2400 99.400 100.000 6.5250 6.2400 0.00000 0.00000 0.00 0.000 9.752 9.696 0.059 9.507 9.507 0.000
H15MET 2016-09-23 11:00:00 10445 208 900.0 2016.0 267.00 1100.0 6.6190 6.2080 99.200 100.000 6.5090 6.2080 0.04200 0.04100 89.40 5.469 9.759 9.685 0.078 9.486 9.486 0.000
H15MET 2016-09-23 10:45:00 10444 208 900.0 2016.0 267.00 1045.0 6.7930 6.3590 99.500 100.000 6.7230 6.3590 0.13100 0.12000 68.41 7.370 9.876 9.829 0.049 9.586 9.586 0.000
H15MET 2016-09-23 10:30:00 10443 208 900.0 2016.0 267.00 1030.0 6.9230 6.5830 100.000 100.000 6.9230 6.5830 0.06000 0.05500 17.63 7.930 9.965 9.965 0.000 9.735 9.735 0.000
H15MET 2016-09-23 10:15:00 10442 208 900.0 2016.0 267.00 1015.0 7.0200 6.6960 100.000 100.000 7.0200 6.6960 0.00000 0.00000 0.00 0.000 10.032 10.032 0.000 9.811 9.811 0.000
H15MET 2016-09-23 10:00:00 10441 208 900.0 2016.0 267.00 1000.0 7.2800 6.9360 100.000 100.000 7.2800 6.9360 0.01400 0.01400 126.50 0.011 10.212 10.212 0.000 9.974 9.974 0.000
H15MET 2016-09-23 09:45:00 10440 208 900.0 2016.0 267.00 945.0 7.2900 6.9580 100.000 100.000 7.2900 6.9580 0.00000 0.00000 0.00 0.000 10.219 10.219 0.000 9.989 9.989 0.000
H15MET 2016-09-23 09:30:00 10439 208 900.0 2016.0 267.00 930.0 7.3100 6.9990 100.000 100.000 7.3100 6.9990 0.04000 0.04000 139.80 2.042 10.233 10.233 0.000 10.017 10.017 0.000
H15MET 2016-09-23 09:15:00 10438 208 900.0 2016.0 267.00 915.0 7.1400 6.8970 100.000 100.000 7.1400 6.8970 0.00000 0.00000 0.00 0.000 10.115 10.115 0.000 9.947 9.947 0.000
H15MET 2016-09-23 09:00:00 10437 208 900.0 2016.0 267.00 900.0 7.3800 7.0200 100.000 100.000 7.3800 7.0200 0.00000 0.00000 0.00 0.000 10.282 10.282 0.000 10.032 10.032 0.000
H15MET 2016-09-23 08:45:00 10436 208 900.0 2016.0 267.00 845.0 7.1600 6.8750 100.000 100.000 7.1600 6.8750 0.00000 0.00000 0.00 0.000 10.129 10.129 0.000 9.932 9.932 0.000
H15MET 2016-09-23 08:30:00 10435 208 900.0 2016.0 267.00 830.0 6.9560 6.6860 100.000 100.000 6.9560 6.6860 0.00000 0.00000 0.00 0.000 9.988 9.988 0.000 9.804 9.804 0.000
H15MET 2016-09-23 08:15:00 10434 208 900.0 2016.0 267.00 815.0 6.8060 6.5110 100.000 100.000 6.8060 6.5110 0.00000 0.00000 0.00 0.000 9.885 9.885 0.000 9.687 9.687 0.000
H15MET 2016-09-23 08:00:00 10433 208 900.0 2016.0 267.00 800.0 6.6970 6.4750 100.000 100.000 6.6970 6.4750 0.00000 0.00000 0.00 0.000 9.811 9.811 0.000 9.663 9.663 0.000
H15MET 2016-09-23 07:45:00 10432 208 900.0 2016.0 267.00 745.0 6.5460 6.2950 100.000 100.000 6.5460 6.2950 0.00000 0.00000 0.00 0.000 9.710 9.710 0.000 9.543 9.543 0.000
H15MET 2016-09-23 07:30:00 10431 208 900.0 2016.0 267.00 730.0 6.5190 6.2720 100.000 100.000 6.5190 6.2710 0.00000 0.00000 0.00 0.000 9.692 9.692 0.000 9.528 9.527 0.000
H15MET 2016-09-23 07:15:00 10430 208 900.0 2016.0 267.00 715.0 6.3930 6.1180 100.000 100.000 6.3930 6.1170 0.00000 0.00000 0.00 0.000 9.608 9.608 0.000 9.427 9.427 0.000
H15MET 2016-09-23 07:00:00 10429 208 900.0 2016.0 267.00 700.0 6.2090 5.9590 100.000 100.000 6.2090 5.9590 0.01800 0.01800 125.40 0.047 9.487 9.487 0.000 9.324 9.324 0.000
H15MET 2016-09-23 06:45:00 10428 208 900.0 2016.0 267.00 645.0 6.0610 5.8470 100.000 100.000 6.0610 5.8470 0.00000 0.00000 0.00 0.000 9.390 9.390 0.000 9.252 9.252 0.000
H15MET 2016-09-23 06:30:00 10427 208 900.0 2016.0 267.00 630.0 5.9570 5.7680 100.000 100.000 5.9570 5.7680 0.00000 0.00000 0.00 0.000 9.323 9.323 0.000 9.201 9.201 0.000
H15MET 2016-09-23 06:15:00 10426 208 900.0 2016.0 267.00 615.0 5.8970 5.7140 100.000 100.000 5.8970 5.7140 0.00000 0.00000 0.00 0.000 9.284 9.284 0.000 9.167 9.167 0.000
H15MET 2016-09-23 06:00:00 10425 208 900.0 2016.0 267.00 600.0 5.9410 5.7120 100.000 100.000 5.9410 5.7120 0.00000 0.00000 0.00 0.000 9.312 9.312 0.000 9.166 9.166 0.000
H15MET 2016-09-23 05:45:00 10424 208 900.0 2016.0 267.00 545.0 6.0110 5.8220 100.000 100.000 6.0110 5.8220 0.00000 0.00000 0.00 0.000 9.358 9.358 0.000 9.236 9.236 0.000
H15MET 2016-09-23 05:30:00 10423 208 900.0 2016.0 267.00 530.0 6.0550 5.8710 100.000 100.000 6.0550 5.8710 0.00900 0.00900 281.90 0.025 9.386 9.386 0.000 9.267 9.267 0.000
H15MET 2016-09-23 05:15:00 10422 208 900.0 2016.0 267.00 515.0 6.0900 5.9250 100.000 100.000 6.0900 5.9250 0.00000 0.00000 0.00 0.000 9.409 9.409 0.000 9.302 9.302 0.000
H15MET 2016-09-23 05:00:00 10421 208 900.0 2016.0 267.00 500.0 6.0980 5.9200 100.000 100.000 6.0980 5.9200 0.00800 0.00800 280.80 0.009 9.414 9.414 0.000 9.299 9.299 0.000
H15MET 2016-09-23 04:45:00 10420 208 900.0 2016.0 267.00 445.0 5.9730 5.8170 100.000 100.000 5.9730 5.8170 0.00000 0.00000 0.00 0.000 9.333 9.333 0.000 9.233 9.233 0.000
H15MET 2016-09-23 04:30:00 10419 208 900.0 2016.0 267.00 430.0 5.8290 5.6910 100.000 100.000 5.8290 5.6910 0.00000 0.00000 0.00 0.000 9.240 9.240 0.000 9.152 9.152 0.000
H15MET 2016-09-23 04:15:00 10418 208 900.0 2016.0 267.00 415.0 5.8150 5.6890 100.000 100.000 5.8150 5.6890 0.00000 0.00000 0.00 0.000 9.231 9.231 0.000 9.151 9.151 0.000
H15MET 2016-09-23 04:00:00 10417 208 900.0 2016.0 267.00 400.0 6.0170 5.8790 100.000 100.000 6.0170 5.8790 0.00000 0.00000 0.00 0.000 9.362 9.362 0.000 9.273 9.273 0.000
H15MET 2016-09-23 03:45:00 10416 208 900.0 2016.0 267.00 345.0 6.2330 6.0940 100.000 100.000 6.2330 6.0940 0.04000 0.04000 292.00 0.084 9.502 9.502 0.000 9.412 9.412 0.000
H15MET 2016-09-23 03:30:00 10415 208 900.0 2016.0 267.00 330.0 6.2970 6.1260 100.000 100.000 6.2970 6.1260 0.00000 0.00000 0.00 0.000 9.545 9.545 0.000 9.432 9.432 0.000
H15MET 2016-09-23 03:15:00 10414 208 900.0 2016.0 267.00 315.0 6.3970 6.2590 100.000 100.000 6.3970 6.2590 0.00000 0.00000 0.00 0.000 9.611 9.611 0.000 9.520 9.520 0.000
H15MET 2016-09-23 03:00:00 10413 208 900.0 2016.0 267.00 300.0 6.6280 6.5660 100.000 100.000 6.6280 6.5660 0.02700 0.02700 291.60 0.914 9.765 9.765 0.000 9.723 9.723 0.000
H15MET 2016-09-23 02:45:00 10412 208 900.0 2016.0 267.00 245.0 6.7710 6.6550 100.000 100.000 6.7710 6.6550 0.00000 0.00000 0.00 0.000 9.862 9.862 0.000 9.783 9.783 0.000
H15MET 2016-09-23 02:30:00 10411 208 900.0 2016.0 267.00 230.0 6.7130 6.5130 100.000 100.000 6.7130 6.5130 0.01200 0.01000 299.00 9.160 9.822 9.822 0.000 9.688 9.688 0.000
H15MET 2016-09-23 02:15:00 10410 208 900.0 2016.0 267.00 215.0 6.8850 6.7260 100.000 100.000 6.8850 6.7260 0.02200 0.02200 115.20 0.029 9.939 9.939 0.000 9.831 9.831 0.000
H15MET 2016-09-23 02:00:00 10409 208 900.0 2016.0 267.00 200.0 6.8310 6.6670 100.000 100.000 6.8310 6.6670 0.00000 0.00000 0.00 0.000 9.902 9.902 0.000 9.791 9.791 0.000
H15MET 2016-09-23 01:45:00 10408 208 900.0 2016.0 267.00 145.0 6.6290 6.4550 100.000 100.000 6.6290 6.4550 0.00000 0.00000 0.00 0.000 9.766 9.766 0.000 9.649 9.649 0.000
H15MET 2016-09-23 01:30:00 10407 208 900.0 2016.0 267.00 130.0 6.6490 6.4680 100.000 100.000 6.6490 6.4680 0.05100 0.05100 115.20 0.280 9.779 9.779 0.000 9.658 9.658 0.000
H15MET 2016-09-23 01:15:00 10406 208 900.0 2016.0 267.00 115.0 6.5370 6.3570 100.000 100.000 6.5360 6.3570 0.00000 0.00000 0.00 0.000 9.704 9.703 0.000 9.584 9.584 0.000
H15MET 2016-09-23 01:00:00 10405 208 900.0 2016.0 267.00 100.0 6.4570 6.2560 100.000 100.000 6.4570 6.2560 0.02100 0.02100 113.80 0.022 9.651 9.651 0.000 9.518 9.518 0.000
H15MET 2016-09-23 00:45:00 10404 208 900.0 2016.0 267.00 45.0 6.3370 6.1460 100.000 100.000 6.3370 6.1460 0.00100 0.00100 292.40 0.011 9.571 9.571 0.000 9.445 9.445 0.000
H15MET 2016-09-23 00:30:00 10403 208 900.0 2016.0 267.00 30.0 6.2140 6.0570 100.000 100.000 6.2140 6.0570 0.03300 0.03300 295.00 0.030 9.490 9.490 0.000 9.388 9.388 0.000
H15MET 2016-09-23 00:15:00 10402 208 900.0 2016.0 267.00 15.0 6.2710 6.1560 100.000 100.000 6.2710 6.1560 0.00000 0.00000 0.00 0.000 9.527 9.527 0.000 9.452 9.452 0.000
H15MET 2016-09-23 00:00:00 10401 208 900.0 2016.0 266.00 2400.0 6.2440 6.0730 100.000 100.000 6.2440 6.0730 0.00000 0.00000 0.00 0.000 9.510 9.510 0.000 9.398 9.398 0.000
H15MET 2016-09-22 23:45:00 10400 208 900.0 2016.0 266.00 2345.0 6.0870 5.9430 100.000 100.000 6.0870 5.9430 0.00000 0.00000 0.00 0.000 9.407 9.407 0.000 9.314 9.314 0.000
H15MET 2016-09-22 23:30:00 10399 208 900.0 2016.0 266.00 2330.0 5.9240 5.7820 100.000 100.000 5.9240 5.7820 0.00000 0.00000 0.00 0.000 9.301 9.301 0.000 9.210 9.210 0.000
H15MET 2016-09-22 23:15:00 10398 208 900.0 2016.0 266.00 2315.0 5.8640 5.7220 100.000 100.000 5.8640 5.7220 0.00000 0.00000 0.00 0.000 9.263 9.263 0.000 9.172 9.172 0.000
H15MET 2016-09-22 23:00:00 10397 208 900.0 2016.0 266.00 2300.0 5.7220 5.6430 100.000 100.000 5.7220 5.6430 0.00000 0.00000 0.00 0.000 9.172 9.172 0.000 9.122 9.122 0.000
H15MET 2016-09-22 22:45:00 10396 208 900.0 2016.0 266.00 2245.0 5.4670 5.3920 100.000 100.000 5.4670 5.3920 0.00000 0.00000 0.00 0.000 9.011 9.011 0.000 8.964 8.964 0.000
H15MET 2016-09-22 22:30:00 10395 208 900.0 2016.0 266.00 2230.0 5.4670 5.3630 100.000 100.000 5.4670 5.3630 0.00000 0.00000 0.00 0.000 9.011 9.011 0.000 8.946 8.946 0.000
H15MET 2016-09-22 22:15:00 10394 208 900.0 2016.0 266.00 2215.0 5.6330 5.4840 100.000 100.000 5.6330 5.4840 0.00000 0.00000 0.00 0.000 9.116 9.116 0.000 9.022 9.022 0.000
H15MET 2016-09-22 22:00:00 10393 208 900.0 2016.0 266.00 2200.0 5.7960 5.6600 100.000 100.000 5.7960 5.6600 0.00000 0.00000 0.00 0.000 9.219 9.219 0.000 9.133 9.133 0.000
H15MET 2016-09-22 21:45:00 10392 208 900.0 2016.0 266.00 2145.0 5.8140 5.6670 100.000 100.000 5.8140 5.6670 0.00000 0.00000 0.00 0.000 9.231 9.231 0.000 9.137 9.137 0.000
H15MET 2016-09-22 21:30:00 10391 208 900.0 2016.0 266.00 2130.0 5.8090 5.6680 100.000 100.000 5.8090 5.6680 0.00000 0.00000 84.20 0.079 9.228 9.228 0.000 9.138 9.138 0.000
H15MET 2016-09-22 21:15:00 10390 208 900.0 2016.0 266.00 2115.0 5.9450 5.7980 100.000 100.000 5.9450 5.7980 0.01200 0.01200 83.90 0.000 9.315 9.315 0.000 9.221 9.221 0.000
H15MET 2016-09-22 21:00:00 10389 208 900.0 2016.0 266.00 2100.0 5.8680 5.7240 100.000 100.000 5.8680 5.7240 0.01100 0.01100 85.20 0.007 9.265 9.265 0.000 9.173 9.173 0.000
H15MET 2016-09-22 20:45:00 10388 208 900.0 2016.0 266.00 2045.0 5.9760 5.8680 100.000 100.000 5.9760 5.8680 0.00300 0.00300 88.90 0.011 9.335 9.335 0.000 9.265 9.265 0.000
H15MET 2016-09-22 20:30:00 10387 208 900.0 2016.0 266.00 2030.0 6.2140 6.0260 100.000 100.000 6.2140 6.0260 0.01900 0.01900 82.20 0.022 9.490 9.490 0.000 9.367 9.367 0.000
H15MET 2016-09-22 20:15:00 10386 208 900.0 2016.0 266.00 2015.0 6.2300 6.0530 100.000 100.000 6.2300 6.0530 0.00000 0.00000 0.00 0.000 9.500 9.500 0.000 9.385 9.385 0.000
H15MET 2016-09-22 20:00:00 10385 208 900.0 2016.0 266.00 2000.0 6.5020 6.2320 100.000 100.000 6.5010 6.2320 0.08300 0.08300 72.80 1.477 9.681 9.680 0.000 9.502 9.502 0.000
H15MET 2016-09-22 19:45:00 10384 208 900.0 2016.0 266.00 1945.0 6.6170 6.4340 100.000 100.000 6.6140 6.4340 0.02800 0.02800 68.65 1.409 9.758 9.756 0.000 9.635 9.635 0.000
H15MET 2016-09-22 19:30:00 10383 208 900.0 2016.0 266.00 1930.0 6.7430 6.5770 100.000 100.000 6.7390 6.5770 0.00000 0.00000 0.00 0.000 9.843 9.840 0.000 9.731 9.731 0.000
H15MET 2016-09-22 19:15:00 10382 208 900.0 2016.0 266.00 1915.0 6.9360 6.7950 100.000 100.000 6.9330 6.7950 0.00000 0.00000 0.00 0.000 9.974 9.972 0.000 9.878 9.878 0.000
H15MET 2016-09-22 19:00:00 10381 208 900.0 2016.0 266.00 1900.0 7.2000 7.0200 100.000 100.000 7.2000 7.0200 0.00000 0.00000 0.00 0.000 10.156 10.156 0.000 10.032 10.032 0.000
H15MET 2016-09-22 18:45:00 10380 208 900.0 2016.0 266.00 1845.0 7.4500 7.2800 100.000 100.000 7.4500 7.2800 0.07500 0.07500 343.30 0.058 10.332 10.332 0.000 10.212 10.212 0.000
H15MET 2016-09-22 18:30:00 10379 208 900.0 2016.0 266.00 1830.0 8.1000 7.9200 100.000 100.000 8.1000 7.9200 0.11300 0.11300 341.10 1.464 10.800 10.800 0.000 10.669 10.669 0.000
H15MET 2016-09-22 18:15:00 10378 208 900.0 2016.0 266.00 1815.0 8.2600 8.0300 100.000 100.000 8.2600 8.0300 0.00000 0.00000 0.00 0.000 10.918 10.918 0.000 10.749 10.749 0.000
H15MET 2016-09-22 18:00:00 10377 208 900.0 2016.0 266.00 1800.0 8.2000 7.9900 100.000 100.000 8.2000 7.9900 0.05400 0.05200 107.30 7.830 10.874 10.874 0.000 10.720 10.720 0.000
H15MET 2016-09-22 17:45:00 10376 208 900.0 2016.0 266.00 1745.0 8.1600 7.9700 100.000 100.000 8.1600 7.9700 0.11500 0.11400 128.80 2.573 10.844 10.844 0.000 10.705 10.705 0.000
H15MET 2016-09-22 17:30:00 10375 208 900.0 2016.0 266.00 1730.0 8.2100 8.0100 100.000 100.000 8.2100 8.0100 0.00000 0.00000 0.00 0.000 10.881 10.881 0.000 10.734 10.734 0.000
H15MET 2016-09-22 17:15:00 10374 208 900.0 2016.0 266.00 1715.0 8.2800 8.1000 100.000 100.000 8.2800 8.1000 0.00000 0.00000 0.00 0.000 10.933 10.933 0.000 10.800 10.800 0.000
H15MET 2016-09-22 17:00:00 10373 208 900.0 2016.0 266.00 1700.0 8.3000 8.0900 100.000 100.000 8.2900 8.0900 0.00000 0.00000 0.00 0.000 10.948 10.941 0.000 10.793 10.793 0.000
H15MET 2016-09-22 16:45:00 10372 208 900.0 2016.0 266.00 1645.0 8.3300 8.1400 100.000 100.000 8.3300 8.1400 0.00000 0.00000 0.00 0.000 10.970 10.970 0.000 10.830 10.830 0.000
H15MET 2016-09-22 16:30:00 10371 208 900.0 2016.0 266.00 1630.0 8.3000 8.1400 99.900 100.000 8.2800 8.1400 0.00000 0.00000 0.00 0.000 10.948 10.933 0.011 10.830 10.830 0.000
H15MET 2016-09-22 16:15:00 10370 208 900.0 2016.0 266.00 1615.0 8.5600 8.4200 99.900 100.000 8.5400 8.4200 0.02300 0.02300 354.60 0.000 11.143 11.128 0.011 11.038 11.038 0.000
H15MET 2016-09-22 16:00:00 10369 208 900.0 2016.0 266.00 1600.0 8.5100 8.3700 99.700 100.000 8.4700 8.3700 0.07800 0.07800 352.60 0.059 11.105 11.075 0.033 11.000 11.000 0.000
H15MET 2016-09-22 15:45:00 10368 208 900.0 2016.0 266.00 1545.0 8.7000 8.5400 99.700 100.000 8.6500 8.5400 0.00000 0.00000 0.00 0.000 11.249 11.211 0.034 11.128 11.128 0.000
H15MET 2016-09-22 15:30:00 10367 208 900.0 2016.0 266.00 1530.0 8.7900 8.6100 99.400 100.000 8.7000 8.6100 0.02300 0.02300 339.20 0.052 11.318 11.249 0.068 11.181 11.181 0.000
H15MET 2016-09-22 15:15:00 10366 208 900.0 2016.0 266.00 1515.0 9.0900 8.8700 99.500 100.000 9.0100 8.8700 0.00000 0.00000 349.00 0.004 11.550 11.488 0.058 11.379 11.379 -0.000
H15MET 2016-09-22 15:00:00 10365 208 900.0 2016.0 266.00 1500.0 9.1200 8.8800 99.500 100.000 9.0400 8.8800 0.00000 0.00000 0.00 0.000 11.573 11.511 0.058 11.387 11.387 0.000
H15MET 2016-09-22 14:45:00 10364 208 900.0 2016.0 266.00 1445.0 9.0500 8.7700 99.400 100.000 8.9700 8.7700 0.00000 0.00000 0.00 0.000 11.519 11.457 0.069 11.303 11.303 0.000
H15MET 2016-09-22 14:30:00 10363 208 900.0 2016.0 266.00 1430.0 8.9600 8.6800 99.300 100.000 8.8500 8.6800 0.02700 0.02700 354.60 0.000 11.449 11.364 0.080 11.234 11.234 0.000
H15MET 2016-09-22 14:15:00 10362 208 900.0 2016.0 266.00 1415.0 9.0500 8.6900 99.900 100.000 9.0300 8.6900 0.01900 0.01900 323.60 2.036 11.519 11.503 0.012 11.242 11.242 0.000
H15MET 2016-09-22 14:00:00 10361 208 900.0 2016.0 266.00 1400.0 8.7000 8.4000 99.800 100.000 8.6700 8.4000 0.07700 0.07700 60.83 0.053 11.249 11.226 0.022 11.023 11.023 0.000
H15MET 2016-09-22 13:45:00 10360 208 900.0 2016.0 266.00 1345.0 8.6000 8.3000 99.900 100.000 8.5800 8.3000 0.01700 0.01700 57.65 0.707 11.173 11.158 0.011 10.948 10.948 0.000
H15MET 2016-09-22 13:30:00 10359 208 900.0 2016.0 266.00 1330.0 8.6400 8.2900 100.000 100.000 8.6400 8.2900 0.03400 0.03400 45.08 1.544 11.204 11.204 0.000 10.941 10.941 0.000
H15MET 2016-09-22 13:15:00 10358 208 900.0 2016.0 266.00 1315.0 8.5600 8.2200 100.000 100.000 8.5600 8.2200 0.02000 0.01800 332.20 6.559 11.143 11.143 0.000 10.889 10.889 0.000
H15MET 2016-09-22 13:00:00 10357 208 900.0 2016.0 266.00 1300.0 8.4100 8.1200 100.000 100.000 8.4100 8.1200 0.08600 0.08400 278.70 4.548 11.030 11.030 0.000 10.815 10.815 0.000
H15MET 2016-09-22 12:45:00 10356 208 900.0 2016.0 266.00 1245.0 8.2600 7.9600 100.000 100.000 8.2600 7.9600 0.03800 0.03500 315.20 7.290 10.918 10.918 0.000 10.698 10.698 -0.000
H15MET 2016-09-22 12:30:00 10355 208 900.0 2016.0 266.00 1230.0 8.1100 7.8000 100.000 100.000 8.1100 7.8000 0.03200 0.01500 20.50 1.719 10.808 10.808 0.000 10.582 10.582 0.000
H15MET 2016-09-22 12:15:00 10354 208 900.0 2016.0 266.00 1215.0 7.9100 7.6100 100.000 100.000 7.9100 7.6100 0.00000 0.00000 0.00 0.000 10.661 10.661 0.000 10.445 10.445 0.000
H15MET 2016-09-22 12:00:00 10353 208 900.0 2016.0 266.00 1200.0 7.9600 7.6100 100.000 100.000 7.9600 7.6100 0.05100 0.05100 124.20 0.080 10.698 10.698 -0.000 10.445 10.445 0.000
H15MET 2016-09-22 11:45:00 10352 208 900.0 2016.0 266.00 1145.0 7.9800 7.6900 100.000 100.000 7.9800 7.6900 0.08900 0.08200 107.80 2.826 10.712 10.712 0.000 10.503 10.503 0.000
H15MET 2016-09-22 11:30:00 10351 208 900.0 2016.0 266.00 1130.0 8.1500 7.8300 100.000 100.000 8.1500 7.8300 0.01200 0.00300 41.61 0.434 10.837 10.837 -0.000 10.603 10.603 0.000
H15MET 2016-09-22 11:15:00 10350 208 900.0 2016.0 266.00 1115.0 8.2300 7.8800 100.000 100.000 8.2300 7.8800 0.00000 0.00000 0.00 0.000 10.896 10.896 0.000 10.640 10.640 -0.000
H15MET 2016-09-22 11:00:00 10349 208 900.0 2016.0 266.00 1100.0 8.3200 7.9000 100.000 100.000 8.3200 7.9000 0.00200 0.00200 100.90 0.072 10.963 10.963 0.000 10.654 10.654 0.000
H15MET 2016-09-22 10:45:00 10348 208 900.0 2016.0 266.00 1045.0 7.9400 7.5200 100.000 100.000 7.9400 7.5200 0.02300 0.02300 119.10 0.014 10.683 10.683 0.000 10.381 10.381 0.000
H15MET 2016-09-22 10:30:00 10347 208 900.0 2016.0 266.00 1030.0 7.4900 7.1800 100.000 100.000 7.4900 7.1800 0.01100 0.01100 119.20 0.019 10.360 10.360 0.000 10.142 10.142 0.000
H15MET 2016-09-22 10:15:00 10346 208 900.0 2016.0 266.00 1015.0 7.2600 7.0200 100.000 100.000 7.2600 7.0200 0.02400 0.02400 118.60 0.332 10.198 10.198 0.000 10.032 10.032 0.000
H15MET 2016-09-22 10:00:00 10345 208 900.0 2016.0 266.00 1000.0 7.1500 6.9430 100.000 100.000 7.1500 6.9430 0.00500 0.00500 37.63 0.100 10.122 10.122 0.000 9.979 9.979 0.000
H15MET 2016-09-22 09:45:00 10344 208 900.0 2016.0 266.00 945.0 7.1200 6.8620 100.000 100.000 7.1200 6.8620 0.00000 0.00000 0.00 0.000 10.101 10.101 0.000 9.923 9.923 0.000
H15MET 2016-09-22 09:30:00 10343 208 900.0 2016.0 266.00 930.0 7.0800 6.8610 100.000 100.000 7.0800 6.8610 0.00000 0.00000 0.00 0.000 10.073 10.073 0.000 9.923 9.923 0.000
H15MET 2016-09-22 09:15:00 10342 208 900.0 2016.0 266.00 915.0 6.9470 6.7410 100.000 100.000 6.9470 6.7410 0.00600 0.00600 327.80 0.027 9.982 9.982 0.000 9.841 9.841 0.000
H15MET 2016-09-22 09:00:00 10341 208 900.0 2016.0 266.00 900.0 6.9270 6.7230 100.000 100.000 6.9270 6.7220 0.00000 0.00000 0.00 0.000 9.968 9.968 0.000 9.829 9.828 0.000
H15MET 2016-09-22 08:45:00 10340 208 900.0 2016.0 266.00 845.0 6.9310 6.6920 100.000 100.000 6.9310 6.6920 0.00000 0.00000 0.00 0.000 9.971 9.971 0.000 9.808 9.808 0.000
H15MET 2016-09-22 08:30:00 10339 208 900.0 2016.0 266.00 830.0 6.8730 6.6690 100.000 100.000 6.8730 6.6690 0.00000 0.00000 0.00 0.000 9.931 9.931 0.000 9.793 9.793 0.000
H15MET 2016-09-22 08:15:00 10338 208 900.0 2016.0 266.00 815.0 6.8920 6.6310 100.000 100.000 6.8920 6.6310 0.00000 0.00000 0.00 0.000 9.944 9.944 0.000 9.767 9.767 0.000
H15MET 2016-09-22 08:00:00 10337 208 900.0 2016.0 266.00 800.0 6.8130 6.5780 100.000 100.000 6.8130 6.5780 0.00000 0.00000 0.00 0.000 9.890 9.890 0.000 9.731 9.731 0.000
H15MET 2016-09-22 07:45:00 10336 208 900.0 2016.0 266.00 745.0 6.7190 6.5270 100.000 100.000 6.7190 6.5270 0.00000 0.00000 0.00 0.000 9.826 9.826 0.000 9.697 9.697 0.000
H15MET 2016-09-22 07:30:00 10335 208 900.0 2016.0 266.00 730.0 6.6070 6.4310 100.000 100.000 6.6070 6.4310 0.00000 0.00000 0.00 0.000 9.751 9.751 0.000 9.633 9.633 0.000
H15MET 2016-09-22 07:15:00 10334 208 900.0 2016.0 266.00 715.0 6.6700 6.4250 100.000 100.000 6.6700 6.4250 0.00000 0.00000 0.00 0.000 9.793 9.793 0.000 9.629 9.629 0.000
H15MET 2016-09-22 07:00:00 10333 208 900.0 2016.0 266.00 700.0 6.5460 6.3740 100.000 100.000 6.5460 6.3740 0.00000 0.00000 0.00 0.000 9.710 9.710 0.000 9.595 9.595 0.000
H15MET 2016-09-22 06:45:00 10332 208 900.0 2016.0 266.00 645.0 6.5050 6.3200 100.000 100.000 6.5050 6.3200 0.00000 0.00000 0.00 0.000 9.683 9.683 0.000 9.560 9.560 0.000
H15MET 2016-09-22 06:30:00 10331 208 900.0 2016.0 266.00 630.0 6.4340 6.2460 100.000 100.000 6.4340 6.2460 0.00000 0.00000 0.00 0.000 9.635 9.635 0.000 9.511 9.511 0.000
H15MET 2016-09-22 06:15:00 10330 208 900.0 2016.0 266.00 615.0 6.4070 6.2220 100.000 100.000 6.4070 6.2220 0.00000 0.00000 0.00 0.000 9.617 9.617 0.000 9.495 9.495 0.000
H15MET 2016-09-22 06:00:00 10329 208 900.0 2016.0 266.00 600.0 6.3460 6.1620 100.000 100.000 6.3460 6.1620 0.00000 0.00000 0.00 0.000 9.577 9.577 0.000 9.456 9.456 0.000
H15MET 2016-09-22 05:45:00 10328 208 900.0 2016.0 266.00 545.0 6.3000 6.1190 100.000 100.000 6.3000 6.1190 0.00000 0.00000 0.00 0.000 9.547 9.547 0.000 9.428 9.428 0.000
H15MET 2016-09-22 05:30:00 10327 208 900.0 2016.0 266.00 530.0 6.3620 6.1850 100.000 100.000 6.3620 6.1850 0.00000 0.00000 0.00 0.000 9.587 9.587 0.000 9.471 9.471 0.000
H15MET 2016-09-22 05:15:00 10326 208 900.0 2016.0 266.00 515.0 6.3460 6.1640 100.000 100.000 6.3460 6.1640 0.00000 0.00000 0.00 0.000 9.577 9.577 0.000 9.457 9.457 0.000
H15MET 2016-09-22 05:00:00 10325 208 900.0 2016.0 266.00 500.0 6.2630 6.0810 100.000 100.000 6.2630 6.0810 0.00000 0.00000 0.00 0.000 9.522 9.522 0.000 9.403 9.403 0.000
H15MET 2016-09-22 04:45:00 10324 208 900.0 2016.0 266.00 445.0 6.1890 6.0330 100.000 100.000 6.1890 6.0330 0.00000 0.00000 0.00 0.000 9.474 9.474 0.000 9.372 9.372 0.000
H15MET 2016-09-22 04:30:00 10323 208 900.0 2016.0 266.00 430.0 6.1370 5.9890 100.000 100.000 6.1370 5.9890 0.00000 0.00000 0.00 0.000 9.440 9.440 0.000 9.343 9.343 0.000
H15MET 2016-09-22 04:15:00 10322 208 900.0 2016.0 266.00 415.0 6.1510 5.9450 100.000 100.000 6.1510 5.9450 0.00000 0.00000 0.00 0.000 9.449 9.449 0.000 9.315 9.315 0.000
H15MET 2016-09-22 04:00:00 10321 208 900.0 2016.0 266.00 400.0 6.1440 5.9570 100.000 100.000 6.1440 5.9570 0.00000 0.00000 0.00 0.000 9.444 9.444 0.000 9.323 9.323 0.000
H15MET 2016-09-22 03:45:00 10320 208 900.0 2016.0 266.00 345.0 6.0310 5.8680 100.000 100.000 6.0310 5.8680 0.00000 0.00000 0.00 0.000 9.371 9.371 0.000 9.265 9.265 0.000
H15MET 2016-09-22 03:30:00 10319 208 900.0 2016.0 266.00 330.0 6.0550 5.8990 100.000 100.000 6.0550 5.8990 0.00000 0.00000 0.00 0.000 9.386 9.386 0.000 9.285 9.285 0.000
H15MET 2016-09-22 03:15:00 10318 208 900.0 2016.0 266.00 315.0 6.0390 5.8610 100.000 100.000 6.0390 5.8610 0.00000 0.00000 0.00 0.000 9.376 9.376 0.000 9.261 9.261 0.000
H15MET 2016-09-22 03:00:00 10317 208 900.0 2016.0 266.00 300.0 6.0100 5.8190 100.000 100.000 6.0100 5.8190 0.00000 0.00000 0.00 0.000 9.357 9.357 0.000 9.234 9.234 0.000
H15MET 2016-09-22 02:45:00 10316 208 900.0 2016.0 266.00 245.0 5.9640 5.7940 100.000 100.000 5.9640 5.7940 0.00000 0.00000 0.00 0.000 9.327 9.327 0.000 9.218 9.218 0.000
H15MET 2016-09-22 02:30:00 10315 208 900.0 2016.0 266.00 230.0 5.8300 5.6920 100.000 100.000 5.8300 5.6920 0.00000 0.00000 0.00 0.000 9.241 9.241 0.000 9.153 9.153 0.000
H15MET 2016-09-22 02:15:00 10314 208 900.0 2016.0 266.00 215.0 5.6030 5.4680 100.000 100.000 5.6030 5.4680 0.00000 0.00000 0.00 0.000 9.097 9.097 0.000 9.012 9.012 0.000
H15MET 2016-09-22 02:00:00 10313 208 900.0 2016.0 266.00 200.0 5.5200 5.4060 100.000 100.000 5.5200 5.4060 0.00000 0.00000 0.00 0.000 9.044 9.044 0.000 8.973 8.973 0.000
H15MET 2016-09-22 01:45:00 10312 208 900.0 2016.0 266.00 145.0 5.4900 5.3530 100.000 100.000 5.4900 5.3530 0.00000 0.00000 0.00 0.000 9.026 9.026 0.000 8.940 8.940 0.000
H15MET 2016-09-22 01:30:00 10311 208 900.0 2016.0 266.00 130.0 5.5270 5.3920 100.000 100.000 5.5270 5.3920 0.00000 0.00000 0.00 0.000 9.049 9.049 0.000 8.964 8.964 0.000
H15MET 2016-09-22 01:15:00 10310 208 900.0 2016.0 266.00 115.0 5.5840 5.4630 100.000 100.000 5.5840 5.4630 0.00000 0.00000 0.00 0.000 9.085 9.085 0.000 9.009 9.009 0.000
H15MET 2016-09-22 01:00:00 10309 208 900.0 2016.0 266.00 100.0 5.7140 5.6010 100.000 100.000 5.7140 5.6010 0.00000 0.00000 0.00 0.000 9.167 9.167 0.000 9.095 9.095 0.000
H15MET 2016-09-22 00:45:00 10308 208 900.0 2016.0 266.00 45.0 5.8130 5.7070 100.000 100.000 5.8130 5.7070 0.00000 0.00000 0.00 0.000 9.230 9.230 0.000 9.163 9.163 0.000
H15MET 2016-09-22 00:30:00 10307 208 900.0 2016.0 266.00 30.0 5.8610 5.7360 100.000 100.000 5.8610 5.7360 0.00000 0.00000 0.00 0.000 9.261 9.261 0.000 9.181 9.181 0.000
H15MET 2016-09-22 00:15:00 10306 208 900.0 2016.0 266.00 15.0 5.9050 5.7470 100.000 100.000 5.9050 5.7470 0.00000 0.00000 0.00 0.000 9.289 9.289 0.000 9.188 9.188 0.000
H15MET 2016-09-22 00:00:00 10305 208 900.0 2016.0 265.00 2400.0 5.9610 5.7850 100.000 100.000 5.9610 5.7850 0.00000 0.00000 0.00 0.000 9.325 9.325 0.000 9.212 9.212 0.000
H15MET 2016-09-21 23:45:00 10304 208 900.0 2016.0 265.00 2345.0 5.9420 5.7660 100.000 100.000 5.9420 5.7660 0.00000 0.00000 0.00 0.000 9.313 9.313 0.000 9.200 9.200 0.000
H15MET 2016-09-21 23:30:00 10303 208 900.0 2016.0 265.00 2330.0 5.8650 5.6890 100.000 100.000 5.8650 5.6890 0.00000 0.00000 0.00 0.000 9.264 9.264 0.000 9.151 9.151 0.000
H15MET 2016-09-21 23:15:00 10302 208 900.0 2016.0 265.00 2315.0 5.9400 5.7770 100.000 100.000 5.9400 5.7770 0.02300 0.02300 285.10 0.036 9.312 9.312 0.000 9.207 9.207 0.000
H15MET 2016-09-21 23:00:00 10301 208 900.0 2016.0 265.00 2300.0 5.9110 5.8180 100.000 100.000 5.9110 5.8180 0.00000 0.00000 0.00 0.000 9.293 9.293 0.000 9.233 9.233 0.000
H15MET 2016-09-21 22:45:00 10300 208 900.0 2016.0 265.00 2245.0 5.8340 5.6740 100.000 100.000 5.8330 5.6730 0.00000 0.00000 0.00 0.000 9.244 9.243 0.000 9.142 9.141 0.000
H15MET 2016-09-21 22:30:00 10299 208 900.0 2016.0 265.00 2230.0 5.8160 5.6690 100.000 100.000 5.8160 5.6690 0.00000 0.00000 0.00 0.000 9.232 9.232 0.000 9.138 9.138 0.000
H15MET 2016-09-21 22:15:00 10298 208 900.0 2016.0 265.00 2215.0 5.8210 5.6830 100.000 100.000 5.8160 5.6830 0.00000 0.00000 0.00 0.000 9.235 9.232 0.000 9.147 9.147 0.000
H15MET 2016-09-21 22:00:00 10297 208 900.0 2016.0 265.00 2200.0 5.9000 5.7670 100.000 100.000 5.8940 5.7670 0.00000 0.00000 0.00 0.000 9.286 9.282 0.000 9.201 9.201 0.000
H15MET 2016-09-21 21:45:00 10296 208 900.0 2016.0 265.00 2145.0 6.0980 5.9270 100.000 100.000 6.0940 5.9270 0.00000 0.00000 0.00 0.000 9.414 9.412 0.000 9.303 9.303 0.000
H15MET 2016-09-21 21:30:00 10295 208 900.0 2016.0 265.00 2130.0 6.3520 6.2040 100.000 100.000 6.3500 6.2040 0.00200 0.00200 114.60 0.011 9.581 9.580 0.000 9.483 9.483 0.000
H15MET 2016-09-21 21:15:00 10294 208 900.0 2016.0 265.00 2115.0 6.3360 6.2270 99.900 100.000 6.3250 6.2270 0.05400 0.05200 138.40 7.220 9.570 9.563 0.010 9.499 9.499 0.000
H15MET 2016-09-21 21:00:00 10293 208 900.0 2016.0 265.00 2100.0 6.4500 6.3120 99.900 100.000 6.4410 6.3120 0.03600 0.03600 139.50 0.212 9.646 9.640 0.010 9.554 9.554 0.000
H15MET 2016-09-21 20:45:00 10292 208 900.0 2016.0 265.00 2045.0 6.6090 6.4720 100.000 100.000 6.6030 6.4720 0.01600 0.01600 134.00 0.444 9.752 9.748 0.000 9.661 9.661 0.000
H15MET 2016-09-21 20:30:00 10291 208 900.0 2016.0 265.00 2030.0 6.8000 6.6480 100.000 100.000 6.7970 6.6480 0.00000 0.00000 0.00 0.000 9.881 9.879 0.000 9.778 9.778 0.000
H15MET 2016-09-21 20:15:00 10290 208 900.0 2016.0 265.00 2015.0 6.8710 6.7230 100.000 100.000 6.8670 6.7230 0.00000 0.00000 0.00 0.000 9.930 9.927 0.000 9.829 9.829 0.000
H15MET 2016-09-21 20:00:00 10289 208 900.0 2016.0 265.00 2000.0 6.8230 6.6550 99.900 100.000 6.8120 6.6540 0.00000 0.00000 0.00 0.000 9.897 9.889 0.010 9.783 9.782 0.000
H15MET 2016-09-21 19:45:00 10288 208 900.0 2016.0 265.00 1945.0 6.9700 6.7910 99.900 100.000 6.9600 6.7910 0.00000 0.00000 0.00 0.000 9.997 9.990 0.010 9.875 9.875 0.000
H15MET 2016-09-21 19:30:00 10287 208 900.0 2016.0 265.00 1930.0 7.0200 6.8390 99.900 100.000 7.0000 6.8390 0.07100 0.06600 159.40 6.252 10.032 10.018 0.010 9.908 9.908 0.000
H15MET 2016-09-21 19:15:00 10286 208 900.0 2016.0 265.00 1915.0 6.9380 6.7620 99.800 100.000 6.9110 6.7620 0.00000 0.00000 0.00 0.000 9.975 9.957 0.020 9.855 9.855 0.000
H15MET 2016-09-21 19:00:00 10285 208 900.0 2016.0 265.00 1900.0 7.0800 6.9670 99.800 100.000 7.0500 6.9670 0.00000 0.00000 0.00 0.000 10.073 10.052 0.020 9.995 9.995 0.000
H15MET 2016-09-21 18:45:00 10284 208 900.0 2016.0 265.00 1845.0 7.4200 7.2700 99.900 100.000 7.4100 7.2700 0.00000 0.00000 0.00 0.000 10.311 10.304 0.010 10.205 10.205 0.000
H15MET 2016-09-21 18:30:00 10283 208 900.0 2016.0 265.00 1830.0 7.5800 7.4300 99.900 100.000 7.5700 7.4300 0.02100 0.02100 328.60 0.000 10.424 10.417 0.010 10.318 10.318 0.000
H15MET 2016-09-21 18:15:00 10282 208 900.0 2016.0 265.00 1815.0 7.5700 7.4000 99.800 100.000 7.5500 7.4000 0.00000 0.00000 0.00 0.000 10.417 10.403 0.021 10.296 10.296 0.000
H15MET 2016-09-21 18:00:00 10281 208 900.0 2016.0 265.00 1800.0 7.6000 7.4400 99.800 100.000 7.5700 7.4400 0.00000 0.00000 0.00 0.000 10.438 10.417 0.021 10.325 10.325 -0.000
H15MET 2016-09-21 17:45:00 10280 208 900.0 2016.0 265.00 1745.0 7.7600 7.6000 99.800 100.000 7.7300 7.6000 0.19200 0.17700 307.90 13.220 10.553 10.531 0.021 10.438 10.438 0.000
H15MET 2016-09-21 17:30:00 10279 208 900.0 2016.0 265.00 1730.0 7.9700 7.7800 99.800 100.000 7.9400 7.7800 0.11600 0.11100 281.60 1.426 10.705 10.683 0.021 10.567 10.567 -0.000
H15MET 2016-09-21 17:15:00 10278 208 900.0 2016.0 265.00 1715.0 8.0700 7.8800 99.800 100.000 8.0300 7.8800 0.05600 0.05600 276.80 0.066 10.778 10.749 0.022 10.640 10.640 -0.000
H15MET 2016-09-21 17:00:00 10277 208 900.0 2016.0 265.00 1700.0 8.1200 7.9200 99.700 100.000 8.0800 7.9200 0.05000 0.01800 219.80 26.840 10.815 10.786 0.032 10.669 10.669 0.000
H15MET 2016-09-21 16:45:00 10276 208 900.0 2016.0 265.00 1645.0 8.2100 8.0400 99.600 100.000 8.1600 8.0400 0.26200 0.25200 296.00 9.330 10.881 10.844 0.044 10.756 10.756 0.000
H15MET 2016-09-21 16:30:00 10275 208 900.0 2016.0 265.00 1630.0 8.1800 7.9900 99.400 100.000 8.0900 7.9900 0.07500 0.07200 323.40 8.550 10.859 10.793 0.065 10.720 10.720 0.000
H15MET 2016-09-21 16:15:00 10274 208 900.0 2016.0 265.00 1615.0 8.1700 7.9500 99.200 100.000 8.0500 7.9500 0.02900 0.02900 328.70 0.819 10.852 10.764 0.087 10.691 10.691 -0.000
H15MET 2016-09-21 16:00:00 10273 208 900.0 2016.0 265.00 1600.0 8.4300 8.2500 99.200 100.000 8.3100 8.2500 0.05700 0.05700 354.50 0.137 11.045 10.956 0.088 10.911 10.911 0.000
H15MET 2016-09-21 15:45:00 10272 208 900.0 2016.0 265.00 1545.0 8.3000 8.0800 98.500 100.000 8.0800 8.0700 0.02000 0.02000 349.20 0.796 10.948 10.786 0.164 10.786 10.778 0.000
H15MET 2016-09-21 15:30:00 10271 208 900.0 2016.0 265.00 1530.0 8.5200 8.2900 98.000 99.500 8.2300 8.2300 0.02300 0.02300 352.80 0.013 11.113 10.896 0.222 10.941 10.896 0.055
H15MET 2016-09-21 15:15:00 10270 208 900.0 2016.0 265.00 1515.0 8.9400 8.6400 96.000 97.500 8.3400 8.2700 0.10800 0.04300 41.88 14.190 11.433 10.978 0.457 11.204 10.926 0.280
H15MET 2016-09-21 15:00:00 10269 208 900.0 2016.0 265.00 1500.0 10.4200 10.1300 94.100 94.600 9.5200 9.3000 0.27000 0.26000 76.20 11.560 12.629 11.889 0.745 12.386 11.715 0.669
H15MET 2016-09-21 14:45:00 10268 208 900.0 2016.0 265.00 1445.0 12.1700 12.0100 84.300 83.300 9.5900 9.2300 0.03900 0.03900 131.90 0.287 14.182 11.945 2.227 14.034 11.659 2.344
H15MET 2016-09-21 14:30:00 10267 208 900.0 2016.0 265.00 1430.0 13.2400 13.3600 72.700 67.310 8.4300 7.4000 0.16700 0.16300 136.90 5.030 15.213 11.045 4.153 15.333 10.296 5.012
H15MET 2016-09-21 14:15:00 10266 208 900.0 2016.0 265.00 1415.0 14.0200 14.1100 64.810 58.880 7.4800 6.1800 0.33500 0.19100 95.20 40.230 16.005 10.353 5.632 16.099 9.468 6.620
H15MET 2016-09-21 14:00:00 10265 208 900.0 2016.0 265.00 1400.0 14.8300 14.8100 57.710 54.130 6.5090 5.5930 0.37000 0.02900 132.00 59.120 16.866 9.685 7.133 16.844 9.090 7.727
H15MET 2016-09-21 13:45:00 10264 208 900.0 2016.0 265.00 1345.0 14.8200 14.8700 56.270 51.750 6.1410 5.0260 0.37200 0.13100 258.50 40.380 16.855 9.442 7.371 16.910 8.738 8.159
H15MET 2016-09-21 13:30:00 10263 208 900.0 2016.0 265.00 1330.0 14.7600 14.7900 54.890 51.010 5.7380 4.7390 0.40100 0.07100 319.60 50.320 16.790 9.182 7.574 16.823 8.565 8.241
H15MET 2016-09-21 13:15:00 10262 208 900.0 2016.0 265.00 1315.0 14.9900 14.9800 52.800 49.000 5.4010 4.3590 0.22000 0.07200 299.40 31.300 17.041 8.970 8.043 17.030 8.340 8.685
H15MET 2016-09-21 13:00:00 10261 208 900.0 2016.0 265.00 1300.0 14.7100 14.8300 52.330 48.670 5.0320 4.1230 0.55600 0.26800 266.40 53.230 16.736 8.742 7.978 16.866 8.203 8.657
H15MET 2016-09-21 12:45:00 10260 208 900.0 2016.0 265.00 1245.0 13.9700 14.2600 61.450 55.720 6.6120 5.4670 0.49000 0.29500 258.80 41.410 15.954 9.754 6.150 16.256 9.011 7.198
H15MET 2016-09-21 12:30:00 10259 208 900.0 2016.0 265.00 1230.0 13.6800 13.8900 66.740 61.220 7.6000 6.5420 0.13900 0.10900 103.20 17.190 15.656 10.438 5.207 15.871 9.707 6.155
H15MET 2016-09-21 12:15:00 10258 208 900.0 2016.0 265.00 1215.0 13.5000 13.7800 73.200 64.410 8.7900 7.1600 0.19900 0.18600 99.90 7.530 15.473 11.318 4.147 15.758 10.129 5.608
H15MET 2016-09-21 12:00:00 10257 208 900.0 2016.0 265.00 1200.0 13.6400 13.9800 67.500 59.980 7.6900 6.3020 0.28300 0.11500 291.10 49.310 15.615 10.503 5.075 15.964 9.548 6.389
H15MET 2016-09-21 11:45:00 10256 208 900.0 2016.0 265.00 1145.0 12.8900 13.5000 71.300 61.670 7.8100 6.2870 0.07900 0.04700 240.00 20.410 14.869 10.589 4.267 15.473 9.538 5.931
H15MET 2016-09-21 11:30:00 10255 208 900.0 2016.0 265.00 1130.0 11.8600 12.3000 80.500 72.300 8.6100 7.4600 0.06700 0.03600 212.20 20.350 13.896 11.181 2.710 14.304 10.339 3.962
H15MET 2016-09-21 11:15:00 10254 208 900.0 2016.0 265.00 1115.0 11.5600 12.0900 80.500 74.000 8.3200 7.5900 0.06600 0.04200 170.20 1.116 13.623 10.963 2.656 14.108 10.431 3.668
H15MET 2016-09-21 11:00:00 10253 208 900.0 2016.0 265.00 1100.0 11.2700 11.8100 80.000 72.800 7.9500 7.0900 0.10800 0.09500 260.30 9.290 13.364 10.691 2.673 13.850 10.080 3.767
H15MET 2016-09-21 10:45:00 10252 208 900.0 2016.0 265.00 1045.0 11.1500 11.9300 77.400 70.600 7.3300 6.7440 0.14700 0.11700 294.80 16.550 13.258 10.247 2.996 13.960 9.843 4.104
H15MET 2016-09-21 10:30:00 10251 208 900.0 2016.0 265.00 1030.0 11.5800 12.0800 76.200 68.780 7.5300 6.5280 0.14600 0.03500 150.50 39.250 13.641 10.388 3.247 14.099 9.698 4.402
H15MET 2016-09-21 10:15:00 10250 208 900.0 2016.0 265.00 1015.0 11.6800 11.5100 74.900 71.400 7.3800 6.5270 0.16100 0.15300 78.40 6.580 13.731 10.282 3.447 13.578 9.697 3.883
H15MET 2016-09-21 10:00:00 10249 208 900.0 2016.0 265.00 1000.0 11.0800 11.0600 76.100 73.500 7.0400 6.5050 0.15200 0.12000 260.30 23.030 13.196 10.046 3.154 13.179 9.683 3.492
H15MET 2016-09-21 09:45:00 10248 208 900.0 2016.0 265.00 945.0 9.4800 10.1600 81.300 74.500 6.4350 5.8270 0.15100 0.13500 288.60 13.860 11.857 9.636 2.217 12.411 9.239 3.165
H15MET 2016-09-21 09:30:00 10247 208 900.0 2016.0 265.00 930.0 9.1500 10.3300 82.400 75.100 6.3120 6.1190 0.01900 0.01800 88.70 6.477 11.597 9.554 2.041 12.553 9.428 3.126
H15MET 2016-09-21 09:15:00 10246 208 900.0 2016.0 265.00 915.0 9.1900 10.3500 82.000 74.800 6.2830 6.0740 0.01600 0.01600 85.80 0.014 11.628 9.535 2.093 12.570 9.399 3.168
H15MET 2016-09-21 09:00:00 10245 208 900.0 2016.0 265.00 900.0 10.0700 9.9600 76.600 75.400 6.1470 5.8210 0.10700 0.10600 90.20 2.032 12.336 9.446 2.887 12.246 9.235 3.012
H15MET 2016-09-21 08:45:00 10244 208 900.0 2016.0 265.00 845.0 8.6500 8.4100 82.900 81.900 5.9010 5.4970 0.06100 0.01300 303.10 22.760 11.211 9.287 1.917 11.030 9.030 1.996
H15MET 2016-09-21 08:30:00 10243 208 900.0 2016.0 265.00 830.0 6.0920 6.5390 94.400 90.300 5.2540 5.0520 0.01600 0.01600 104.70 0.347 9.410 8.879 0.527 9.705 8.754 0.941
H15MET 2016-09-21 08:15:00 10242 208 900.0 2016.0 265.00 815.0 5.1860 5.3490 96.000 94.900 4.6040 4.5960 0.04900 0.04900 108.80 1.472 8.837 8.484 0.353 8.937 8.480 0.456
H15MET 2016-09-21 08:00:00 10241 208 900.0 2016.0 265.00 800.0 4.8570 4.8330 97.100 97.200 4.4370 4.4220 0.03700 0.03700 101.60 0.948 8.636 8.386 0.250 8.621 8.377 0.241
H15MET 2016-09-21 07:45:00 10240 208 900.0 2016.0 265.00 745.0 4.4340 4.3750 97.600 98.200 4.0940 4.1110 0.00800 0.00700 107.90 0.917 8.384 8.186 0.201 8.349 8.196 0.150
H15MET 2016-09-21 07:30:00 10239 208 900.0 2016.0 265.00 730.0 4.0850 4.0500 98.000 98.600 3.8000 3.8470 0.10800 0.08100 52.16 0.047 8.181 8.018 0.164 8.161 8.045 0.114
H15MET 2016-09-21 07:15:00 10238 208 900.0 2016.0 265.00 715.0 3.9310 3.9100 98.000 98.900 3.6440 3.7490 0.00000 0.00000 331.30 0.004 8.093 7.931 0.162 8.081 7.990 0.089
H15MET 2016-09-21 07:00:00 10237 208 900.0 2016.0 265.00 700.0 3.8920 3.8640 97.700 98.400 3.5640 3.6410 0.00200 0.00200 331.40 0.006 8.071 7.886 0.186 8.055 7.929 0.129
H15MET 2016-09-21 06:45:00 10236 208 900.0 2016.0 265.00 645.0 3.8670 3.8280 97.600 98.200 3.5200 3.5760 0.00000 0.00000 0.00 0.000 8.056 7.862 0.193 8.034 7.893 0.145
H15MET 2016-09-21 06:30:00 10235 208 900.0 2016.0 265.00 630.0 3.8520 3.8290 97.400 98.000 3.4840 3.5440 0.00000 0.00000 0.00 0.000 8.048 7.842 0.209 8.035 7.875 0.161
H15MET 2016-09-21 06:15:00 10234 208 900.0 2016.0 265.00 615.0 3.8290 3.8050 97.300 97.800 3.4360 3.4830 0.00000 0.00000 0.00 0.000 8.035 7.815 0.217 8.021 7.841 0.176
H15MET 2016-09-21 06:00:00 10233 208 900.0 2016.0 265.00 600.0 3.8820 3.8620 97.000 97.400 3.4510 3.4880 0.02500 0.02500 288.10 2.950 8.065 7.823 0.242 8.054 7.844 0.209
H15MET 2016-09-21 05:45:00 10232 208 900.0 2016.0 265.00 545.0 3.9660 3.9520 96.700 96.900 3.4900 3.5090 0.00300 0.00300 331.00 0.090 8.113 7.845 0.268 8.105 7.855 0.251
H15MET 2016-09-21 05:30:00 10231 208 900.0 2016.0 265.00 530.0 4.0290 4.0350 96.500 96.900 3.5230 3.5820 0.02100 0.02100 324.80 1.047 8.149 7.863 0.285 8.152 7.896 0.253
H15MET 2016-09-21 05:15:00 10230 208 900.0 2016.0 265.00 515.0 4.0800 4.0780 95.900 96.100 3.4800 3.5210 0.00100 0.00100 313.30 0.000 8.178 7.839 0.335 8.177 7.862 0.319
H15MET 2016-09-21 05:00:00 10229 208 900.0 2016.0 265.00 500.0 4.2370 4.2690 95.300 95.400 3.5550 3.5990 0.00500 0.00500 314.70 0.062 8.269 7.881 0.389 8.287 7.906 0.381
H15MET 2016-09-21 04:45:00 10228 208 900.0 2016.0 265.00 445.0 4.3700 4.4140 94.900 94.800 3.6320 3.6620 0.01500 0.01500 315.80 0.000 8.346 7.924 0.426 8.372 7.941 0.435
H15MET 2016-09-21 04:30:00 10227 208 900.0 2016.0 265.00 430.0 4.4200 4.4640 94.800 94.600 3.6560 3.6800 0.04400 0.04400 315.80 0.024 8.376 7.937 0.436 8.402 7.951 0.454
H15MET 2016-09-21 04:15:00 10226 208 900.0 2016.0 265.00 415.0 4.4990 4.5450 94.500 94.400 3.7000 3.7260 0.00700 0.00700 315.70 0.000 8.422 7.962 0.463 8.449 7.977 0.473
H15MET 2016-09-21 04:00:00 10225 208 900.0 2016.0 265.00 400.0 4.5660 4.5790 94.600 94.400 3.7760 3.7590 0.00800 0.00800 315.70 0.000 8.462 8.005 0.457 8.470 7.995 0.474
H15MET 2016-09-21 03:45:00 10224 208 900.0 2016.0 265.00 345.0 4.6250 4.6220 94.400 94.400 3.8040 3.7960 0.01400 0.01400 315.50 0.000 8.497 8.021 0.476 8.495 8.016 0.476
H15MET 2016-09-21 03:30:00 10223 208 900.0 2016.0 265.00 330.0 4.6820 4.6480 94.100 94.200 3.8170 3.7990 0.03000 0.03000 311.90 3.678 8.531 8.028 0.503 8.511 8.018 0.494
H15MET 2016-09-21 03:15:00 10222 208 900.0 2016.0 265.00 315.0 4.7440 4.7200 93.700 93.800 3.8180 3.8110 0.10000 0.09800 306.90 6.366 8.568 8.029 0.540 8.554 8.025 0.530
H15MET 2016-09-21 03:00:00 10221 208 900.0 2016.0 265.00 300.0 4.7950 4.7910 93.700 93.700 3.8610 3.8640 0.03900 0.03700 306.20 2.709 8.599 8.053 0.542 8.596 8.055 0.542
H15MET 2016-09-21 02:45:00 10220 208 900.0 2016.0 265.00 245.0 4.8960 4.8920 93.300 93.400 3.9090 3.9220 0.00000 0.00000 342.90 0.006 8.660 8.080 0.580 8.657 8.088 0.571
H15MET 2016-09-21 02:30:00 10219 208 900.0 2016.0 265.00 230.0 4.9680 4.9920 92.800 92.700 3.9060 3.9130 0.02800 0.02800 330.20 0.851 8.703 8.079 0.627 8.718 8.083 0.636
H15MET 2016-09-21 02:15:00 10218 208 900.0 2016.0 265.00 215.0 5.0520 5.0720 92.100 91.700 3.8760 3.8380 0.02700 0.02700 330.10 0.020 8.754 8.062 0.692 8.767 8.040 0.728
H15MET 2016-09-21 02:00:00 10217 208 900.0 2016.0 265.00 200.0 5.1510 5.2140 91.400 91.200 3.8600 3.8910 0.00000 0.00000 0.00 0.000 8.815 8.052 0.758 8.854 8.070 0.779
H15MET 2016-09-21 01:45:00 10216 208 900.0 2016.0 265.00 145.0 5.2920 5.3530 90.600 90.500 3.8890 3.9290 0.00900 0.00900 330.70 0.094 8.902 8.069 0.837 8.940 8.092 0.849
H15MET 2016-09-21 01:30:00 10215 208 900.0 2016.0 265.00 130.0 5.4830 5.4950 90.500 90.400 4.0510 4.0540 0.00000 0.00000 0.00 0.000 9.021 8.161 0.857 9.029 8.163 0.867
H15MET 2016-09-21 01:15:00 10214 208 900.0 2016.0 265.00 115.0 5.5400 5.5300 91.000 90.500 4.1930 4.1020 0.00000 0.00000 0.00 0.000 9.057 8.243 0.815 9.051 8.191 0.860
H15MET 2016-09-21 01:00:00 10213 208 900.0 2016.0 265.00 100.0 5.5960 5.6460 90.000 90.000 4.0960 4.1340 0.00000 0.00000 0.00 0.000 9.092 8.187 0.909 9.124 8.209 0.912
H15MET 2016-09-21 00:45:00 10212 208 900.0 2016.0 265.00 45.0 5.6750 5.7500 90.500 90.100 4.2450 4.2580 0.00000 0.00000 0.00 0.000 9.142 8.274 0.869 9.190 8.281 0.910
H15MET 2016-09-21 00:30:00 10211 208 900.0 2016.0 265.00 30.0 5.7500 5.7770 90.500 90.500 4.3220 4.3450 0.00000 0.00000 0.00 0.000 9.190 8.318 0.873 9.207 8.332 0.875
H15MET 2016-09-21 00:15:00 10210 208 900.0 2016.0 265.00 15.0 5.8730 5.8690 91.200 90.900 4.5530 4.4940 0.00600 0.00600 335.90 0.013 9.269 8.454 0.816 9.266 8.419 0.843